<?xml version="1.0" encoding="UTF-8" standalone="no" ?>
<gpx xmlns="http://www.topografix.com/GPX/1/1" xmlns:xsi="http://www.w3.org/2001/XMLSchema-instance" xsi:schemaLocation="http://www.topografix.com/GPX/1/1 http://www.topografix.com/GPX/1/1/gpx.xsd" version="1.1" creator="VisuGPX - https://www.visugpx.com">
  <metadata>
    <name>Sevilla 3</name>
  </metadata>
  <trk>
    <name><![CDATA[Sevilla 3]]></name>
    <extensions>
      <line xmlns="http://www.topografix.com/GPX/gpx_style/0/2">
        <color>0000FF</color>
        <width>4</width>
      </line>
    </extensions>
    <trkseg>
      <trkpt lat="37.42683" lon="-5.98783">
        <ele>8.526078</ele>
        <time>2022-04-11T09:03:22.000Z</time>
      </trkpt>
      <trkpt lat="37.42674" lon="-5.98764">
        <ele>8.526078</ele>
        <time>2022-04-11T09:03:31.000Z</time>
      </trkpt>
      <trkpt lat="37.42653" lon="-5.98777">
        <ele>8.526078</ele>
        <time>2022-04-11T09:03:38.000Z</time>
      </trkpt>
      <trkpt lat="37.42642" lon="-5.98785">
        <ele>8.526078</ele>
        <time>2022-04-11T09:03:42.000Z</time>
      </trkpt>
      <trkpt lat="37.42631" lon="-5.98794">
        <ele>8.526078</ele>
        <time>2022-04-11T09:03:46.000Z</time>
      </trkpt>
      <trkpt lat="37.42626" lon="-5.98799">
        <ele>8.526078</ele>
        <time>2022-04-11T09:03:48.000Z</time>
      </trkpt>
      <trkpt lat="37.42614" lon="-5.98808">
        <ele>8.526078</ele>
        <time>2022-04-11T09:03:52.000Z</time>
      </trkpt>
      <trkpt lat="37.42609" lon="-5.98813">
        <ele>8.538045</ele>
        <time>2022-04-11T09:03:54.000Z</time>
      </trkpt>
      <trkpt lat="37.42606" lon="-5.98815">
        <ele>8.548505</ele>
        <time>2022-04-11T09:03:55.000Z</time>
      </trkpt>
      <trkpt lat="37.42604" lon="-5.98817">
        <ele>8.557266</ele>
        <time>2022-04-11T09:03:56.000Z</time>
      </trkpt>
      <trkpt lat="37.42595" lon="-5.98822">
        <ele>8.588896</ele>
        <time>2022-04-11T09:03:59.000Z</time>
      </trkpt>
      <trkpt lat="37.42585" lon="-5.98827">
        <ele>8.625951</ele>
        <time>2022-04-11T09:04:03.000Z</time>
      </trkpt>
      <trkpt lat="37.42562" lon="-5.98836">
        <ele>8.707332</ele>
        <time>2022-04-11T09:04:11.000Z</time>
      </trkpt>
      <trkpt lat="37.42549" lon="-5.98839">
        <ele>8.750103</ele>
        <time>2022-04-11T09:04:16.000Z</time>
      </trkpt>
      <trkpt lat="37.42544" lon="-5.9884">
        <ele>8.76823</ele>
        <time>2022-04-11T09:04:18.000Z</time>
      </trkpt>
      <trkpt lat="37.42537" lon="-5.98842">
        <ele>8.792526</ele>
        <time>2022-04-11T09:04:21.000Z</time>
      </trkpt>
      <trkpt lat="37.42536" lon="-5.98845">
        <ele>8.800047</ele>
        <time>2022-04-11T09:04:22.000Z</time>
      </trkpt>
      <trkpt lat="37.42527" lon="-5.98861">
        <ele>8.853318</ele>
        <time>2022-04-11T09:04:28.000Z</time>
      </trkpt>
      <trkpt lat="37.42509" lon="-5.98871">
        <ele>8.916468</ele>
        <time>2022-04-11T09:04:35.000Z</time>
      </trkpt>
      <trkpt lat="37.42501" lon="-5.98878">
        <ele>8.948725</ele>
        <time>2022-04-11T09:04:38.000Z</time>
      </trkpt>
      <trkpt lat="37.42486" lon="-5.98892">
        <ele>9.012386</ele>
        <time>2022-04-11T09:04:44.000Z</time>
      </trkpt>
      <trkpt lat="37.42481" lon="-5.98896">
        <ele>9.03141</ele>
        <time>2022-04-11T09:04:48.000Z</time>
      </trkpt>
      <trkpt lat="37.42481" lon="-5.98897">
        <ele>9.032544</ele>
        <time>2022-04-11T09:04:49.000Z</time>
      </trkpt>
      <trkpt lat="37.4248" lon="-5.98897">
        <ele>9.035102</ele>
        <time>2022-04-11T09:04:57.000Z</time>
      </trkpt>
      <trkpt lat="37.42478" lon="-5.98897">
        <ele>9.043121</ele>
        <time>2022-04-11T09:04:59.000Z</time>
      </trkpt>
      <trkpt lat="37.42477" lon="-5.98897">
        <ele>9.046406</ele>
        <time>2022-04-11T09:05:00.000Z</time>
      </trkpt>
      <trkpt lat="37.42474" lon="-5.98894">
        <ele>9.057919</ele>
        <time>2022-04-11T09:05:01.000Z</time>
      </trkpt>
      <trkpt lat="37.4247" lon="-5.98886">
        <ele>9.083462</ele>
        <time>2022-04-11T09:05:05.000Z</time>
      </trkpt>
      <trkpt lat="37.42456" lon="-5.98863">
        <ele>9.096132</ele>
        <time>2022-04-11T09:05:13.000Z</time>
      </trkpt>
      <trkpt lat="37.42456" lon="-5.98863">
        <ele>9.096132</ele>
        <time>2022-04-11T09:05:14.000Z</time>
      </trkpt>
      <trkpt lat="37.42454" lon="-5.98861">
        <ele>9.09116</ele>
        <time>2022-04-11T09:05:15.000Z</time>
      </trkpt>
      <trkpt lat="37.42452" lon="-5.98866">
        <ele>9.078511</ele>
        <time>2022-04-11T09:05:17.000Z</time>
      </trkpt>
      <trkpt lat="37.42452" lon="-5.98872">
        <ele>9.065074</ele>
        <time>2022-04-11T09:05:20.000Z</time>
      </trkpt>
      <trkpt lat="37.42451" lon="-5.98891">
        <ele>9.021195</ele>
        <time>2022-04-11T09:05:26.000Z</time>
      </trkpt>
      <trkpt lat="37.42439" lon="-5.98906">
        <ele>8.971428</ele>
        <time>2022-04-11T09:05:31.000Z</time>
      </trkpt>
      <trkpt lat="37.42436" lon="-5.98906">
        <ele>8.96256</ele>
        <time>2022-04-11T09:05:32.000Z</time>
      </trkpt>
      <trkpt lat="37.42428" lon="-5.98901">
        <ele>8.937588</ele>
        <time>2022-04-11T09:05:35.000Z</time>
      </trkpt>
      <trkpt lat="37.42415" lon="-5.98893">
        <ele>8.895056</ele>
        <time>2022-04-11T09:05:40.000Z</time>
      </trkpt>
      <trkpt lat="37.42413" lon="-5.98892">
        <ele>8.887633</ele>
        <time>2022-04-11T09:05:41.000Z</time>
      </trkpt>
      <trkpt lat="37.4241" lon="-5.98892">
        <ele>8.880944</ele>
        <time>2022-04-11T09:05:42.000Z</time>
      </trkpt>
      <trkpt lat="37.42394" lon="-5.9889">
        <ele>8.833345</ele>
        <time>2022-04-11T09:05:48.000Z</time>
      </trkpt>
      <trkpt lat="37.42386" lon="-5.98885">
        <ele>8.808422</ele>
        <time>2022-04-11T09:05:50.000Z</time>
      </trkpt>
      <trkpt lat="37.42375" lon="-5.9888">
        <ele>8.773022</ele>
        <time>2022-04-11T09:05:53.000Z</time>
      </trkpt>
      <trkpt lat="37.42371" lon="-5.98878">
        <ele>8.760199</ele>
        <time>2022-04-11T09:05:54.000Z</time>
      </trkpt>
      <trkpt lat="37.42359" lon="-5.98869">
        <ele>8.72072</ele>
        <time>2022-04-11T09:05:57.000Z</time>
      </trkpt>
      <trkpt lat="37.42351" lon="-5.98866">
        <ele>8.6957</ele>
        <time>2022-04-11T09:05:59.000Z</time>
      </trkpt>
      <trkpt lat="37.42348" lon="-5.98864">
        <ele>8.685776</ele>
        <time>2022-04-11T09:06:00.000Z</time>
      </trkpt>
      <trkpt lat="37.42345" lon="-5.98863">
        <ele>8.675769</ele>
        <time>2022-04-11T09:06:01.000Z</time>
      </trkpt>
      <trkpt lat="37.42335" lon="-5.98853">
        <ele>8.641623</ele>
        <time>2022-04-11T09:06:06.000Z</time>
      </trkpt>
      <trkpt lat="37.42329" lon="-5.98853">
        <ele>8.622063</ele>
        <time>2022-04-11T09:06:09.000Z</time>
      </trkpt>
      <trkpt lat="37.42325" lon="-5.98851">
        <ele>8.610985</ele>
        <time>2022-04-11T09:06:10.000Z</time>
      </trkpt>
      <trkpt lat="37.42313" lon="-5.98838">
        <ele>8.762485</ele>
        <time>2022-04-11T09:06:14.000Z</time>
      </trkpt>
      <trkpt lat="37.42311" lon="-5.98834">
        <ele>8.802894</ele>
        <time>2022-04-11T09:06:15.000Z</time>
      </trkpt>
      <trkpt lat="37.42292" lon="-5.98807">
        <ele>9.141062</ele>
        <time>2022-04-11T09:06:22.000Z</time>
      </trkpt>
      <trkpt lat="37.42269" lon="-5.98794">
        <ele>9.446071</ele>
        <time>2022-04-11T09:06:28.000Z</time>
      </trkpt>
      <trkpt lat="37.42253" lon="-5.98785">
        <ele>9.651436</ele>
        <time>2022-04-11T09:06:32.000Z</time>
      </trkpt>
      <trkpt lat="37.42249" lon="-5.98783">
        <ele>9.70019</ele>
        <time>2022-04-11T09:06:33.000Z</time>
      </trkpt>
      <trkpt lat="37.42236" lon="-5.98777">
        <ele>9.868835</ele>
        <time>2022-04-11T09:06:37.000Z</time>
      </trkpt>
      <trkpt lat="37.42234" lon="-5.98775">
        <ele>9.896478</ele>
        <time>2022-04-11T09:06:38.000Z</time>
      </trkpt>
      <trkpt lat="37.42221" lon="-5.98769">
        <ele>10.05926</ele>
        <time>2022-04-11T09:06:44.000Z</time>
      </trkpt>
      <trkpt lat="37.42216" lon="-5.98767">
        <ele>10.114449</ele>
        <time>2022-04-11T09:06:46.000Z</time>
      </trkpt>
      <trkpt lat="37.42207" lon="-5.98761">
        <ele>10.236677</ele>
        <time>2022-04-11T09:06:51.000Z</time>
      </trkpt>
      <trkpt lat="37.42194" lon="-5.98757">
        <ele>10.399888</ele>
        <time>2022-04-11T09:06:57.000Z</time>
      </trkpt>
      <trkpt lat="37.42171" lon="-5.98751">
        <ele>10.6737</ele>
        <time>2022-04-11T09:07:04.000Z</time>
      </trkpt>
      <trkpt lat="37.42168" lon="-5.9875">
        <ele>10.71224</ele>
        <time>2022-04-11T09:07:05.000Z</time>
      </trkpt>
      <trkpt lat="37.42165" lon="-5.98749">
        <ele>10.728846</ele>
        <time>2022-04-11T09:07:06.000Z</time>
      </trkpt>
      <trkpt lat="37.42155" lon="-5.98747">
        <ele>10.72983</ele>
        <time>2022-04-11T09:07:09.000Z</time>
      </trkpt>
      <trkpt lat="37.42151" lon="-5.98746">
        <ele>10.730177</ele>
        <time>2022-04-11T09:07:10.000Z</time>
      </trkpt>
      <trkpt lat="37.42148" lon="-5.98746">
        <ele>10.730544</ele>
        <time>2022-04-11T09:07:11.000Z</time>
      </trkpt>
      <trkpt lat="37.42124" lon="-5.98739">
        <ele>10.732879</ele>
        <time>2022-04-11T09:07:18.000Z</time>
      </trkpt>
      <trkpt lat="37.42092" lon="-5.98733">
        <ele>10.736015</ele>
        <time>2022-04-11T09:07:27.000Z</time>
      </trkpt>
      <trkpt lat="37.42088" lon="-5.98732">
        <ele>10.736402</ele>
        <time>2022-04-11T09:07:28.000Z</time>
      </trkpt>
      <trkpt lat="37.42072" lon="-5.98729">
        <ele>10.737883</ele>
        <time>2022-04-11T09:07:32.000Z</time>
      </trkpt>
      <trkpt lat="37.42064" lon="-5.98728">
        <ele>10.738677</ele>
        <time>2022-04-11T09:07:34.000Z</time>
      </trkpt>
      <trkpt lat="37.42045" lon="-5.98724">
        <ele>10.740527</ele>
        <time>2022-04-11T09:07:39.000Z</time>
      </trkpt>
      <trkpt lat="37.42038" lon="-5.98722">
        <ele>10.741286</ele>
        <time>2022-04-11T09:07:41.000Z</time>
      </trkpt>
      <trkpt lat="37.42026" lon="-5.98719">
        <ele>10.742458</ele>
        <time>2022-04-11T09:07:44.000Z</time>
      </trkpt>
      <trkpt lat="37.42002" lon="-5.98715">
        <ele>10.744755</ele>
        <time>2022-04-11T09:07:50.000Z</time>
      </trkpt>
      <trkpt lat="37.41995" lon="-5.98714">
        <ele>10.745458</ele>
        <time>2022-04-11T09:07:52.000Z</time>
      </trkpt>
      <trkpt lat="37.41963" lon="-5.98708">
        <ele>10.688794</ele>
        <time>2022-04-11T09:08:00.000Z</time>
      </trkpt>
      <trkpt lat="37.41939" lon="-5.98707">
        <ele>10.636538</ele>
        <time>2022-04-11T09:08:06.000Z</time>
      </trkpt>
      <trkpt lat="37.41923" lon="-5.98707">
        <ele>10.601933</ele>
        <time>2022-04-11T09:08:10.000Z</time>
      </trkpt>
      <trkpt lat="37.41887" lon="-5.98708">
        <ele>10.521588</ele>
        <time>2022-04-11T09:08:20.000Z</time>
      </trkpt>
      <trkpt lat="37.41872" lon="-5.9871">
        <ele>10.489083</ele>
        <time>2022-04-11T09:08:24.000Z</time>
      </trkpt>
      <trkpt lat="37.41867" lon="-5.9871">
        <ele>10.479862</ele>
        <time>2022-04-11T09:08:25.000Z</time>
      </trkpt>
      <trkpt lat="37.41859" lon="-5.98712">
        <ele>10.460362</ele>
        <time>2022-04-11T09:08:27.000Z</time>
      </trkpt>
      <trkpt lat="37.4185" lon="-5.98713">
        <ele>10.442569</ele>
        <time>2022-04-11T09:08:29.000Z</time>
      </trkpt>
      <trkpt lat="37.41847" lon="-5.98714">
        <ele>10.434641</ele>
        <time>2022-04-11T09:08:30.000Z</time>
      </trkpt>
      <trkpt lat="37.41817" lon="-5.98721">
        <ele>10.369553</ele>
        <time>2022-04-11T09:08:38.000Z</time>
      </trkpt>
      <trkpt lat="37.41794" lon="-5.98727">
        <ele>10.352854</ele>
        <time>2022-04-11T09:08:44.000Z</time>
      </trkpt>
      <trkpt lat="37.41786" lon="-5.98728">
        <ele>10.352096</ele>
        <time>2022-04-11T09:08:46.000Z</time>
      </trkpt>
      <trkpt lat="37.41779" lon="-5.9873">
        <ele>10.351409</ele>
        <time>2022-04-11T09:08:48.000Z</time>
      </trkpt>
      <trkpt lat="37.41769" lon="-5.98733">
        <ele>10.350434</ele>
        <time>2022-04-11T09:08:51.000Z</time>
      </trkpt>
      <trkpt lat="37.4176" lon="-5.98734">
        <ele>10.349545</ele>
        <time>2022-04-11T09:08:54.000Z</time>
      </trkpt>
      <trkpt lat="37.41728" lon="-5.98743">
        <ele>10.346388</ele>
        <time>2022-04-11T09:09:03.000Z</time>
      </trkpt>
      <trkpt lat="37.41695" lon="-5.98752">
        <ele>10.343042</ele>
        <time>2022-04-11T09:09:12.000Z</time>
      </trkpt>
      <trkpt lat="37.41684" lon="-5.98754">
        <ele>10.342012</ele>
        <time>2022-04-11T09:09:15.000Z</time>
      </trkpt>
      <trkpt lat="37.4167" lon="-5.98759">
        <ele>10.340643</ele>
        <time>2022-04-11T09:09:18.000Z</time>
      </trkpt>
      <trkpt lat="37.41663" lon="-5.98761">
        <ele>10.339855</ele>
        <time>2022-04-11T09:09:20.000Z</time>
      </trkpt>
      <trkpt lat="37.41651" lon="-5.98765">
        <ele>10.338732</ele>
        <time>2022-04-11T09:09:23.000Z</time>
      </trkpt>
      <trkpt lat="37.41641" lon="-5.98768">
        <ele>10.33766</ele>
        <time>2022-04-11T09:09:26.000Z</time>
      </trkpt>
      <trkpt lat="37.41626" lon="-5.98772">
        <ele>10.332004</ele>
        <time>2022-04-11T09:09:30.000Z</time>
      </trkpt>
      <trkpt lat="37.4162" lon="-5.98774">
        <ele>10.328334</ele>
        <time>2022-04-11T09:09:32.000Z</time>
      </trkpt>
      <trkpt lat="37.41588" lon="-5.98785">
        <ele>10.308907</ele>
        <time>2022-04-11T09:09:41.000Z</time>
      </trkpt>
      <trkpt lat="37.41584" lon="-5.98786">
        <ele>10.306687</ele>
        <time>2022-04-11T09:09:42.000Z</time>
      </trkpt>
      <trkpt lat="37.41559" lon="-5.98793">
        <ele>10.291683</ele>
        <time>2022-04-11T09:09:49.000Z</time>
      </trkpt>
      <trkpt lat="37.41528" lon="-5.98799">
        <ele>10.273185</ele>
        <time>2022-04-11T09:09:57.000Z</time>
      </trkpt>
      <trkpt lat="37.41498" lon="-5.98809">
        <ele>10.254823</ele>
        <time>2022-04-11T09:10:05.000Z</time>
      </trkpt>
      <trkpt lat="37.41491" lon="-5.98812">
        <ele>10.250629</ele>
        <time>2022-04-11T09:10:07.000Z</time>
      </trkpt>
      <trkpt lat="37.41454" lon="-5.98824">
        <ele>10.225137</ele>
        <time>2022-04-11T09:10:17.000Z</time>
      </trkpt>
      <trkpt lat="37.41418" lon="-5.98834">
        <ele>10.181019</ele>
        <time>2022-04-11T09:10:26.000Z</time>
      </trkpt>
      <trkpt lat="37.41394" lon="-5.98843">
        <ele>10.151542</ele>
        <time>2022-04-11T09:10:32.000Z</time>
      </trkpt>
      <trkpt lat="37.41386" lon="-5.98846">
        <ele>10.141813</ele>
        <time>2022-04-11T09:10:34.000Z</time>
      </trkpt>
      <trkpt lat="37.41381" lon="-5.98856">
        <ele>10.130288</ele>
        <time>2022-04-11T09:10:37.000Z</time>
      </trkpt>
      <trkpt lat="37.41369" lon="-5.98883">
        <ele>10.101292</ele>
        <time>2022-04-11T09:10:44.000Z</time>
      </trkpt>
      <trkpt lat="37.41356" lon="-5.98899">
        <ele>10.07999</ele>
        <time>2022-04-11T09:10:50.000Z</time>
      </trkpt>
      <trkpt lat="37.41354" lon="-5.98901">
        <ele>10.07613</ele>
        <time>2022-04-11T09:10:54.000Z</time>
      </trkpt>
      <trkpt lat="37.41354" lon="-5.98902">
        <ele>10.075318</ele>
        <time>2022-04-11T09:10:56.000Z</time>
      </trkpt>
      <trkpt lat="37.41355" lon="-5.98904">
        <ele>10.072956</ele>
        <time>2022-04-11T09:10:59.000Z</time>
      </trkpt>
      <trkpt lat="37.41355" lon="-5.98905">
        <ele>10.072037</ele>
        <time>2022-04-11T09:11:02.000Z</time>
      </trkpt>
      <trkpt lat="37.41353" lon="-5.98902">
        <ele>10.068791</ele>
        <time>2022-04-11T09:11:08.000Z</time>
      </trkpt>
      <trkpt lat="37.41353" lon="-5.98901">
        <ele>10.067266</ele>
        <time>2022-04-11T09:11:15.000Z</time>
      </trkpt>
      <trkpt lat="37.41353" lon="-5.98901">
        <ele>10.066503</ele>
        <time>2022-04-11T09:11:30.000Z</time>
      </trkpt>
      <trkpt lat="37.41354" lon="-5.98901">
        <ele>10.066029</ele>
        <time>2022-04-11T09:11:31.000Z</time>
      </trkpt>
      <trkpt lat="37.41361" lon="-5.98896">
        <ele>10.055792</ele>
        <time>2022-04-11T09:11:34.000Z</time>
      </trkpt>
      <trkpt lat="37.41379" lon="-5.98872">
        <ele>10.025409</ele>
        <time>2022-04-11T09:11:41.000Z</time>
      </trkpt>
      <trkpt lat="37.41388" lon="-5.98855">
        <ele>9.620224</ele>
        <time>2022-04-11T09:11:45.000Z</time>
      </trkpt>
      <trkpt lat="37.41394" lon="-5.98847">
        <ele>9.291091</ele>
        <time>2022-04-11T09:11:47.000Z</time>
      </trkpt>
      <trkpt lat="37.41412" lon="-5.98841">
        <ele>8.634293</ele>
        <time>2022-04-11T09:11:51.000Z</time>
      </trkpt>
      <trkpt lat="37.41422" lon="-5.98841">
        <ele>8.263568</ele>
        <time>2022-04-11T09:11:54.000Z</time>
      </trkpt>
      <trkpt lat="37.41423" lon="-5.98843">
        <ele>8.189621</ele>
        <time>2022-04-11T09:11:55.000Z</time>
      </trkpt>
      <trkpt lat="37.41421" lon="-5.98848">
        <ele>8.008483</ele>
        <time>2022-04-11T09:11:57.000Z</time>
      </trkpt>
      <trkpt lat="37.41418" lon="-5.98852">
        <ele>7.842955</ele>
        <time>2022-04-11T09:11:58.000Z</time>
      </trkpt>
      <trkpt lat="37.41403" lon="-5.98875">
        <ele>7.014765</ele>
        <time>2022-04-11T09:12:03.000Z</time>
      </trkpt>
      <trkpt lat="37.414" lon="-5.98886">
        <ele>6.683824</ele>
        <time>2022-04-11T09:12:05.000Z</time>
      </trkpt>
      <trkpt lat="37.41399" lon="-5.98898">
        <ele>6.338831</ele>
        <time>2022-04-11T09:12:07.000Z</time>
      </trkpt>
      <trkpt lat="37.41395" lon="-5.98911">
        <ele>5.953033</ele>
        <time>2022-04-11T09:12:09.000Z</time>
      </trkpt>
      <trkpt lat="37.41387" lon="-5.9893">
        <ele>5.329904</ele>
        <time>2022-04-11T09:12:12.000Z</time>
      </trkpt>
      <trkpt lat="37.41384" lon="-5.98936">
        <ele>5.114802</ele>
        <time>2022-04-11T09:12:13.000Z</time>
      </trkpt>
      <trkpt lat="37.41375" lon="-5.98947">
        <ele>4.677581</ele>
        <time>2022-04-11T09:12:15.000Z</time>
      </trkpt>
      <trkpt lat="37.41366" lon="-5.98956">
        <ele>4.267644</ele>
        <time>2022-04-11T09:12:17.000Z</time>
      </trkpt>
      <trkpt lat="37.41358" lon="-5.98961">
        <ele>3.936831</ele>
        <time>2022-04-11T09:12:20.000Z</time>
      </trkpt>
      <trkpt lat="37.41356" lon="-5.98965">
        <ele>3.81036</ele>
        <time>2022-04-11T09:12:24.000Z</time>
      </trkpt>
      <trkpt lat="37.41356" lon="-5.98965">
        <ele>3.81036</ele>
        <time>2022-04-11T09:12:27.000Z</time>
      </trkpt>
      <trkpt lat="37.41355" lon="-5.98965">
        <ele>3.781428</ele>
        <time>2022-04-11T09:12:36.000Z</time>
      </trkpt>
      <trkpt lat="37.41355" lon="-5.98965">
        <ele>3.769211</ele>
        <time>2022-04-11T09:12:45.000Z</time>
      </trkpt>
      <trkpt lat="37.4135" lon="-5.98963">
        <ele>3.578597</ele>
        <time>2022-04-11T09:12:47.000Z</time>
      </trkpt>
      <trkpt lat="37.41344" lon="-5.98963">
        <ele>3.52396</ele>
        <time>2022-04-11T09:12:49.000Z</time>
      </trkpt>
      <trkpt lat="37.41337" lon="-5.98963">
        <ele>3.490571</ele>
        <time>2022-04-11T09:12:51.000Z</time>
      </trkpt>
      <trkpt lat="37.41333" lon="-5.98963">
        <ele>3.474039</ele>
        <time>2022-04-11T09:12:52.000Z</time>
      </trkpt>
      <trkpt lat="37.41315" lon="-5.98961">
        <ele>3.392445</ele>
        <time>2022-04-11T09:12:57.000Z</time>
      </trkpt>
      <trkpt lat="37.41305" lon="-5.98962">
        <ele>3.350141</ele>
        <time>2022-04-11T09:13:00.000Z</time>
      </trkpt>
      <trkpt lat="37.41294" lon="-5.98963">
        <ele>3.297493</ele>
        <time>2022-04-11T09:13:06.000Z</time>
      </trkpt>
      <trkpt lat="37.41285" lon="-5.98962">
        <ele>3.260947</ele>
        <time>2022-04-11T09:13:10.000Z</time>
      </trkpt>
      <trkpt lat="37.41266" lon="-5.98963">
        <ele>3.173677</ele>
        <time>2022-04-11T09:13:16.000Z</time>
      </trkpt>
      <trkpt lat="37.41259" lon="-5.98963">
        <ele>3.141618</ele>
        <time>2022-04-11T09:13:18.000Z</time>
      </trkpt>
      <trkpt lat="37.41241" lon="-5.98967">
        <ele>3.060809</ele>
        <time>2022-04-11T09:13:23.000Z</time>
      </trkpt>
      <trkpt lat="37.41218" lon="-5.98984">
        <ele>2.942325</ele>
        <time>2022-04-11T09:13:30.000Z</time>
      </trkpt>
      <trkpt lat="37.41211" lon="-5.9899">
        <ele>2.906722</ele>
        <time>2022-04-11T09:13:32.000Z</time>
      </trkpt>
      <trkpt lat="37.41183" lon="-5.9901">
        <ele>2.7638</ele>
        <time>2022-04-11T09:13:39.000Z</time>
      </trkpt>
      <trkpt lat="37.41179" lon="-5.99013">
        <ele>2.742767</ele>
        <time>2022-04-11T09:13:40.000Z</time>
      </trkpt>
      <trkpt lat="37.41165" lon="-5.99023">
        <ele>2.656909</ele>
        <time>2022-04-11T09:13:43.000Z</time>
      </trkpt>
      <trkpt lat="37.41151" lon="-5.99033">
        <ele>2.576006</ele>
        <time>2022-04-11T09:13:46.000Z</time>
      </trkpt>
      <trkpt lat="37.41109" lon="-5.99064">
        <ele>2.322365</ele>
        <time>2022-04-11T09:13:56.000Z</time>
      </trkpt>
      <trkpt lat="37.41081" lon="-5.99086">
        <ele>2.155961</ele>
        <time>2022-04-11T09:14:03.000Z</time>
      </trkpt>
      <trkpt lat="37.41066" lon="-5.99096">
        <ele>2.068071</ele>
        <time>2022-04-11T09:14:07.000Z</time>
      </trkpt>
      <trkpt lat="37.41033" lon="-5.99122">
        <ele>1.867437</ele>
        <time>2022-04-11T09:14:16.000Z</time>
      </trkpt>
      <trkpt lat="37.41025" lon="-5.99127">
        <ele>1.822316</ele>
        <time>2022-04-11T09:14:18.000Z</time>
      </trkpt>
      <trkpt lat="37.41007" lon="-5.99141">
        <ele>1.855825</ele>
        <time>2022-04-11T09:14:23.000Z</time>
      </trkpt>
      <trkpt lat="37.41" lon="-5.99146">
        <ele>1.87058</ele>
        <time>2022-04-11T09:14:25.000Z</time>
      </trkpt>
      <trkpt lat="37.40981" lon="-5.99159">
        <ele>1.907624</ele>
        <time>2022-04-11T09:14:30.000Z</time>
      </trkpt>
      <trkpt lat="37.40975" lon="-5.99165">
        <ele>1.921622</ele>
        <time>2022-04-11T09:14:32.000Z</time>
      </trkpt>
      <trkpt lat="37.40968" lon="-5.99171">
        <ele>1.936536</ele>
        <time>2022-04-11T09:14:34.000Z</time>
      </trkpt>
      <trkpt lat="37.40953" lon="-5.99181">
        <ele>1.966985</ele>
        <time>2022-04-11T09:14:38.000Z</time>
      </trkpt>
      <trkpt lat="37.40949" lon="-5.99184">
        <ele>1.974366</ele>
        <time>2022-04-11T09:14:39.000Z</time>
      </trkpt>
      <trkpt lat="37.40927" lon="-5.99201">
        <ele>2.019466</ele>
        <time>2022-04-11T09:14:45.000Z</time>
      </trkpt>
      <trkpt lat="37.40896" lon="-5.99225">
        <ele>2.084085</ele>
        <time>2022-04-11T09:14:53.000Z</time>
      </trkpt>
      <trkpt lat="37.4088" lon="-5.99237">
        <ele>2.116429</ele>
        <time>2022-04-11T09:14:57.000Z</time>
      </trkpt>
      <trkpt lat="37.40858" lon="-5.99255">
        <ele>2.165471</ele>
        <time>2022-04-11T09:15:03.000Z</time>
      </trkpt>
      <trkpt lat="37.4084" lon="-5.99268">
        <ele>2.205633</ele>
        <time>2022-04-11T09:15:08.000Z</time>
      </trkpt>
      <trkpt lat="37.40834" lon="-5.99272">
        <ele>2.218684</ele>
        <time>2022-04-11T09:15:10.000Z</time>
      </trkpt>
      <trkpt lat="37.40817" lon="-5.99286">
        <ele>2.257776</ele>
        <time>2022-04-11T09:15:15.000Z</time>
      </trkpt>
      <trkpt lat="37.40807" lon="-5.99293">
        <ele>2.280284</ele>
        <time>2022-04-11T09:15:18.000Z</time>
      </trkpt>
      <trkpt lat="37.40789" lon="-5.99305">
        <ele>2.319189</ele>
        <time>2022-04-11T09:15:23.000Z</time>
      </trkpt>
      <trkpt lat="37.40781" lon="-5.99309">
        <ele>2.335843</ele>
        <time>2022-04-11T09:15:25.000Z</time>
      </trkpt>
      <trkpt lat="37.40759" lon="-5.99326">
        <ele>2.386548</ele>
        <time>2022-04-11T09:15:31.000Z</time>
      </trkpt>
      <trkpt lat="37.40731" lon="-5.99348">
        <ele>2.449862</ele>
        <time>2022-04-11T09:15:39.000Z</time>
      </trkpt>
      <trkpt lat="37.4072" lon="-5.99356">
        <ele>2.47448</ele>
        <time>2022-04-11T09:15:42.000Z</time>
      </trkpt>
      <trkpt lat="37.40696" lon="-5.99375">
        <ele>2.501018</ele>
        <time>2022-04-11T09:15:49.000Z</time>
      </trkpt>
      <trkpt lat="37.4068" lon="-5.99389">
        <ele>2.515041</ele>
        <time>2022-04-11T09:15:54.000Z</time>
      </trkpt>
      <trkpt lat="37.4067" lon="-5.99397">
        <ele>2.523814</ele>
        <time>2022-04-11T09:15:57.000Z</time>
      </trkpt>
      <trkpt lat="37.40654" lon="-5.99408">
        <ele>2.537122</ele>
        <time>2022-04-11T09:16:01.000Z</time>
      </trkpt>
      <trkpt lat="37.40622" lon="-5.99433">
        <ele>2.564564</ele>
        <time>2022-04-11T09:16:10.000Z</time>
      </trkpt>
      <trkpt lat="37.40595" lon="-5.99454">
        <ele>2.58823</ele>
        <time>2022-04-11T09:16:18.000Z</time>
      </trkpt>
      <trkpt lat="37.40565" lon="-5.9948">
        <ele>2.614615</ele>
        <time>2022-04-11T09:16:27.000Z</time>
      </trkpt>
      <trkpt lat="37.40555" lon="-5.99489">
        <ele>2.632041</ele>
        <time>2022-04-11T09:16:30.000Z</time>
      </trkpt>
      <trkpt lat="37.4054" lon="-5.99504">
        <ele>2.659857</ele>
        <time>2022-04-11T09:16:35.000Z</time>
      </trkpt>
      <trkpt lat="37.40533" lon="-5.99511">
        <ele>2.672928</ele>
        <time>2022-04-11T09:16:37.000Z</time>
      </trkpt>
      <trkpt lat="37.40521" lon="-5.99522">
        <ele>2.695277</ele>
        <time>2022-04-11T09:16:41.000Z</time>
      </trkpt>
      <trkpt lat="37.40498" lon="-5.99544">
        <ele>2.737209</ele>
        <time>2022-04-11T09:16:48.000Z</time>
      </trkpt>
      <trkpt lat="37.40473" lon="-5.99567">
        <ele>2.781768</ele>
        <time>2022-04-11T09:16:56.000Z</time>
      </trkpt>
      <trkpt lat="37.40446" lon="-5.99593">
        <ele>2.831516</ele>
        <time>2022-04-11T09:17:04.000Z</time>
      </trkpt>
      <trkpt lat="37.40437" lon="-5.99602">
        <ele>2.848726</ele>
        <time>2022-04-11T09:17:07.000Z</time>
      </trkpt>
      <trkpt lat="37.40411" lon="-5.99627">
        <ele>2.896093</ele>
        <time>2022-04-11T09:17:16.000Z</time>
      </trkpt>
      <trkpt lat="37.4039" lon="-5.99649">
        <ele>2.93496</ele>
        <time>2022-04-11T09:17:24.000Z</time>
      </trkpt>
      <trkpt lat="37.40374" lon="-5.99663">
        <ele>2.963291</ele>
        <time>2022-04-11T09:17:29.000Z</time>
      </trkpt>
      <trkpt lat="37.40347" lon="-5.99686">
        <ele>3.010417</ele>
        <time>2022-04-11T09:17:37.000Z</time>
      </trkpt>
      <trkpt lat="37.40341" lon="-5.99692">
        <ele>3.021754</ele>
        <time>2022-04-11T09:17:39.000Z</time>
      </trkpt>
      <trkpt lat="37.40317" lon="-5.99715">
        <ele>3.065281</ele>
        <time>2022-04-11T09:17:46.000Z</time>
      </trkpt>
      <trkpt lat="37.40304" lon="-5.99725">
        <ele>3.08636</ele>
        <time>2022-04-11T09:17:50.000Z</time>
      </trkpt>
      <trkpt lat="37.40288" lon="-5.9974">
        <ele>3.115863</ele>
        <time>2022-04-11T09:17:55.000Z</time>
      </trkpt>
      <trkpt lat="37.40282" lon="-5.99747">
        <ele>3.127727</ele>
        <time>2022-04-11T09:17:57.000Z</time>
      </trkpt>
      <trkpt lat="37.40255" lon="-5.99773">
        <ele>3.103757</ele>
        <time>2022-04-11T09:18:05.000Z</time>
      </trkpt>
      <trkpt lat="37.40226" lon="-5.99801">
        <ele>3.059624</ele>
        <time>2022-04-11T09:18:13.000Z</time>
      </trkpt>
      <trkpt lat="37.40211" lon="-5.99814">
        <ele>3.03862</ele>
        <time>2022-04-11T09:18:17.000Z</time>
      </trkpt>
      <trkpt lat="37.40198" lon="-5.99827">
        <ele>3.018204</ele>
        <time>2022-04-11T09:18:21.000Z</time>
      </trkpt>
      <trkpt lat="37.40168" lon="-5.99855">
        <ele>2.973553</ele>
        <time>2022-04-11T09:18:30.000Z</time>
      </trkpt>
      <trkpt lat="37.40142" lon="-5.99877">
        <ele>2.935423</ele>
        <time>2022-04-11T09:18:38.000Z</time>
      </trkpt>
      <trkpt lat="37.40138" lon="-5.9988">
        <ele>2.930324</ele>
        <time>2022-04-11T09:18:39.000Z</time>
      </trkpt>
      <trkpt lat="37.40135" lon="-5.99883">
        <ele>2.925282</ele>
        <time>2022-04-11T09:18:40.000Z</time>
      </trkpt>
      <trkpt lat="37.40125" lon="-5.99892">
        <ele>2.943509</ele>
        <time>2022-04-11T09:18:43.000Z</time>
      </trkpt>
      <trkpt lat="37.40112" lon="-5.99905">
        <ele>2.985783</ele>
        <time>2022-04-11T09:18:47.000Z</time>
      </trkpt>
      <trkpt lat="37.40078" lon="-5.99936">
        <ele>3.095027</ele>
        <time>2022-04-11T09:18:57.000Z</time>
      </trkpt>
      <trkpt lat="37.40068" lon="-5.99944">
        <ele>3.127761</ele>
        <time>2022-04-11T09:19:00.000Z</time>
      </trkpt>
      <trkpt lat="37.40061" lon="-5.99952">
        <ele>3.150129</ele>
        <time>2022-04-11T09:19:02.000Z</time>
      </trkpt>
      <trkpt lat="37.40055" lon="-5.99959">
        <ele>3.171927</ele>
        <time>2022-04-11T09:19:04.000Z</time>
      </trkpt>
      <trkpt lat="37.4003" lon="-5.99984">
        <ele>3.256796</ele>
        <time>2022-04-11T09:19:12.000Z</time>
      </trkpt>
      <trkpt lat="37.40027" lon="-5.99987">
        <ele>3.266804</ele>
        <time>2022-04-11T09:19:13.000Z</time>
      </trkpt>
      <trkpt lat="37.40009" lon="-6.00005">
        <ele>3.326464</ele>
        <time>2022-04-11T09:19:20.000Z</time>
      </trkpt>
      <trkpt lat="37.40005" lon="-6.00005">
        <ele>3.336165</ele>
        <time>2022-04-11T09:19:24.000Z</time>
      </trkpt>
      <trkpt lat="37.40005" lon="-6.00005">
        <ele>3.336165</ele>
        <time>2022-04-11T09:19:35.000Z</time>
      </trkpt>
      <trkpt lat="37.40005" lon="-6.00005">
        <ele>3.336165</ele>
        <time>2022-04-11T09:19:39.000Z</time>
      </trkpt>
      <trkpt lat="37.40005" lon="-6.00005">
        <ele>3.336165</ele>
        <time>2022-04-11T09:19:42.000Z</time>
      </trkpt>
      <trkpt lat="37.40005" lon="-6.00005">
        <ele>3.336165</ele>
        <time>2022-04-11T09:19:45.000Z</time>
      </trkpt>
      <trkpt lat="37.40007" lon="-6.00002">
        <ele>3.344462</ele>
        <time>2022-04-11T09:20:00.000Z</time>
      </trkpt>
      <trkpt lat="37.40008" lon="-6.00001">
        <ele>3.34734</ele>
        <time>2022-04-11T09:20:04.000Z</time>
      </trkpt>
      <trkpt lat="37.40006" lon="-6.00006">
        <ele>3.358129</ele>
        <time>2022-04-11T09:20:06.000Z</time>
      </trkpt>
      <trkpt lat="37.39993" lon="-6.00018">
        <ele>3.387582</ele>
        <time>2022-04-11T09:20:11.000Z</time>
      </trkpt>
      <trkpt lat="37.39978" lon="-6.00035">
        <ele>3.373047</ele>
        <time>2022-04-11T09:20:16.000Z</time>
      </trkpt>
      <trkpt lat="37.39972" lon="-6.00041">
        <ele>3.367211</ele>
        <time>2022-04-11T09:20:18.000Z</time>
      </trkpt>
      <trkpt lat="37.39946" lon="-6.00063">
        <ele>3.344079</ele>
        <time>2022-04-11T09:20:26.000Z</time>
      </trkpt>
      <trkpt lat="37.39922" lon="-6.00085">
        <ele>3.322571</ele>
        <time>2022-04-11T09:20:33.000Z</time>
      </trkpt>
      <trkpt lat="37.39909" lon="-6.00098">
        <ele>3.310247</ele>
        <time>2022-04-11T09:20:37.000Z</time>
      </trkpt>
      <trkpt lat="37.39892" lon="-6.00114">
        <ele>3.294302</ele>
        <time>2022-04-11T09:20:42.000Z</time>
      </trkpt>
      <trkpt lat="37.39871" lon="-6.00134">
        <ele>3.275017</ele>
        <time>2022-04-11T09:20:48.000Z</time>
      </trkpt>
      <trkpt lat="37.39842" lon="-6.0016">
        <ele>3.264243</ele>
        <time>2022-04-11T09:20:57.000Z</time>
      </trkpt>
      <trkpt lat="37.39799" lon="-6.002">
        <ele>3.291549</ele>
        <time>2022-04-11T09:21:10.000Z</time>
      </trkpt>
      <trkpt lat="37.39765" lon="-6.00231">
        <ele>3.312746</ele>
        <time>2022-04-11T09:21:20.000Z</time>
      </trkpt>
      <trkpt lat="37.3973" lon="-6.00264">
        <ele>3.33517</ele>
        <time>2022-04-11T09:21:30.000Z</time>
      </trkpt>
      <trkpt lat="37.39706" lon="-6.00288">
        <ele>3.35308</ele>
        <time>2022-04-11T09:21:37.000Z</time>
      </trkpt>
      <trkpt lat="37.39696" lon="-6.00298">
        <ele>3.37239</ele>
        <time>2022-04-11T09:21:40.000Z</time>
      </trkpt>
      <trkpt lat="37.39667" lon="-6.00324">
        <ele>3.428668</ele>
        <time>2022-04-11T09:21:49.000Z</time>
      </trkpt>
      <trkpt lat="37.39641" lon="-6.00348">
        <ele>3.478193</ele>
        <time>2022-04-11T09:21:57.000Z</time>
      </trkpt>
      <trkpt lat="37.39631" lon="-6.00357">
        <ele>3.497949</ele>
        <time>2022-04-11T09:22:00.000Z</time>
      </trkpt>
      <trkpt lat="37.39628" lon="-6.00361">
        <ele>3.504217</ele>
        <time>2022-04-11T09:22:01.000Z</time>
      </trkpt>
      <trkpt lat="37.39599" lon="-6.00389">
        <ele>3.56016</ele>
        <time>2022-04-11T09:22:09.000Z</time>
      </trkpt>
      <trkpt lat="37.39596" lon="-6.00392">
        <ele>3.567223</ele>
        <time>2022-04-11T09:22:10.000Z</time>
      </trkpt>
      <trkpt lat="37.39586" lon="-6.00402">
        <ele>3.587009</ele>
        <time>2022-04-11T09:22:13.000Z</time>
      </trkpt>
      <trkpt lat="37.39571" lon="-6.00415">
        <ele>3.614944</ele>
        <time>2022-04-11T09:22:17.000Z</time>
      </trkpt>
      <trkpt lat="37.39555" lon="-6.00428">
        <ele>3.694344</ele>
        <time>2022-04-11T09:22:21.000Z</time>
      </trkpt>
      <trkpt lat="37.39536" lon="-6.00442">
        <ele>3.841146</ele>
        <time>2022-04-11T09:22:26.000Z</time>
      </trkpt>
      <trkpt lat="37.3951" lon="-6.00458">
        <ele>4.02579</ele>
        <time>2022-04-11T09:22:33.000Z</time>
      </trkpt>
      <trkpt lat="37.39489" lon="-6.00471">
        <ele>4.181858</ele>
        <time>2022-04-11T09:22:39.000Z</time>
      </trkpt>
      <trkpt lat="37.39485" lon="-6.00473">
        <ele>4.208769</ele>
        <time>2022-04-11T09:22:40.000Z</time>
      </trkpt>
      <trkpt lat="37.39459" lon="-6.00487">
        <ele>4.396366</ele>
        <time>2022-04-11T09:22:47.000Z</time>
      </trkpt>
      <trkpt lat="37.39438" lon="-6.00498">
        <ele>4.541383</ele>
        <time>2022-04-11T09:22:53.000Z</time>
      </trkpt>
      <trkpt lat="37.39413" lon="-6.00509">
        <ele>4.713452</ele>
        <time>2022-04-11T09:23:00.000Z</time>
      </trkpt>
      <trkpt lat="37.3941" lon="-6.00511">
        <ele>4.738574</ele>
        <time>2022-04-11T09:23:01.000Z</time>
      </trkpt>
      <trkpt lat="37.39385" lon="-6.00521">
        <ele>4.845908</ele>
        <time>2022-04-11T09:23:08.000Z</time>
      </trkpt>
      <trkpt lat="37.39356" lon="-6.00528">
        <ele>4.919517</ele>
        <time>2022-04-11T09:23:15.000Z</time>
      </trkpt>
      <trkpt lat="37.3935" lon="-6.0053">
        <ele>4.936954</ele>
        <time>2022-04-11T09:23:17.000Z</time>
      </trkpt>
      <trkpt lat="37.39336" lon="-6.00531">
        <ele>4.972223</ele>
        <time>2022-04-11T09:23:21.000Z</time>
      </trkpt>
      <trkpt lat="37.39333" lon="-6.00532">
        <ele>4.980373</ele>
        <time>2022-04-11T09:23:22.000Z</time>
      </trkpt>
      <trkpt lat="37.39315" lon="-6.00532">
        <ele>5.025445</ele>
        <time>2022-04-11T09:23:29.000Z</time>
      </trkpt>
      <trkpt lat="37.39312" lon="-6.00532">
        <ele>5.033848</ele>
        <time>2022-04-11T09:23:31.000Z</time>
      </trkpt>
      <trkpt lat="37.39303" lon="-6.00533">
        <ele>5.055332</ele>
        <time>2022-04-11T09:23:36.000Z</time>
      </trkpt>
      <trkpt lat="37.39301" lon="-6.00534">
        <ele>5.060937</ele>
        <time>2022-04-11T09:23:37.000Z</time>
      </trkpt>
      <trkpt lat="37.39293" lon="-6.00541">
        <ele>5.085537</ele>
        <time>2022-04-11T09:23:41.000Z</time>
      </trkpt>
      <trkpt lat="37.39291" lon="-6.00542">
        <ele>5.092649</ele>
        <time>2022-04-11T09:23:42.000Z</time>
      </trkpt>
      <trkpt lat="37.39282" lon="-6.00544">
        <ele>5.114955</ele>
        <time>2022-04-11T09:23:45.000Z</time>
      </trkpt>
      <trkpt lat="37.39276" lon="-6.00546">
        <ele>5.131069</ele>
        <time>2022-04-11T09:23:47.000Z</time>
      </trkpt>
      <trkpt lat="37.39267" lon="-6.00548">
        <ele>5.155164</ele>
        <time>2022-04-11T09:23:50.000Z</time>
      </trkpt>
      <trkpt lat="37.39247" lon="-6.00553">
        <ele>5.206506</ele>
        <time>2022-04-11T09:23:56.000Z</time>
      </trkpt>
      <trkpt lat="37.39225" lon="-6.00558">
        <ele>5.261365</ele>
        <time>2022-04-11T09:24:03.000Z</time>
      </trkpt>
      <trkpt lat="37.39212" lon="-6.0056">
        <ele>5.252677</ele>
        <time>2022-04-11T09:24:07.000Z</time>
      </trkpt>
      <trkpt lat="37.39186" lon="-6.00565">
        <ele>5.234738</ele>
        <time>2022-04-11T09:24:15.000Z</time>
      </trkpt>
      <trkpt lat="37.39183" lon="-6.00566">
        <ele>5.232383</ele>
        <time>2022-04-11T09:24:16.000Z</time>
      </trkpt>
      <trkpt lat="37.39156" lon="-6.00568">
        <ele>5.213841</ele>
        <time>2022-04-11T09:24:24.000Z</time>
      </trkpt>
      <trkpt lat="37.39132" lon="-6.00568">
        <ele>5.196946</ele>
        <time>2022-04-11T09:24:31.000Z</time>
      </trkpt>
      <trkpt lat="37.39096" lon="-6.00565">
        <ele>5.172337</ele>
        <time>2022-04-11T09:24:41.000Z</time>
      </trkpt>
      <trkpt lat="37.39061" lon="-6.0056">
        <ele>5.147769</ele>
        <time>2022-04-11T09:24:51.000Z</time>
      </trkpt>
      <trkpt lat="37.39052" lon="-6.00556">
        <ele>5.141158</ele>
        <time>2022-04-11T09:24:54.000Z</time>
      </trkpt>
      <trkpt lat="37.39047" lon="-6.00552">
        <ele>5.139406</ele>
        <time>2022-04-11T09:24:56.000Z</time>
      </trkpt>
      <trkpt lat="37.3904" lon="-6.00547">
        <ele>5.154672</ele>
        <time>2022-04-11T09:24:59.000Z</time>
      </trkpt>
      <trkpt lat="37.39037" lon="-6.00546">
        <ele>5.15979</ele>
        <time>2022-04-11T09:25:00.000Z</time>
      </trkpt>
      <trkpt lat="37.39015" lon="-6.00546">
        <ele>5.199595</ele>
        <time>2022-04-11T09:25:06.000Z</time>
      </trkpt>
      <trkpt lat="37.39007" lon="-6.00545">
        <ele>5.212421</ele>
        <time>2022-04-11T09:25:08.000Z</time>
      </trkpt>
      <trkpt lat="37.38994" lon="-6.00542">
        <ele>5.236496</ele>
        <time>2022-04-11T09:25:12.000Z</time>
      </trkpt>
      <trkpt lat="37.38977" lon="-6.00534">
        <ele>5.269858</ele>
        <time>2022-04-11T09:25:18.000Z</time>
      </trkpt>
      <trkpt lat="37.38965" lon="-6.00527">
        <ele>5.29414</ele>
        <time>2022-04-11T09:25:22.000Z</time>
      </trkpt>
      <trkpt lat="37.38959" lon="-6.00524">
        <ele>5.305831</ele>
        <time>2022-04-11T09:25:24.000Z</time>
      </trkpt>
      <trkpt lat="37.38939" lon="-6.00507">
        <ele>5.348199</ele>
        <time>2022-04-11T09:25:32.000Z</time>
      </trkpt>
      <trkpt lat="37.38929" lon="-6.0049">
        <ele>5.37798</ele>
        <time>2022-04-11T09:25:37.000Z</time>
      </trkpt>
      <trkpt lat="37.38926" lon="-6.00483">
        <ele>5.390043</ele>
        <time>2022-04-11T09:25:39.000Z</time>
      </trkpt>
      <trkpt lat="37.38916" lon="-6.0045">
        <ele>5.440616</ele>
        <time>2022-04-11T09:25:48.000Z</time>
      </trkpt>
      <trkpt lat="37.38914" lon="-6.00436">
        <ele>5.4595</ele>
        <time>2022-04-11T09:25:52.000Z</time>
      </trkpt>
      <trkpt lat="37.38914" lon="-6.00425">
        <ele>5.417964</ele>
        <time>2022-04-11T09:25:55.000Z</time>
      </trkpt>
      <trkpt lat="37.38908" lon="-6.00417">
        <ele>5.375432</ele>
        <time>2022-04-11T09:25:59.000Z</time>
      </trkpt>
      <trkpt lat="37.38904" lon="-6.00411">
        <ele>5.344043</ele>
        <time>2022-04-11T09:26:02.000Z</time>
      </trkpt>
      <trkpt lat="37.38901" lon="-6.0041">
        <ele>5.324422</ele>
        <time>2022-04-11T09:26:04.000Z</time>
      </trkpt>
      <trkpt lat="37.38887" lon="-6.00395">
        <ele>5.233553</ele>
        <time>2022-04-11T09:26:11.000Z</time>
      </trkpt>
      <trkpt lat="37.38871" lon="-6.00378">
        <ele>5.130358</ele>
        <time>2022-04-11T09:26:16.000Z</time>
      </trkpt>
      <trkpt lat="37.38868" lon="-6.00375">
        <ele>5.109931</ele>
        <time>2022-04-11T09:26:17.000Z</time>
      </trkpt>
      <trkpt lat="37.38825" lon="-6.0035">
        <ele>4.873285</ele>
        <time>2022-04-11T09:26:28.000Z</time>
      </trkpt>
      <trkpt lat="37.38791" lon="-6.0033">
        <ele>4.684594</ele>
        <time>2022-04-11T09:26:37.000Z</time>
      </trkpt>
      <trkpt lat="37.38773" lon="-6.00318">
        <ele>4.581786</ele>
        <time>2022-04-11T09:26:43.000Z</time>
      </trkpt>
      <trkpt lat="37.38755" lon="-6.003">
        <ele>4.604662</ele>
        <time>2022-04-11T09:26:50.000Z</time>
      </trkpt>
      <trkpt lat="37.38731" lon="-6.00274">
        <ele>4.690358</ele>
        <time>2022-04-11T09:26:59.000Z</time>
      </trkpt>
      <trkpt lat="37.38708" lon="-6.00248">
        <ele>4.774605</ele>
        <time>2022-04-11T09:27:07.000Z</time>
      </trkpt>
      <trkpt lat="37.38695" lon="-6.00222">
        <ele>4.841609</ele>
        <time>2022-04-11T09:27:14.000Z</time>
      </trkpt>
      <trkpt lat="37.38694" lon="-6.00211">
        <ele>4.864834</ele>
        <time>2022-04-11T09:27:18.000Z</time>
      </trkpt>
      <trkpt lat="37.38693" lon="-6.00196">
        <ele>4.897203</ele>
        <time>2022-04-11T09:27:23.000Z</time>
      </trkpt>
      <trkpt lat="37.38692" lon="-6.00193">
        <ele>4.904741</ele>
        <time>2022-04-11T09:27:24.000Z</time>
      </trkpt>
      <trkpt lat="37.38687" lon="-6.00183">
        <ele>4.929459</ele>
        <time>2022-04-11T09:27:27.000Z</time>
      </trkpt>
      <trkpt lat="37.38685" lon="-6.00171">
        <ele>4.955795</ele>
        <time>2022-04-11T09:27:31.000Z</time>
      </trkpt>
      <trkpt lat="37.38674" lon="-6.00153">
        <ele>5.005462</ele>
        <time>2022-04-11T09:27:37.000Z</time>
      </trkpt>
      <trkpt lat="37.38656" lon="-6.00126">
        <ele>5.311044</ele>
        <time>2022-04-11T09:27:46.000Z</time>
      </trkpt>
      <trkpt lat="37.38646" lon="-6.00109">
        <ele>5.633305</ele>
        <time>2022-04-11T09:27:53.000Z</time>
      </trkpt>
      <trkpt lat="37.38632" lon="-6.00084">
        <ele>6.115397</ele>
        <time>2022-04-11T09:28:00.000Z</time>
      </trkpt>
      <trkpt lat="37.38631" lon="-6.0008">
        <ele>6.17525</ele>
        <time>2022-04-11T09:28:01.000Z</time>
      </trkpt>
      <trkpt lat="37.38633" lon="-6.00075">
        <ele>6.261782</ele>
        <time>2022-04-11T09:28:03.000Z</time>
      </trkpt>
      <trkpt lat="37.38638" lon="-6.00058">
        <ele>6.548876</ele>
        <time>2022-04-11T09:28:09.000Z</time>
      </trkpt>
      <trkpt lat="37.38635" lon="-6.00052">
        <ele>6.65627</ele>
        <time>2022-04-11T09:28:12.000Z</time>
      </trkpt>
      <trkpt lat="37.38631" lon="-6.00049">
        <ele>6.754648</ele>
        <time>2022-04-11T09:28:14.000Z</time>
      </trkpt>
      <trkpt lat="37.38621" lon="-6.00039">
        <ele>7.013097</ele>
        <time>2022-04-11T09:28:20.000Z</time>
      </trkpt>
      <trkpt lat="37.38615" lon="-6.00032">
        <ele>7.175775</ele>
        <time>2022-04-11T09:28:24.000Z</time>
      </trkpt>
      <trkpt lat="37.38605" lon="-6.00019">
        <ele>7.441319</ele>
        <time>2022-04-11T09:28:30.000Z</time>
      </trkpt>
      <trkpt lat="37.38603" lon="-6.00017">
        <ele>7.498692</ele>
        <time>2022-04-11T09:28:32.000Z</time>
      </trkpt>
      <trkpt lat="37.38601" lon="-6.00013">
        <ele>7.573349</ele>
        <time>2022-04-11T09:28:34.000Z</time>
      </trkpt>
      <trkpt lat="37.38602" lon="-6.00007">
        <ele>7.655192</ele>
        <time>2022-04-11T09:28:37.000Z</time>
      </trkpt>
      <trkpt lat="37.38602" lon="-6.00005">
        <ele>7.687838</ele>
        <time>2022-04-11T09:28:38.000Z</time>
      </trkpt>
      <trkpt lat="37.38598" lon="-6">
        <ele>7.796565</ele>
        <time>2022-04-11T09:28:41.000Z</time>
      </trkpt>
      <trkpt lat="37.38589" lon="-5.99994">
        <ele>7.995763</ele>
        <time>2022-04-11T09:28:46.000Z</time>
      </trkpt>
      <trkpt lat="37.38575" lon="-5.99976">
        <ele>8.386087</ele>
        <time>2022-04-11T09:28:53.000Z</time>
      </trkpt>
      <trkpt lat="37.38572" lon="-5.99973">
        <ele>8.457465</ele>
        <time>2022-04-11T09:28:54.000Z</time>
      </trkpt>
      <trkpt lat="37.38562" lon="-5.99962">
        <ele>8.572051</ele>
        <time>2022-04-11T09:28:58.000Z</time>
      </trkpt>
      <trkpt lat="37.38556" lon="-5.99954">
        <ele>8.590067</ele>
        <time>2022-04-11T09:29:01.000Z</time>
      </trkpt>
      <trkpt lat="37.38542" lon="-5.99944">
        <ele>8.620574</ele>
        <time>2022-04-11T09:29:06.000Z</time>
      </trkpt>
      <trkpt lat="37.38537" lon="-5.99939">
        <ele>8.633032</ele>
        <time>2022-04-11T09:29:08.000Z</time>
      </trkpt>
      <trkpt lat="37.38519" lon="-5.99919">
        <ele>8.680578</ele>
        <time>2022-04-11T09:29:16.000Z</time>
      </trkpt>
      <trkpt lat="37.38508" lon="-5.99908">
        <ele>8.707793</ele>
        <time>2022-04-11T09:29:22.000Z</time>
      </trkpt>
      <trkpt lat="37.38506" lon="-5.99905">
        <ele>8.714448</ele>
        <time>2022-04-11T09:29:24.000Z</time>
      </trkpt>
      <trkpt lat="37.38503" lon="-5.99898">
        <ele>8.726223</ele>
        <time>2022-04-11T09:29:27.000Z</time>
      </trkpt>
      <trkpt lat="37.38503" lon="-5.99895">
        <ele>8.731356</ele>
        <time>2022-04-11T09:29:29.000Z</time>
      </trkpt>
      <trkpt lat="37.38504" lon="-5.99893">
        <ele>8.735635</ele>
        <time>2022-04-11T09:29:31.000Z</time>
      </trkpt>
      <trkpt lat="37.38505" lon="-5.99892">
        <ele>8.737986</ele>
        <time>2022-04-11T09:29:38.000Z</time>
      </trkpt>
      <trkpt lat="37.38505" lon="-5.99892">
        <ele>8.737986</ele>
        <time>2022-04-11T09:29:57.000Z</time>
      </trkpt>
      <trkpt lat="37.38505" lon="-5.99892">
        <ele>8.737986</ele>
        <time>2022-04-11T09:30:06.000Z</time>
      </trkpt>
      <trkpt lat="37.38505" lon="-5.99892">
        <ele>8.737986</ele>
        <time>2022-04-11T09:30:11.000Z</time>
      </trkpt>
      <trkpt lat="37.3851" lon="-5.99883">
        <ele>8.755403</ele>
        <time>2022-04-11T09:30:25.000Z</time>
      </trkpt>
      <trkpt lat="37.38516" lon="-5.99874">
        <ele>8.773435</ele>
        <time>2022-04-11T09:30:28.000Z</time>
      </trkpt>
      <trkpt lat="37.38515" lon="-5.99868">
        <ele>8.782025</ele>
        <time>2022-04-11T09:30:30.000Z</time>
      </trkpt>
      <trkpt lat="37.38497" lon="-5.99846">
        <ele>8.832137</ele>
        <time>2022-04-11T09:30:39.000Z</time>
      </trkpt>
      <trkpt lat="37.38482" lon="-5.99825">
        <ele>8.876265</ele>
        <time>2022-04-11T09:30:46.000Z</time>
      </trkpt>
      <trkpt lat="37.3848" lon="-5.99822">
        <ele>8.881989</ele>
        <time>2022-04-11T09:30:47.000Z</time>
      </trkpt>
      <trkpt lat="37.38472" lon="-5.99815">
        <ele>8.900838</ele>
        <time>2022-04-11T09:30:50.000Z</time>
      </trkpt>
      <trkpt lat="37.38454" lon="-5.99795">
        <ele>8.907199</ele>
        <time>2022-04-11T09:30:57.000Z</time>
      </trkpt>
      <trkpt lat="37.38439" lon="-5.99778">
        <ele>8.906456</ele>
        <time>2022-04-11T09:31:02.000Z</time>
      </trkpt>
      <trkpt lat="37.38436" lon="-5.99775">
        <ele>8.906312</ele>
        <time>2022-04-11T09:31:03.000Z</time>
      </trkpt>
      <trkpt lat="37.38424" lon="-5.99765">
        <ele>8.90576</ele>
        <time>2022-04-11T09:31:07.000Z</time>
      </trkpt>
      <trkpt lat="37.38421" lon="-5.99761">
        <ele>8.905616</ele>
        <time>2022-04-11T09:31:08.000Z</time>
      </trkpt>
      <trkpt lat="37.38407" lon="-5.99744">
        <ele>8.904862</ele>
        <time>2022-04-11T09:31:14.000Z</time>
      </trkpt>
      <trkpt lat="37.38405" lon="-5.99741">
        <ele>8.904764</ele>
        <time>2022-04-11T09:31:15.000Z</time>
      </trkpt>
      <trkpt lat="37.38396" lon="-5.99732">
        <ele>8.90434</ele>
        <time>2022-04-11T09:31:19.000Z</time>
      </trkpt>
      <trkpt lat="37.38379" lon="-5.99712">
        <ele>8.903467</ele>
        <time>2022-04-11T09:31:26.000Z</time>
      </trkpt>
      <trkpt lat="37.38374" lon="-5.99706">
        <ele>8.9032</ele>
        <time>2022-04-11T09:31:28.000Z</time>
      </trkpt>
      <trkpt lat="37.38343" lon="-5.99671">
        <ele>8.901656</ele>
        <time>2022-04-11T09:31:39.000Z</time>
      </trkpt>
      <trkpt lat="37.38333" lon="-5.99657">
        <ele>8.919227</ele>
        <time>2022-04-11T09:31:44.000Z</time>
      </trkpt>
      <trkpt lat="37.38331" lon="-5.99655">
        <ele>8.932854</ele>
        <time>2022-04-11T09:31:45.000Z</time>
      </trkpt>
      <trkpt lat="37.38322" lon="-5.9965">
        <ele>8.976834</ele>
        <time>2022-04-11T09:31:48.000Z</time>
      </trkpt>
      <trkpt lat="37.38306" lon="-5.99632">
        <ele>9.076069</ele>
        <time>2022-04-11T09:31:55.000Z</time>
      </trkpt>
      <trkpt lat="37.38301" lon="-5.99626">
        <ele>9.104259</ele>
        <time>2022-04-11T09:31:57.000Z</time>
      </trkpt>
      <trkpt lat="37.38288" lon="-5.99616">
        <ele>9.175063</ele>
        <time>2022-04-11T09:32:02.000Z</time>
      </trkpt>
      <trkpt lat="37.3828" lon="-5.99609">
        <ele>9.219033</ele>
        <time>2022-04-11T09:32:05.000Z</time>
      </trkpt>
      <trkpt lat="37.3826" lon="-5.99594">
        <ele>9.323996</ele>
        <time>2022-04-11T09:32:12.000Z</time>
      </trkpt>
      <trkpt lat="37.38254" lon="-5.9959">
        <ele>9.353073</ele>
        <time>2022-04-11T09:32:14.000Z</time>
      </trkpt>
      <trkpt lat="37.38236" lon="-5.99576">
        <ele>9.451423</ele>
        <time>2022-04-11T09:32:22.000Z</time>
      </trkpt>
      <trkpt lat="37.38229" lon="-5.99569">
        <ele>9.490555</ele>
        <time>2022-04-11T09:32:27.000Z</time>
      </trkpt>
      <trkpt lat="37.38228" lon="-5.99568">
        <ele>9.497733</ele>
        <time>2022-04-11T09:32:34.000Z</time>
      </trkpt>
      <trkpt lat="37.38228" lon="-5.99568">
        <ele>9.497733</ele>
        <time>2022-04-11T09:32:43.000Z</time>
      </trkpt>
      <trkpt lat="37.38228" lon="-5.99568">
        <ele>9.497733</ele>
        <time>2022-04-11T09:32:50.000Z</time>
      </trkpt>
      <trkpt lat="37.38228" lon="-5.99568">
        <ele>9.498186</ele>
        <time>2022-04-11T09:33:11.000Z</time>
      </trkpt>
      <trkpt lat="37.38227" lon="-5.99568">
        <ele>9.500444</ele>
        <time>2022-04-11T09:33:15.000Z</time>
      </trkpt>
      <trkpt lat="37.38227" lon="-5.99568">
        <ele>9.500444</ele>
        <time>2022-04-11T09:33:18.000Z</time>
      </trkpt>
      <trkpt lat="37.38227" lon="-5.99568">
        <ele>9.500444</ele>
        <time>2022-04-11T09:33:19.000Z</time>
      </trkpt>
      <trkpt lat="37.38227" lon="-5.99568">
        <ele>9.500444</ele>
        <time>2022-04-11T09:33:40.000Z</time>
      </trkpt>
      <trkpt lat="37.38227" lon="-5.99568">
        <ele>9.500444</ele>
        <time>2022-04-11T09:33:42.000Z</time>
      </trkpt>
      <trkpt lat="37.38227" lon="-5.99566">
        <ele>9.506585</ele>
        <time>2022-04-11T09:34:01.000Z</time>
      </trkpt>
      <trkpt lat="37.38225" lon="-5.99559">
        <ele>9.534712</ele>
        <time>2022-04-11T09:34:05.000Z</time>
      </trkpt>
      <trkpt lat="37.38225" lon="-5.99555">
        <ele>9.547329</ele>
        <time>2022-04-11T09:34:06.000Z</time>
      </trkpt>
      <trkpt lat="37.38227" lon="-5.99546">
        <ele>9.580649</ele>
        <time>2022-04-11T09:34:09.000Z</time>
      </trkpt>
      <trkpt lat="37.38229" lon="-5.9954">
        <ele>9.604089</ele>
        <time>2022-04-11T09:34:11.000Z</time>
      </trkpt>
      <trkpt lat="37.38231" lon="-5.99524">
        <ele>9.665355</ele>
        <time>2022-04-11T09:34:16.000Z</time>
      </trkpt>
      <trkpt lat="37.38231" lon="-5.99521">
        <ele>9.675093</ele>
        <time>2022-04-11T09:34:17.000Z</time>
      </trkpt>
      <trkpt lat="37.38232" lon="-5.9951">
        <ele>9.715654</ele>
        <time>2022-04-11T09:34:21.000Z</time>
      </trkpt>
      <trkpt lat="37.38233" lon="-5.99489">
        <ele>9.660767</ele>
        <time>2022-04-11T09:34:28.000Z</time>
      </trkpt>
      <trkpt lat="37.38232" lon="-5.99487">
        <ele>9.654231</ele>
        <time>2022-04-11T09:34:29.000Z</time>
      </trkpt>
      <trkpt lat="37.38231" lon="-5.99478">
        <ele>9.630379</ele>
        <time>2022-04-11T09:34:33.000Z</time>
      </trkpt>
      <trkpt lat="37.38231" lon="-5.99475">
        <ele>9.623347</ele>
        <time>2022-04-11T09:34:34.000Z</time>
      </trkpt>
      <trkpt lat="37.38226" lon="-5.99466">
        <ele>9.592849</ele>
        <time>2022-04-11T09:34:38.000Z</time>
      </trkpt>
      <trkpt lat="37.38225" lon="-5.99465">
        <ele>9.5901</ele>
        <time>2022-04-11T09:34:39.000Z</time>
      </trkpt>
      <trkpt lat="37.38225" lon="-5.99461">
        <ele>9.579515</ele>
        <time>2022-04-11T09:34:42.000Z</time>
      </trkpt>
      <trkpt lat="37.38224" lon="-5.99457">
        <ele>9.567713</ele>
        <time>2022-04-11T09:34:44.000Z</time>
      </trkpt>
      <trkpt lat="37.38225" lon="-5.99455">
        <ele>9.561664</ele>
        <time>2022-04-11T09:34:45.000Z</time>
      </trkpt>
      <trkpt lat="37.38226" lon="-5.99444">
        <ele>9.530863</ele>
        <time>2022-04-11T09:34:49.000Z</time>
      </trkpt>
      <trkpt lat="37.38226" lon="-5.99441">
        <ele>9.523374</ele>
        <time>2022-04-11T09:34:50.000Z</time>
      </trkpt>
      <trkpt lat="37.38223" lon="-5.99427">
        <ele>9.48502</ele>
        <time>2022-04-11T09:34:54.000Z</time>
      </trkpt>
      <trkpt lat="37.38223" lon="-5.99403">
        <ele>9.417958</ele>
        <time>2022-04-11T09:35:00.000Z</time>
      </trkpt>
      <trkpt lat="37.38219" lon="-5.99387">
        <ele>9.37469</ele>
        <time>2022-04-11T09:35:06.000Z</time>
      </trkpt>
      <trkpt lat="37.38218" lon="-5.99378">
        <ele>9.349114</ele>
        <time>2022-04-11T09:35:10.000Z</time>
      </trkpt>
      <trkpt lat="37.38219" lon="-5.99377">
        <ele>9.344816</ele>
        <time>2022-04-11T09:35:11.000Z</time>
      </trkpt>
      <trkpt lat="37.38227" lon="-5.99377">
        <ele>9.317268</ele>
        <time>2022-04-11T09:35:16.000Z</time>
      </trkpt>
      <trkpt lat="37.38228" lon="-5.99376">
        <ele>9.31261</ele>
        <time>2022-04-11T09:35:17.000Z</time>
      </trkpt>
      <trkpt lat="37.38229" lon="-5.99374">
        <ele>9.307746</ele>
        <time>2022-04-11T09:35:21.000Z</time>
      </trkpt>
      <trkpt lat="37.38229" lon="-5.99373">
        <ele>9.303215</ele>
        <time>2022-04-11T09:35:29.000Z</time>
      </trkpt>
      <trkpt lat="37.38229" lon="-5.99373">
        <ele>9.303215</ele>
        <time>2022-04-11T09:35:54.000Z</time>
      </trkpt>
      <trkpt lat="37.38229" lon="-5.99373">
        <ele>9.302945</ele>
        <time>2022-04-11T09:36:05.000Z</time>
      </trkpt>
      <trkpt lat="37.38229" lon="-5.99373">
        <ele>9.302066</ele>
        <time>2022-04-11T09:36:06.000Z</time>
      </trkpt>
      <trkpt lat="37.3823" lon="-5.9937">
        <ele>9.29465</ele>
        <time>2022-04-11T09:36:07.000Z</time>
      </trkpt>
      <trkpt lat="37.38232" lon="-5.99363">
        <ele>9.274751</ele>
        <time>2022-04-11T09:36:09.000Z</time>
      </trkpt>
      <trkpt lat="37.38231" lon="-5.99345">
        <ele>9.224368</ele>
        <time>2022-04-11T09:36:14.000Z</time>
      </trkpt>
      <trkpt lat="37.38232" lon="-5.99333">
        <ele>9.192884</ele>
        <time>2022-04-11T09:36:17.000Z</time>
      </trkpt>
      <trkpt lat="37.38234" lon="-5.9933">
        <ele>9.183785</ele>
        <time>2022-04-11T09:36:18.000Z</time>
      </trkpt>
      <trkpt lat="37.3824" lon="-5.99318">
        <ele>9.143751</ele>
        <time>2022-04-11T09:36:23.000Z</time>
      </trkpt>
      <trkpt lat="37.3824" lon="-5.99316">
        <ele>9.138338</ele>
        <time>2022-04-11T09:36:24.000Z</time>
      </trkpt>
      <trkpt lat="37.38238" lon="-5.99307">
        <ele>9.110791</ele>
        <time>2022-04-11T09:36:28.000Z</time>
      </trkpt>
      <trkpt lat="37.38238" lon="-5.99304">
        <ele>9.107084</ele>
        <time>2022-04-11T09:36:29.000Z</time>
      </trkpt>
      <trkpt lat="37.38237" lon="-5.99297">
        <ele>9.119417</ele>
        <time>2022-04-11T09:36:32.000Z</time>
      </trkpt>
      <trkpt lat="37.38236" lon="-5.99294">
        <ele>9.126418</ele>
        <time>2022-04-11T09:36:34.000Z</time>
      </trkpt>
      <trkpt lat="37.38231" lon="-5.99279">
        <ele>9.156831</ele>
        <time>2022-04-11T09:36:39.000Z</time>
      </trkpt>
      <trkpt lat="37.38229" lon="-5.99275">
        <ele>9.165417</ele>
        <time>2022-04-11T09:36:40.000Z</time>
      </trkpt>
      <trkpt lat="37.38225" lon="-5.99264">
        <ele>9.188423</ele>
        <time>2022-04-11T09:36:43.000Z</time>
      </trkpt>
      <trkpt lat="37.38221" lon="-5.99247">
        <ele>9.222637</ele>
        <time>2022-04-11T09:36:47.000Z</time>
      </trkpt>
      <trkpt lat="37.38213" lon="-5.99218">
        <ele>9.280634</ele>
        <time>2022-04-11T09:36:54.000Z</time>
      </trkpt>
      <trkpt lat="37.38205" lon="-5.99189">
        <ele>9.340664</ele>
        <time>2022-04-11T09:37:01.000Z</time>
      </trkpt>
      <trkpt lat="37.38195" lon="-5.99153">
        <ele>9.411998</ele>
        <time>2022-04-11T09:37:09.000Z</time>
      </trkpt>
      <trkpt lat="37.38188" lon="-5.99125">
        <ele>9.467265</ele>
        <time>2022-04-11T09:37:15.000Z</time>
      </trkpt>
      <trkpt lat="37.38186" lon="-5.99116">
        <ele>9.485189</ele>
        <time>2022-04-11T09:37:17.000Z</time>
      </trkpt>
      <trkpt lat="37.38181" lon="-5.99099">
        <ele>9.52079</ele>
        <time>2022-04-11T09:37:21.000Z</time>
      </trkpt>
      <trkpt lat="37.38177" lon="-5.99087">
        <ele>9.549721</ele>
        <time>2022-04-11T09:37:24.000Z</time>
      </trkpt>
      <trkpt lat="37.3817" lon="-5.99057">
        <ele>9.640903</ele>
        <time>2022-04-11T09:37:32.000Z</time>
      </trkpt>
      <trkpt lat="37.38169" lon="-5.99052">
        <ele>9.65578</ele>
        <time>2022-04-11T09:37:34.000Z</time>
      </trkpt>
      <trkpt lat="37.38165" lon="-5.99049">
        <ele>9.66974</ele>
        <time>2022-04-11T09:37:36.000Z</time>
      </trkpt>
      <trkpt lat="37.38157" lon="-5.9904">
        <ele>9.708901</ele>
        <time>2022-04-11T09:37:43.000Z</time>
      </trkpt>
      <trkpt lat="37.38157" lon="-5.9904">
        <ele>9.708901</ele>
        <time>2022-04-11T09:37:51.000Z</time>
      </trkpt>
      <trkpt lat="37.38157" lon="-5.9904">
        <ele>9.708901</ele>
        <time>2022-04-11T09:37:54.000Z</time>
      </trkpt>
      <trkpt lat="37.38157" lon="-5.9904">
        <ele>9.708901</ele>
        <time>2022-04-11T09:38:02.000Z</time>
      </trkpt>
      <trkpt lat="37.38157" lon="-5.9904">
        <ele>9.708901</ele>
        <time>2022-04-11T09:38:05.000Z</time>
      </trkpt>
      <trkpt lat="37.38157" lon="-5.9904">
        <ele>9.708901</ele>
        <time>2022-04-11T09:38:07.000Z</time>
      </trkpt>
      <trkpt lat="37.3816" lon="-5.99038">
        <ele>9.719339</ele>
        <time>2022-04-11T09:38:20.000Z</time>
      </trkpt>
      <trkpt lat="37.38163" lon="-5.99037">
        <ele>9.73006</ele>
        <time>2022-04-11T09:38:22.000Z</time>
      </trkpt>
      <trkpt lat="37.38165" lon="-5.99037">
        <ele>9.7384</ele>
        <time>2022-04-11T09:38:24.000Z</time>
      </trkpt>
      <trkpt lat="37.38167" lon="-5.9904">
        <ele>9.749488</ele>
        <time>2022-04-11T09:38:26.000Z</time>
      </trkpt>
      <trkpt lat="37.38168" lon="-5.99047">
        <ele>9.769439</ele>
        <time>2022-04-11T09:38:28.000Z</time>
      </trkpt>
      <trkpt lat="37.38174" lon="-5.99068">
        <ele>9.834792</ele>
        <time>2022-04-11T09:38:33.000Z</time>
      </trkpt>
      <trkpt lat="37.38185" lon="-5.99101">
        <ele>9.937164</ele>
        <time>2022-04-11T09:38:40.000Z</time>
      </trkpt>
      <trkpt lat="37.38198" lon="-5.99148">
        <ele>10.080921</ele>
        <time>2022-04-11T09:38:48.000Z</time>
      </trkpt>
      <trkpt lat="37.38211" lon="-5.99195">
        <ele>10.206729</ele>
        <time>2022-04-11T09:38:56.000Z</time>
      </trkpt>
      <trkpt lat="37.38212" lon="-5.992">
        <ele>10.21456</ele>
        <time>2022-04-11T09:38:57.000Z</time>
      </trkpt>
      <trkpt lat="37.38225" lon="-5.99248">
        <ele>10.291523</ele>
        <time>2022-04-11T09:39:05.000Z</time>
      </trkpt>
      <trkpt lat="37.38237" lon="-5.99289">
        <ele>10.357423</ele>
        <time>2022-04-11T09:39:13.000Z</time>
      </trkpt>
      <trkpt lat="37.38241" lon="-5.99304">
        <ele>10.380785</ele>
        <time>2022-04-11T09:39:17.000Z</time>
      </trkpt>
      <trkpt lat="37.38251" lon="-5.99315">
        <ele>10.405997</ele>
        <time>2022-04-11T09:39:22.000Z</time>
      </trkpt>
      <trkpt lat="37.38266" lon="-5.99313">
        <ele>10.435305</ele>
        <time>2022-04-11T09:39:28.000Z</time>
      </trkpt>
      <trkpt lat="37.38292" lon="-5.99303">
        <ele>10.487592</ele>
        <time>2022-04-11T09:39:36.000Z</time>
      </trkpt>
      <trkpt lat="37.38303" lon="-5.99299">
        <ele>10.508389</ele>
        <time>2022-04-11T09:39:39.000Z</time>
      </trkpt>
      <trkpt lat="37.38317" lon="-5.99293">
        <ele>10.597518</ele>
        <time>2022-04-11T09:39:43.000Z</time>
      </trkpt>
      <trkpt lat="37.38328" lon="-5.99288">
        <ele>10.78328</ele>
        <time>2022-04-11T09:39:47.000Z</time>
      </trkpt>
      <trkpt lat="37.38332" lon="-5.99287">
        <ele>10.853862</ele>
        <time>2022-04-11T09:39:48.000Z</time>
      </trkpt>
      <trkpt lat="37.38339" lon="-5.99285">
        <ele>10.972561</ele>
        <time>2022-04-11T09:39:50.000Z</time>
      </trkpt>
      <trkpt lat="37.38342" lon="-5.99283">
        <ele>11.01892</ele>
        <time>2022-04-11T09:39:51.000Z</time>
      </trkpt>
      <trkpt lat="37.38357" lon="-5.99274">
        <ele>11.292056</ele>
        <time>2022-04-11T09:39:57.000Z</time>
      </trkpt>
      <trkpt lat="37.38371" lon="-5.99263">
        <ele>11.56273</ele>
        <time>2022-04-11T09:40:01.000Z</time>
      </trkpt>
      <trkpt lat="37.38373" lon="-5.9926">
        <ele>11.613713</ele>
        <time>2022-04-11T09:40:02.000Z</time>
      </trkpt>
      <trkpt lat="37.38375" lon="-5.99256">
        <ele>11.673643</ele>
        <time>2022-04-11T09:40:03.000Z</time>
      </trkpt>
      <trkpt lat="37.38379" lon="-5.9925">
        <ele>11.783352</ele>
        <time>2022-04-11T09:40:05.000Z</time>
      </trkpt>
      <trkpt lat="37.38381" lon="-5.99244">
        <ele>11.860496</ele>
        <time>2022-04-11T09:40:07.000Z</time>
      </trkpt>
      <trkpt lat="37.38381" lon="-5.99244">
        <ele>11.866623</ele>
        <time>2022-04-11T09:40:08.000Z</time>
      </trkpt>
      <trkpt lat="37.38381" lon="-5.99244">
        <ele>11.866623</ele>
        <time>2022-04-11T09:40:15.000Z</time>
      </trkpt>
      <trkpt lat="37.38381" lon="-5.99244">
        <ele>11.866623</ele>
        <time>2022-04-11T09:40:17.000Z</time>
      </trkpt>
      <trkpt lat="37.38381" lon="-5.99244">
        <ele>11.88044</ele>
        <time>2022-04-11T09:40:19.000Z</time>
      </trkpt>
      <trkpt lat="37.38382" lon="-5.99244">
        <ele>11.888597</ele>
        <time>2022-04-11T09:40:21.000Z</time>
      </trkpt>
      <trkpt lat="37.38382" lon="-5.99244">
        <ele>11.888597</ele>
        <time>2022-04-11T09:40:32.000Z</time>
      </trkpt>
      <trkpt lat="37.38382" lon="-5.99245">
        <ele>11.901249</ele>
        <time>2022-04-11T09:40:34.000Z</time>
      </trkpt>
      <trkpt lat="37.38382" lon="-5.99247">
        <ele>11.927175</ele>
        <time>2022-04-11T09:40:35.000Z</time>
      </trkpt>
      <trkpt lat="37.38383" lon="-5.99249">
        <ele>11.950674</ele>
        <time>2022-04-11T09:40:36.000Z</time>
      </trkpt>
      <trkpt lat="37.38386" lon="-5.99253">
        <ele>12.023788</ele>
        <time>2022-04-11T09:40:38.000Z</time>
      </trkpt>
      <trkpt lat="37.38388" lon="-5.99254">
        <ele>12.060897</ele>
        <time>2022-04-11T09:40:39.000Z</time>
      </trkpt>
      <trkpt lat="37.38396" lon="-5.99265">
        <ele>12.25474</ele>
        <time>2022-04-11T09:40:44.000Z</time>
      </trkpt>
      <trkpt lat="37.38408" lon="-5.99268">
        <ele>12.45754</ele>
        <time>2022-04-11T09:40:49.000Z</time>
      </trkpt>
      <trkpt lat="37.3841" lon="-5.99266">
        <ele>12.502588</ele>
        <time>2022-04-11T09:40:50.000Z</time>
      </trkpt>
      <trkpt lat="37.38416" lon="-5.99257">
        <ele>12.647725</ele>
        <time>2022-04-11T09:40:53.000Z</time>
      </trkpt>
      <trkpt lat="37.38428" lon="-5.99236">
        <ele>12.986202</ele>
        <time>2022-04-11T09:41:00.000Z</time>
      </trkpt>
      <trkpt lat="37.38435" lon="-5.99228">
        <ele>13.138682</ele>
        <time>2022-04-11T09:41:03.000Z</time>
      </trkpt>
      <trkpt lat="37.38439" lon="-5.99227">
        <ele>13.204478</ele>
        <time>2022-04-11T09:41:04.000Z</time>
      </trkpt>
      <trkpt lat="37.38447" lon="-5.99223">
        <ele>13.34749</ele>
        <time>2022-04-11T09:41:06.000Z</time>
      </trkpt>
      <trkpt lat="37.38449" lon="-5.99224">
        <ele>13.387141</ele>
        <time>2022-04-11T09:41:07.000Z</time>
      </trkpt>
      <trkpt lat="37.38454" lon="-5.9923">
        <ele>13.469143</ele>
        <time>2022-04-11T09:41:09.000Z</time>
      </trkpt>
      <trkpt lat="37.38457" lon="-5.99233">
        <ele>13.482895</ele>
        <time>2022-04-11T09:41:11.000Z</time>
      </trkpt>
      <trkpt lat="37.38462" lon="-5.99236">
        <ele>13.50175</ele>
        <time>2022-04-11T09:41:13.000Z</time>
      </trkpt>
      <trkpt lat="37.38472" lon="-5.99242">
        <ele>13.540143</ele>
        <time>2022-04-11T09:41:17.000Z</time>
      </trkpt>
      <trkpt lat="37.38474" lon="-5.99243">
        <ele>13.547021</ele>
        <time>2022-04-11T09:41:18.000Z</time>
      </trkpt>
      <trkpt lat="37.3848" lon="-5.99245">
        <ele>13.567561</ele>
        <time>2022-04-11T09:41:22.000Z</time>
      </trkpt>
      <trkpt lat="37.38484" lon="-5.99244">
        <ele>13.581048</ele>
        <time>2022-04-11T09:41:27.000Z</time>
      </trkpt>
      <trkpt lat="37.38483" lon="-5.99244">
        <ele>13.584731</ele>
        <time>2022-04-11T09:41:32.000Z</time>
      </trkpt>
      <trkpt lat="37.38483" lon="-5.99244">
        <ele>13.584731</ele>
        <time>2022-04-11T09:41:33.000Z</time>
      </trkpt>
      <trkpt lat="37.38483" lon="-5.99244">
        <ele>13.584731</ele>
        <time>2022-04-11T09:41:34.000Z</time>
      </trkpt>
      <trkpt lat="37.38483" lon="-5.99244">
        <ele>13.584731</ele>
        <time>2022-04-11T09:41:35.000Z</time>
      </trkpt>
      <trkpt lat="37.38483" lon="-5.99244">
        <ele>13.584731</ele>
        <time>2022-04-11T09:41:38.000Z</time>
      </trkpt>
      <trkpt lat="37.38486" lon="-5.99242">
        <ele>13.596603</ele>
        <time>2022-04-11T09:41:44.000Z</time>
      </trkpt>
      <trkpt lat="37.38495" lon="-5.99226">
        <ele>13.645734</ele>
        <time>2022-04-11T09:41:51.000Z</time>
      </trkpt>
      <trkpt lat="37.38496" lon="-5.99224">
        <ele>13.65326</ele>
        <time>2022-04-11T09:41:52.000Z</time>
      </trkpt>
      <trkpt lat="37.38505" lon="-5.99204">
        <ele>13.714982</ele>
        <time>2022-04-11T09:42:00.000Z</time>
      </trkpt>
      <trkpt lat="37.38506" lon="-5.99201">
        <ele>13.723508</ele>
        <time>2022-04-11T09:42:01.000Z</time>
      </trkpt>
      <trkpt lat="37.3851" lon="-5.99196">
        <ele>13.740339</ele>
        <time>2022-04-11T09:42:03.000Z</time>
      </trkpt>
      <trkpt lat="37.38512" lon="-5.99195">
        <ele>13.747837</ele>
        <time>2022-04-11T09:42:04.000Z</time>
      </trkpt>
      <trkpt lat="37.38514" lon="-5.99192">
        <ele>13.759799</ele>
        <time>2022-04-11T09:42:07.000Z</time>
      </trkpt>
      <trkpt lat="37.38518" lon="-5.99189">
        <ele>13.775797</ele>
        <time>2022-04-11T09:42:10.000Z</time>
      </trkpt>
      <trkpt lat="37.38532" lon="-5.99198">
        <ele>13.825142</ele>
        <time>2022-04-11T09:42:17.000Z</time>
      </trkpt>
      <trkpt lat="37.38537" lon="-5.99206">
        <ele>13.853419</ele>
        <time>2022-04-11T09:42:21.000Z</time>
      </trkpt>
      <trkpt lat="37.38539" lon="-5.99208">
        <ele>13.861788</ele>
        <time>2022-04-11T09:42:22.000Z</time>
      </trkpt>
      <trkpt lat="37.38556" lon="-5.99217">
        <ele>13.92451</ele>
        <time>2022-04-11T09:42:30.000Z</time>
      </trkpt>
      <trkpt lat="37.38561" lon="-5.99223">
        <ele>13.94655</ele>
        <time>2022-04-11T09:42:35.000Z</time>
      </trkpt>
      <trkpt lat="37.38562" lon="-5.99224">
        <ele>13.950374</ele>
        <time>2022-04-11T09:42:36.000Z</time>
      </trkpt>
      <trkpt lat="37.38567" lon="-5.99225">
        <ele>13.967425</ele>
        <time>2022-04-11T09:42:41.000Z</time>
      </trkpt>
      <trkpt lat="37.38569" lon="-5.99225">
        <ele>13.976108</ele>
        <time>2022-04-11T09:42:43.000Z</time>
      </trkpt>
      <trkpt lat="37.38584" lon="-5.99221">
        <ele>14.025149</ele>
        <time>2022-04-11T09:42:51.000Z</time>
      </trkpt>
      <trkpt lat="37.38588" lon="-5.9922">
        <ele>14.03827</ele>
        <time>2022-04-11T09:42:54.000Z</time>
      </trkpt>
      <trkpt lat="37.38592" lon="-5.99219">
        <ele>14.05386</ele>
        <time>2022-04-11T09:42:57.000Z</time>
      </trkpt>
      <trkpt lat="37.38603" lon="-5.99209">
        <ele>14.198599</ele>
        <time>2022-04-11T09:43:03.000Z</time>
      </trkpt>
      <trkpt lat="37.38612" lon="-5.99192">
        <ele>14.420126</ele>
        <time>2022-04-11T09:43:10.000Z</time>
      </trkpt>
      <trkpt lat="37.38614" lon="-5.99186">
        <ele>14.488185</ele>
        <time>2022-04-11T09:43:13.000Z</time>
      </trkpt>
      <trkpt lat="37.38613" lon="-5.99185">
        <ele>14.505815</ele>
        <time>2022-04-11T09:43:14.000Z</time>
      </trkpt>
      <trkpt lat="37.38607" lon="-5.99173">
        <ele>14.647021</ele>
        <time>2022-04-11T09:43:20.000Z</time>
      </trkpt>
      <trkpt lat="37.38607" lon="-5.99172">
        <ele>14.666253</ele>
        <time>2022-04-11T09:43:21.000Z</time>
      </trkpt>
      <trkpt lat="37.38606" lon="-5.99159">
        <ele>14.80048</ele>
        <time>2022-04-11T09:43:26.000Z</time>
      </trkpt>
      <trkpt lat="37.38607" lon="-5.99148">
        <ele>14.915588</ele>
        <time>2022-04-11T09:43:30.000Z</time>
      </trkpt>
      <trkpt lat="37.38608" lon="-5.99147">
        <ele>14.938187</ele>
        <time>2022-04-11T09:43:31.000Z</time>
      </trkpt>
      <trkpt lat="37.38609" lon="-5.99145">
        <ele>14.961821</ele>
        <time>2022-04-11T09:43:32.000Z</time>
      </trkpt>
      <trkpt lat="37.38608" lon="-5.99143">
        <ele>14.9792</ele>
        <time>2022-04-11T09:43:35.000Z</time>
      </trkpt>
      <trkpt lat="37.38608" lon="-5.99142">
        <ele>14.994094</ele>
        <time>2022-04-11T09:43:38.000Z</time>
      </trkpt>
      <trkpt lat="37.38608" lon="-5.99138">
        <ele>15.033717</ele>
        <time>2022-04-11T09:43:40.000Z</time>
      </trkpt>
      <trkpt lat="37.38608" lon="-5.99135">
        <ele>15.071972</ele>
        <time>2022-04-11T09:43:42.000Z</time>
      </trkpt>
      <trkpt lat="37.38608" lon="-5.99133">
        <ele>15.091846</ele>
        <time>2022-04-11T09:43:43.000Z</time>
      </trkpt>
      <trkpt lat="37.38609" lon="-5.99131">
        <ele>15.119093</ele>
        <time>2022-04-11T09:43:45.000Z</time>
      </trkpt>
      <trkpt lat="37.38608" lon="-5.9913">
        <ele>15.127745</ele>
        <time>2022-04-11T09:43:46.000Z</time>
      </trkpt>
      <trkpt lat="37.38609" lon="-5.9913">
        <ele>15.135193</ele>
        <time>2022-04-11T09:43:51.000Z</time>
      </trkpt>
      <trkpt lat="37.38609" lon="-5.9913">
        <ele>15.135193</ele>
        <time>2022-04-11T09:43:59.000Z</time>
      </trkpt>
      <trkpt lat="37.38645" lon="-5.99001">
        <ele>16.548622</ele>
        <time>2022-04-11T11:46:21.000Z</time>
      </trkpt>
      <trkpt lat="37.38643" lon="-5.98997">
        <ele>16.574721</ele>
        <time>2022-04-11T11:46:22.000Z</time>
      </trkpt>
      <trkpt lat="37.38658" lon="-5.98985">
        <ele>16.701935</ele>
        <time>2022-04-11T11:46:29.000Z</time>
      </trkpt>
      <trkpt lat="37.38662" lon="-5.98987">
        <ele>16.737883</ele>
        <time>2022-04-11T11:46:33.000Z</time>
      </trkpt>
      <trkpt lat="37.38663" lon="-5.98988">
        <ele>16.748111</ele>
        <time>2022-04-11T11:46:34.000Z</time>
      </trkpt>
      <trkpt lat="37.38667" lon="-5.98989">
        <ele>16.774411</ele>
        <time>2022-04-11T11:46:36.000Z</time>
      </trkpt>
      <trkpt lat="37.38666" lon="-5.98988">
        <ele>16.779832</ele>
        <time>2022-04-11T11:46:37.000Z</time>
      </trkpt>
      <trkpt lat="37.38667" lon="-5.98987">
        <ele>16.786532</ele>
        <time>2022-04-11T11:46:38.000Z</time>
      </trkpt>
      <trkpt lat="37.38668" lon="-5.98985">
        <ele>16.802751</ele>
        <time>2022-04-11T11:46:40.000Z</time>
      </trkpt>
      <trkpt lat="37.38672" lon="-5.98978">
        <ele>16.853372</ele>
        <time>2022-04-11T11:46:43.000Z</time>
      </trkpt>
      <trkpt lat="37.38682" lon="-5.98969">
        <ele>16.948781</ele>
        <time>2022-04-11T11:46:48.000Z</time>
      </trkpt>
      <trkpt lat="37.38684" lon="-5.98967">
        <ele>16.970323</ele>
        <time>2022-04-11T11:46:49.000Z</time>
      </trkpt>
      <trkpt lat="37.38691" lon="-5.98962">
        <ele>17.031526</ele>
        <time>2022-04-11T11:46:52.000Z</time>
      </trkpt>
      <trkpt lat="37.38703" lon="-5.98946">
        <ele>17.159645</ele>
        <time>2022-04-11T11:46:59.000Z</time>
      </trkpt>
      <trkpt lat="37.38712" lon="-5.98933">
        <ele>17.261983</ele>
        <time>2022-04-11T11:47:06.000Z</time>
      </trkpt>
      <trkpt lat="37.38716" lon="-5.98932">
        <ele>17.29356</ele>
        <time>2022-04-11T11:47:10.000Z</time>
      </trkpt>
      <trkpt lat="37.38715" lon="-5.98934">
        <ele>17.310685</ele>
        <time>2022-04-11T11:47:16.000Z</time>
      </trkpt>
      <trkpt lat="37.38714" lon="-5.98935">
        <ele>17.313571</ele>
        <time>2022-04-11T11:47:17.000Z</time>
      </trkpt>
      <trkpt lat="37.38714" lon="-5.98933">
        <ele>17.321388</ele>
        <time>2022-04-11T11:47:20.000Z</time>
      </trkpt>
      <trkpt lat="37.38717" lon="-5.98933">
        <ele>17.339475</ele>
        <time>2022-04-11T11:47:22.000Z</time>
      </trkpt>
      <trkpt lat="37.38721" lon="-5.98934">
        <ele>17.369865</ele>
        <time>2022-04-11T11:47:24.000Z</time>
      </trkpt>
      <trkpt lat="37.38723" lon="-5.98939">
        <ele>17.405479</ele>
        <time>2022-04-11T11:47:26.000Z</time>
      </trkpt>
      <trkpt lat="37.38736" lon="-5.98945">
        <ele>17.503092</ele>
        <time>2022-04-11T11:47:31.000Z</time>
      </trkpt>
      <trkpt lat="37.38738" lon="-5.98944">
        <ele>17.524595</ele>
        <time>2022-04-11T11:47:32.000Z</time>
      </trkpt>
      <trkpt lat="37.38751" lon="-5.98951">
        <ele>17.629958</ele>
        <time>2022-04-11T11:47:38.000Z</time>
      </trkpt>
      <trkpt lat="37.38753" lon="-5.98952">
        <ele>17.641305</ele>
        <time>2022-04-11T11:47:39.000Z</time>
      </trkpt>
      <trkpt lat="37.38755" lon="-5.98955">
        <ele>17.668594</ele>
        <time>2022-04-11T11:47:41.000Z</time>
      </trkpt>
      <trkpt lat="37.38758" lon="-5.98956">
        <ele>17.688275</ele>
        <time>2022-04-11T11:47:42.000Z</time>
      </trkpt>
      <trkpt lat="37.38766" lon="-5.98962">
        <ele>17.763099</ele>
        <time>2022-04-11T11:47:44.000Z</time>
      </trkpt>
      <trkpt lat="37.38771" lon="-5.98966">
        <ele>17.8039</ele>
        <time>2022-04-11T11:47:45.000Z</time>
      </trkpt>
      <trkpt lat="37.38785" lon="-5.98965">
        <ele>17.718558</ele>
        <time>2022-04-11T11:47:50.000Z</time>
      </trkpt>
      <trkpt lat="37.38794" lon="-5.98961">
        <ele>17.594548</ele>
        <time>2022-04-11T11:47:54.000Z</time>
      </trkpt>
      <trkpt lat="37.38799" lon="-5.98961">
        <ele>17.527576</ele>
        <time>2022-04-11T11:47:56.000Z</time>
      </trkpt>
      <trkpt lat="37.38804" lon="-5.98964">
        <ele>17.469104</ele>
        <time>2022-04-11T11:47:59.000Z</time>
      </trkpt>
      <trkpt lat="37.38819" lon="-5.98962">
        <ele>17.268635</ele>
        <time>2022-04-11T11:48:04.000Z</time>
      </trkpt>
      <trkpt lat="37.38823" lon="-5.98964">
        <ele>17.221043</ele>
        <time>2022-04-11T11:48:05.000Z</time>
      </trkpt>
      <trkpt lat="37.38826" lon="-5.98964">
        <ele>17.175508</ele>
        <time>2022-04-11T11:48:07.000Z</time>
      </trkpt>
      <trkpt lat="37.38838" lon="-5.98959">
        <ele>17.02057</ele>
        <time>2022-04-11T11:48:11.000Z</time>
      </trkpt>
      <trkpt lat="37.38839" lon="-5.98962">
        <ele>16.986889</ele>
        <time>2022-04-11T11:48:12.000Z</time>
      </trkpt>
      <trkpt lat="37.38841" lon="-5.98959">
        <ele>16.937487</ele>
        <time>2022-04-11T11:48:16.000Z</time>
      </trkpt>
      <trkpt lat="37.38841" lon="-5.98959">
        <ele>16.931169</ele>
        <time>2022-04-11T11:48:17.000Z</time>
      </trkpt>
      <trkpt lat="37.38843" lon="-5.98962">
        <ele>16.891633</ele>
        <time>2022-04-11T11:48:21.000Z</time>
      </trkpt>
      <trkpt lat="37.38844" lon="-5.98963">
        <ele>16.868657</ele>
        <time>2022-04-11T11:48:22.000Z</time>
      </trkpt>
      <trkpt lat="37.3885" lon="-5.98968">
        <ele>16.782506</ele>
        <time>2022-04-11T11:48:25.000Z</time>
      </trkpt>
      <trkpt lat="37.38861" lon="-5.98976">
        <ele>16.630089</ele>
        <time>2022-04-11T11:48:29.000Z</time>
      </trkpt>
      <trkpt lat="37.38863" lon="-5.98978">
        <ele>16.590553</ele>
        <time>2022-04-11T11:48:30.000Z</time>
      </trkpt>
      <trkpt lat="37.38866" lon="-5.98978">
        <ele>16.548266</ele>
        <time>2022-04-11T11:48:31.000Z</time>
      </trkpt>
      <trkpt lat="37.38871" lon="-5.98978">
        <ele>16.481286</ele>
        <time>2022-04-11T11:48:33.000Z</time>
      </trkpt>
      <trkpt lat="37.38884" lon="-5.98985">
        <ele>16.312588</ele>
        <time>2022-04-11T11:48:37.000Z</time>
      </trkpt>
      <trkpt lat="37.38888" lon="-5.98991">
        <ele>16.230477</ele>
        <time>2022-04-11T11:48:40.000Z</time>
      </trkpt>
      <trkpt lat="37.38888" lon="-5.98999">
        <ele>16.152155</ele>
        <time>2022-04-11T11:48:41.000Z</time>
      </trkpt>
      <trkpt lat="37.38893" lon="-5.99004">
        <ele>16.072778</ele>
        <time>2022-04-11T11:48:42.000Z</time>
      </trkpt>
      <trkpt lat="37.38899" lon="-5.99008">
        <ele>15.989207</ele>
        <time>2022-04-11T11:48:44.000Z</time>
      </trkpt>
      <trkpt lat="37.38901" lon="-5.99005">
        <ele>15.952996</ele>
        <time>2022-04-11T11:48:45.000Z</time>
      </trkpt>
      <trkpt lat="37.38903" lon="-5.99005">
        <ele>15.927406</ele>
        <time>2022-04-11T11:48:47.000Z</time>
      </trkpt>
      <trkpt lat="37.3891" lon="-5.99">
        <ele>15.812927</ele>
        <time>2022-04-11T11:48:50.000Z</time>
      </trkpt>
      <trkpt lat="37.38927" lon="-5.98997">
        <ele>15.607267</ele>
        <time>2022-04-11T11:48:53.000Z</time>
      </trkpt>
      <trkpt lat="37.38924" lon="-5.99005">
        <ele>15.562383</ele>
        <time>2022-04-11T11:48:54.000Z</time>
      </trkpt>
      <trkpt lat="37.38927" lon="-5.98993">
        <ele>15.555112</ele>
        <time>2022-04-11T11:48:59.000Z</time>
      </trkpt>
      <trkpt lat="37.3892" lon="-5.98993">
        <ele>15.54993</ele>
        <time>2022-04-11T11:49:00.000Z</time>
      </trkpt>
      <trkpt lat="37.38921" lon="-5.98993">
        <ele>15.549057</ele>
        <time>2022-04-11T11:49:02.000Z</time>
      </trkpt>
      <trkpt lat="37.3892" lon="-5.98995">
        <ele>15.547509</ele>
        <time>2022-04-11T11:49:03.000Z</time>
      </trkpt>
      <trkpt lat="37.38931" lon="-5.99">
        <ele>15.538965</ele>
        <time>2022-04-11T11:49:05.000Z</time>
      </trkpt>
      <trkpt lat="37.38936" lon="-5.99001">
        <ele>15.534986</ele>
        <time>2022-04-11T11:49:07.000Z</time>
      </trkpt>
      <trkpt lat="37.3894" lon="-5.99">
        <ele>15.53204</ele>
        <time>2022-04-11T11:49:09.000Z</time>
      </trkpt>
      <trkpt lat="37.38941" lon="-5.99">
        <ele>15.531148</ele>
        <time>2022-04-11T11:49:13.000Z</time>
      </trkpt>
      <trkpt lat="37.38942" lon="-5.99">
        <ele>15.530612</ele>
        <time>2022-04-11T11:49:14.000Z</time>
      </trkpt>
      <trkpt lat="37.38945" lon="-5.98997">
        <ele>15.527362</ele>
        <time>2022-04-11T11:49:17.000Z</time>
      </trkpt>
      <trkpt lat="37.38952" lon="-5.98998">
        <ele>15.521705</ele>
        <time>2022-04-11T11:49:20.000Z</time>
      </trkpt>
      <trkpt lat="37.38953" lon="-5.98999">
        <ele>15.520813</ele>
        <time>2022-04-11T11:49:21.000Z</time>
      </trkpt>
      <trkpt lat="37.38954" lon="-5.98999">
        <ele>15.520521</ele>
        <time>2022-04-11T11:49:22.000Z</time>
      </trkpt>
      <trkpt lat="37.38956" lon="-5.99001">
        <ele>15.518547</ele>
        <time>2022-04-11T11:49:26.000Z</time>
      </trkpt>
      <trkpt lat="37.3895" lon="-5.99002">
        <ele>15.513716</ele>
        <time>2022-04-11T11:49:30.000Z</time>
      </trkpt>
      <trkpt lat="37.38953" lon="-5.99001">
        <ele>15.5111</ele>
        <time>2022-04-11T11:49:33.000Z</time>
      </trkpt>
      <trkpt lat="37.38966" lon="-5.99009">
        <ele>15.499867</ele>
        <time>2022-04-11T11:49:36.000Z</time>
      </trkpt>
      <trkpt lat="37.38981" lon="-5.99012">
        <ele>15.488713</ele>
        <time>2022-04-11T11:49:40.000Z</time>
      </trkpt>
      <trkpt lat="37.38983" lon="-5.99012">
        <ele>15.487095</ele>
        <time>2022-04-11T11:49:41.000Z</time>
      </trkpt>
      <trkpt lat="37.38985" lon="-5.99014">
        <ele>15.484707</ele>
        <time>2022-04-11T11:49:44.000Z</time>
      </trkpt>
      <trkpt lat="37.38988" lon="-5.99014">
        <ele>15.48256</ele>
        <time>2022-04-11T11:49:47.000Z</time>
      </trkpt>
      <trkpt lat="37.38991" lon="-5.99017">
        <ele>15.47958</ele>
        <time>2022-04-11T11:49:49.000Z</time>
      </trkpt>
      <trkpt lat="37.39" lon="-5.99024">
        <ele>15.471388</ele>
        <time>2022-04-11T11:49:52.000Z</time>
      </trkpt>
      <trkpt lat="37.39007" lon="-5.99023">
        <ele>15.466088</ele>
        <time>2022-04-11T11:49:58.000Z</time>
      </trkpt>
      <trkpt lat="37.39014" lon="-5.99029">
        <ele>15.459988</ele>
        <time>2022-04-11T11:50:02.000Z</time>
      </trkpt>
      <trkpt lat="37.39021" lon="-5.99042">
        <ele>15.450201</ele>
        <time>2022-04-11T11:50:09.000Z</time>
      </trkpt>
      <trkpt lat="37.39022" lon="-5.99046">
        <ele>15.447444</ele>
        <time>2022-04-11T11:50:12.000Z</time>
      </trkpt>
      <trkpt lat="37.39023" lon="-5.99048">
        <ele>15.446163</ele>
        <time>2022-04-11T11:50:14.000Z</time>
      </trkpt>
      <trkpt lat="37.39027" lon="-5.9905">
        <ele>15.443536</ele>
        <time>2022-04-11T11:50:20.000Z</time>
      </trkpt>
      <trkpt lat="37.39028" lon="-5.99051">
        <ele>15.442278</ele>
        <time>2022-04-11T11:50:26.000Z</time>
      </trkpt>
      <trkpt lat="37.39026" lon="-5.99052">
        <ele>15.44066</ele>
        <time>2022-04-11T11:50:31.000Z</time>
      </trkpt>
      <trkpt lat="37.39027" lon="-5.99052">
        <ele>15.440044</ele>
        <time>2022-04-11T11:50:33.000Z</time>
      </trkpt>
      <trkpt lat="37.39026" lon="-5.99052">
        <ele>15.439615</ele>
        <time>2022-04-11T11:50:47.000Z</time>
      </trkpt>
      <trkpt lat="37.39024" lon="-5.99052">
        <ele>15.438013</ele>
        <time>2022-04-11T11:50:50.000Z</time>
      </trkpt>
      <trkpt lat="37.39024" lon="-5.99054">
        <ele>15.436823</ele>
        <time>2022-04-11T11:50:54.000Z</time>
      </trkpt>
      <trkpt lat="37.39023" lon="-5.99055">
        <ele>15.435909</ele>
        <time>2022-04-11T11:50:56.000Z</time>
      </trkpt>
      <trkpt lat="37.39022" lon="-5.99055">
        <ele>15.435288</ele>
        <time>2022-04-11T11:50:57.000Z</time>
      </trkpt>
      <trkpt lat="37.3902" lon="-5.99057">
        <ele>15.433127</ele>
        <time>2022-04-11T11:51:03.000Z</time>
      </trkpt>
      <trkpt lat="37.39019" lon="-5.99058">
        <ele>15.43232</ele>
        <time>2022-04-11T11:51:05.000Z</time>
      </trkpt>
      <trkpt lat="37.39021" lon="-5.99057">
        <ele>15.43075</ele>
        <time>2022-04-11T11:51:08.000Z</time>
      </trkpt>
      <trkpt lat="37.39021" lon="-5.99056">
        <ele>15.430202</ele>
        <time>2022-04-11T11:51:09.000Z</time>
      </trkpt>
      <trkpt lat="37.39022" lon="-5.99056">
        <ele>15.430007</ele>
        <time>2022-04-11T11:51:12.000Z</time>
      </trkpt>
      <trkpt lat="37.39022" lon="-5.99056">
        <ele>15.430007</ele>
        <time>2022-04-11T11:51:19.000Z</time>
      </trkpt>
      <trkpt lat="37.39023" lon="-5.99056">
        <ele>15.42928</ele>
        <time>2022-04-11T11:51:29.000Z</time>
      </trkpt>
      <trkpt lat="37.39024" lon="-5.99055">
        <ele>15.432067</ele>
        <time>2022-04-11T11:51:34.000Z</time>
      </trkpt>
      <trkpt lat="37.39026" lon="-5.99055">
        <ele>15.439762</ele>
        <time>2022-04-11T11:51:38.000Z</time>
      </trkpt>
      <trkpt lat="37.39027" lon="-5.99054">
        <ele>15.448393</ele>
        <time>2022-04-11T11:51:46.000Z</time>
      </trkpt>
      <trkpt lat="37.39027" lon="-5.99054">
        <ele>15.449205</ele>
        <time>2022-04-11T11:51:49.000Z</time>
      </trkpt>
      <trkpt lat="37.39027" lon="-5.99053">
        <ele>15.454296</ele>
        <time>2022-04-11T11:51:55.000Z</time>
      </trkpt>
      <trkpt lat="37.39028" lon="-5.99053">
        <ele>15.45948</ele>
        <time>2022-04-11T11:52:09.000Z</time>
      </trkpt>
      <trkpt lat="37.39029" lon="-5.99053">
        <ele>15.469651</ele>
        <time>2022-04-11T11:52:16.000Z</time>
      </trkpt>
      <trkpt lat="37.39029" lon="-5.99054">
        <ele>15.473741</ele>
        <time>2022-04-11T11:52:30.000Z</time>
      </trkpt>
      <trkpt lat="37.39029" lon="-5.99054">
        <ele>15.475719</ele>
        <time>2022-04-11T11:52:38.000Z</time>
      </trkpt>
      <trkpt lat="37.39026" lon="-5.99055">
        <ele>15.494488</ele>
        <time>2022-04-11T11:52:51.000Z</time>
      </trkpt>
      <trkpt lat="37.39022" lon="-5.99055">
        <ele>15.518833</ele>
        <time>2022-04-11T11:53:06.000Z</time>
      </trkpt>
      <trkpt lat="37.39021" lon="-5.99055">
        <ele>15.529445</ele>
        <time>2022-04-11T11:53:14.000Z</time>
      </trkpt>
      <trkpt lat="37.39021" lon="-5.99055">
        <ele>15.530455</ele>
        <time>2022-04-11T11:53:16.000Z</time>
      </trkpt>
      <trkpt lat="37.39021" lon="-5.99054">
        <ele>15.53197</ele>
        <time>2022-04-11T11:53:20.000Z</time>
      </trkpt>
      <trkpt lat="37.39021" lon="-5.99054">
        <ele>15.532475</ele>
        <time>2022-04-11T11:53:23.000Z</time>
      </trkpt>
      <trkpt lat="37.39023" lon="-5.9905">
        <ele>15.561041</ele>
        <time>2022-04-11T11:53:36.000Z</time>
      </trkpt>
      <trkpt lat="37.39024" lon="-5.99048">
        <ele>15.570548</ele>
        <time>2022-04-11T11:53:39.000Z</time>
      </trkpt>
      <trkpt lat="37.39025" lon="-5.99048">
        <ele>15.575932</ele>
        <time>2022-04-11T11:53:42.000Z</time>
      </trkpt>
      <trkpt lat="37.39027" lon="-5.99046">
        <ele>15.589806</ele>
        <time>2022-04-11T11:53:52.000Z</time>
      </trkpt>
      <trkpt lat="37.39027" lon="-5.99046">
        <ele>15.590441</ele>
        <time>2022-04-11T11:53:57.000Z</time>
      </trkpt>
      <trkpt lat="37.39024" lon="-5.9905">
        <ele>15.613913</ele>
        <time>2022-04-11T11:54:04.000Z</time>
      </trkpt>
      <trkpt lat="37.39023" lon="-5.99051">
        <ele>15.625053</ele>
        <time>2022-04-11T11:54:19.000Z</time>
      </trkpt>
      <trkpt lat="37.39022" lon="-5.99052">
        <ele>15.633393</ele>
        <time>2022-04-11T11:54:20.000Z</time>
      </trkpt>
      <trkpt lat="37.39019" lon="-5.99052">
        <ele>15.648782</ele>
        <time>2022-04-11T11:54:29.000Z</time>
      </trkpt>
      <trkpt lat="37.3902" lon="-5.99052">
        <ele>15.656672</ele>
        <time>2022-04-11T11:54:34.000Z</time>
      </trkpt>
      <trkpt lat="37.39021" lon="-5.99052">
        <ele>15.66052</ele>
        <time>2022-04-11T11:54:41.000Z</time>
      </trkpt>
      <trkpt lat="37.39021" lon="-5.99052">
        <ele>15.66052</ele>
        <time>2022-04-11T11:54:44.000Z</time>
      </trkpt>
      <trkpt lat="37.39021" lon="-5.99052">
        <ele>15.66052</ele>
        <time>2022-04-11T11:54:45.000Z</time>
      </trkpt>
      <trkpt lat="37.39021" lon="-5.99052">
        <ele>15.662035</ele>
        <time>2022-04-11T11:54:50.000Z</time>
      </trkpt>
      <trkpt lat="37.39021" lon="-5.99052">
        <ele>15.66254</ele>
        <time>2022-04-11T11:54:51.000Z</time>
      </trkpt>
      <trkpt lat="37.39022" lon="-5.9905">
        <ele>15.675927</ele>
        <time>2022-04-11T11:54:57.000Z</time>
      </trkpt>
      <trkpt lat="37.39023" lon="-5.99048">
        <ele>15.68518</ele>
        <time>2022-04-11T11:54:59.000Z</time>
      </trkpt>
      <trkpt lat="37.39027" lon="-5.99047">
        <ele>15.714319</ele>
        <time>2022-04-11T11:55:14.000Z</time>
      </trkpt>
      <trkpt lat="37.39027" lon="-5.99047">
        <ele>15.714319</ele>
        <time>2022-04-11T11:55:17.000Z</time>
      </trkpt>
      <trkpt lat="37.39027" lon="-5.99047">
        <ele>15.714824</ele>
        <time>2022-04-11T11:55:22.000Z</time>
      </trkpt>
      <trkpt lat="37.3903" lon="-5.99048">
        <ele>15.734844</ele>
        <time>2022-04-11T11:56:29.000Z</time>
      </trkpt>
      <trkpt lat="37.3903" lon="-5.99048">
        <ele>15.734844</ele>
        <time>2022-04-11T11:56:30.000Z</time>
      </trkpt>
      <trkpt lat="37.3903" lon="-5.99048">
        <ele>15.735349</ele>
        <time>2022-04-11T11:56:32.000Z</time>
      </trkpt>
      <trkpt lat="37.3903" lon="-5.99048">
        <ele>15.735854</ele>
        <time>2022-04-11T11:56:34.000Z</time>
      </trkpt>
      <trkpt lat="37.39029" lon="-5.9905">
        <ele>15.750386</ele>
        <time>2022-04-11T11:56:53.000Z</time>
      </trkpt>
      <trkpt lat="37.39028" lon="-5.9905">
        <ele>15.751021</ele>
        <time>2022-04-11T11:56:55.000Z</time>
      </trkpt>
      <trkpt lat="37.39028" lon="-5.9905">
        <ele>15.753179</ele>
        <time>2022-04-11T11:57:01.000Z</time>
      </trkpt>
      <trkpt lat="37.39028" lon="-5.9905">
        <ele>15.754547</ele>
        <time>2022-04-11T11:57:08.000Z</time>
      </trkpt>
      <trkpt lat="37.39028" lon="-5.9905">
        <ele>15.755052</ele>
        <time>2022-04-11T11:57:09.000Z</time>
      </trkpt>
      <trkpt lat="37.39028" lon="-5.9905">
        <ele>15.755052</ele>
        <time>2022-04-11T11:57:10.000Z</time>
      </trkpt>
      <trkpt lat="37.39027" lon="-5.99055">
        <ele>15.778706</ele>
        <time>2022-04-11T11:57:56.000Z</time>
      </trkpt>
      <trkpt lat="37.39027" lon="-5.99055">
        <ele>15.778706</ele>
        <time>2022-04-11T11:57:59.000Z</time>
      </trkpt>
      <trkpt lat="37.39027" lon="-5.99055">
        <ele>15.779342</ele>
        <time>2022-04-11T11:58:27.000Z</time>
      </trkpt>
      <trkpt lat="37.39026" lon="-5.99055">
        <ele>15.786776</ele>
        <time>2022-04-11T11:58:35.000Z</time>
      </trkpt>
      <trkpt lat="37.39022" lon="-5.99057">
        <ele>15.813917</ele>
        <time>2022-04-11T11:58:49.000Z</time>
      </trkpt>
      <trkpt lat="37.39025" lon="-5.99055">
        <ele>15.836295</ele>
        <time>2022-04-11T11:58:58.000Z</time>
      </trkpt>
      <trkpt lat="37.39026" lon="-5.99055">
        <ele>15.84024</ele>
        <time>2022-04-11T11:59:00.000Z</time>
      </trkpt>
      <trkpt lat="37.39027" lon="-5.99053">
        <ele>15.851817</ele>
        <time>2022-04-11T11:59:12.000Z</time>
      </trkpt>
      <trkpt lat="37.39027" lon="-5.99053">
        <ele>15.851817</ele>
        <time>2022-04-11T11:59:15.000Z</time>
      </trkpt>
      <trkpt lat="37.39028" lon="-5.99053">
        <ele>15.855921</ele>
        <time>2022-04-11T11:59:23.000Z</time>
      </trkpt>
      <trkpt lat="37.39028" lon="-5.99053">
        <ele>15.858357</ele>
        <time>2022-04-11T11:59:28.000Z</time>
      </trkpt>
      <trkpt lat="37.39028" lon="-5.99052">
        <ele>15.863286</ele>
        <time>2022-04-11T11:59:34.000Z</time>
      </trkpt>
      <trkpt lat="37.39027" lon="-5.99051">
        <ele>15.867754</ele>
        <time>2022-04-11T11:59:39.000Z</time>
      </trkpt>
      <trkpt lat="37.39027" lon="-5.99051">
        <ele>15.868764</ele>
        <time>2022-04-11T11:59:44.000Z</time>
      </trkpt>
      <trkpt lat="37.39025" lon="-5.99054">
        <ele>15.89371</ele>
        <time>2022-04-11T12:00:16.000Z</time>
      </trkpt>
      <trkpt lat="37.39018" lon="-5.99059">
        <ele>15.941748</ele>
        <time>2022-04-11T12:00:19.000Z</time>
      </trkpt>
      <trkpt lat="37.39017" lon="-5.9906">
        <ele>15.950456</ele>
        <time>2022-04-11T12:00:34.000Z</time>
      </trkpt>
      <trkpt lat="37.39017" lon="-5.99061">
        <ele>15.956423</ele>
        <time>2022-04-11T12:00:36.000Z</time>
      </trkpt>
      <trkpt lat="37.39019" lon="-5.99063">
        <ele>15.970418</ele>
        <time>2022-04-11T12:00:39.000Z</time>
      </trkpt>
      <trkpt lat="37.39019" lon="-5.99064">
        <ele>15.975817</ele>
        <time>2022-04-11T12:00:40.000Z</time>
      </trkpt>
      <trkpt lat="37.39016" lon="-5.99068">
        <ele>16.003548</ele>
        <time>2022-04-11T12:00:46.000Z</time>
      </trkpt>
      <trkpt lat="37.39016" lon="-5.99068">
        <ele>16.003548</ele>
        <time>2022-04-11T12:00:56.000Z</time>
      </trkpt>
      <trkpt lat="37.39016" lon="-5.99068">
        <ele>16.003548</ele>
        <time>2022-04-11T12:00:57.000Z</time>
      </trkpt>
      <trkpt lat="37.39017" lon="-5.99069">
        <ele>16.00714</ele>
        <time>2022-04-11T12:01:07.000Z</time>
      </trkpt>
      <trkpt lat="37.39016" lon="-5.9907">
        <ele>16.014952</ele>
        <time>2022-04-11T12:01:09.000Z</time>
      </trkpt>
      <trkpt lat="37.39016" lon="-5.99074">
        <ele>16.03365</ele>
        <time>2022-04-11T12:01:14.000Z</time>
      </trkpt>
      <trkpt lat="37.39017" lon="-5.99072">
        <ele>16.045523</ele>
        <time>2022-04-11T12:01:18.000Z</time>
      </trkpt>
      <trkpt lat="37.39019" lon="-5.9907">
        <ele>16.05905</ele>
        <time>2022-04-11T12:01:19.000Z</time>
      </trkpt>
      <trkpt lat="37.3902" lon="-5.99068">
        <ele>16.072292</ele>
        <time>2022-04-11T12:01:23.000Z</time>
      </trkpt>
      <trkpt lat="37.39019" lon="-5.99065">
        <ele>16.084822</ele>
        <time>2022-04-11T12:01:28.000Z</time>
      </trkpt>
      <trkpt lat="37.39021" lon="-5.99062">
        <ele>16.103363</ele>
        <time>2022-04-11T12:01:37.000Z</time>
      </trkpt>
      <trkpt lat="37.39021" lon="-5.99061">
        <ele>16.106393</ele>
        <time>2022-04-11T12:01:38.000Z</time>
      </trkpt>
      <trkpt lat="37.3902" lon="-5.99062">
        <ele>16.110983</ele>
        <time>2022-04-11T12:01:45.000Z</time>
      </trkpt>
      <trkpt lat="37.3902" lon="-5.99062">
        <ele>16.110983</ele>
        <time>2022-04-11T12:01:54.000Z</time>
      </trkpt>
      <trkpt lat="37.3902" lon="-5.99062">
        <ele>16.110983</ele>
        <time>2022-04-11T12:01:59.000Z</time>
      </trkpt>
      <trkpt lat="37.39021" lon="-5.99062">
        <ele>16.111618</ele>
        <time>2022-04-11T12:02:03.000Z</time>
      </trkpt>
      <trkpt lat="37.39021" lon="-5.99062">
        <ele>16.114222</ele>
        <time>2022-04-11T12:02:07.000Z</time>
      </trkpt>
      <trkpt lat="37.39021" lon="-5.99062">
        <ele>16.114222</ele>
        <time>2022-04-11T12:02:11.000Z</time>
      </trkpt>
      <trkpt lat="37.39021" lon="-5.99062">
        <ele>16.114858</ele>
        <time>2022-04-11T12:02:12.000Z</time>
      </trkpt>
      <trkpt lat="37.39021" lon="-5.99062">
        <ele>16.114858</ele>
        <time>2022-04-11T12:02:15.000Z</time>
      </trkpt>
      <trkpt lat="37.39022" lon="-5.99059">
        <ele>16.130824</ele>
        <time>2022-04-11T12:02:20.000Z</time>
      </trkpt>
      <trkpt lat="37.39022" lon="-5.99059">
        <ele>16.130824</ele>
        <time>2022-04-11T12:02:22.000Z</time>
      </trkpt>
      <trkpt lat="37.39022" lon="-5.99059">
        <ele>16.130824</ele>
        <time>2022-04-11T12:02:24.000Z</time>
      </trkpt>
      <trkpt lat="37.39022" lon="-5.99059">
        <ele>16.130824</ele>
        <time>2022-04-11T12:02:27.000Z</time>
      </trkpt>
      <trkpt lat="37.39022" lon="-5.99059">
        <ele>16.130824</ele>
        <time>2022-04-11T12:02:29.000Z</time>
      </trkpt>
      <trkpt lat="37.39021" lon="-5.99055">
        <ele>16.149521</ele>
        <time>2022-04-11T12:02:46.000Z</time>
      </trkpt>
      <trkpt lat="37.39021" lon="-5.99055">
        <ele>16.150531</ele>
        <time>2022-04-11T12:02:50.000Z</time>
      </trkpt>
      <trkpt lat="37.3902" lon="-5.99056">
        <ele>16.15865</ele>
        <time>2022-04-11T12:03:02.000Z</time>
      </trkpt>
      <trkpt lat="37.3902" lon="-5.99057">
        <ele>16.160628</ele>
        <time>2022-04-11T12:03:06.000Z</time>
      </trkpt>
      <trkpt lat="37.3902" lon="-5.99057">
        <ele>16.162648</ele>
        <time>2022-04-11T12:03:10.000Z</time>
      </trkpt>
      <trkpt lat="37.3902" lon="-5.99057">
        <ele>16.163153</ele>
        <time>2022-04-11T12:03:11.000Z</time>
      </trkpt>
      <trkpt lat="37.3902" lon="-5.99058">
        <ele>16.165173</ele>
        <time>2022-04-11T12:03:15.000Z</time>
      </trkpt>
      <trkpt lat="37.3902" lon="-5.99058">
        <ele>16.165173</ele>
        <time>2022-04-11T12:03:16.000Z</time>
      </trkpt>
      <trkpt lat="37.39021" lon="-5.99058">
        <ele>16.167146</ele>
        <time>2022-04-11T12:03:19.000Z</time>
      </trkpt>
      <trkpt lat="37.39022" lon="-5.99059">
        <ele>16.175929</ele>
        <time>2022-04-11T12:03:20.000Z</time>
      </trkpt>
      <trkpt lat="37.39023" lon="-5.99064">
        <ele>16.20247</ele>
        <time>2022-04-11T12:03:22.000Z</time>
      </trkpt>
      <trkpt lat="37.39024" lon="-5.99065">
        <ele>16.212371</ele>
        <time>2022-04-11T12:03:23.000Z</time>
      </trkpt>
      <trkpt lat="37.39025" lon="-5.99069">
        <ele>16.233023</ele>
        <time>2022-04-11T12:03:25.000Z</time>
      </trkpt>
      <trkpt lat="37.39026" lon="-5.99071">
        <ele>16.244579</ele>
        <time>2022-04-11T12:03:26.000Z</time>
      </trkpt>
      <trkpt lat="37.39027" lon="-5.99074">
        <ele>16.259904</ele>
        <time>2022-04-11T12:03:27.000Z</time>
      </trkpt>
      <trkpt lat="37.39031" lon="-5.99081">
        <ele>16.304274</ele>
        <time>2022-04-11T12:03:30.000Z</time>
      </trkpt>
      <trkpt lat="37.39032" lon="-5.99084">
        <ele>16.319899</ele>
        <time>2022-04-11T12:03:31.000Z</time>
      </trkpt>
      <trkpt lat="37.39034" lon="-5.9909">
        <ele>16.351368</ele>
        <time>2022-04-11T12:03:33.000Z</time>
      </trkpt>
      <trkpt lat="37.39035" lon="-5.99092">
        <ele>16.362677</ele>
        <time>2022-04-11T12:03:34.000Z</time>
      </trkpt>
      <trkpt lat="37.39038" lon="-5.99095">
        <ele>16.38812</ele>
        <time>2022-04-11T12:03:36.000Z</time>
      </trkpt>
      <trkpt lat="37.39039" lon="-5.99096">
        <ele>16.39404</ele>
        <time>2022-04-11T12:03:37.000Z</time>
      </trkpt>
      <trkpt lat="37.39038" lon="-5.99099">
        <ele>16.410501</ele>
        <time>2022-04-11T12:03:40.000Z</time>
      </trkpt>
      <trkpt lat="37.39039" lon="-5.99105">
        <ele>16.441423</ele>
        <time>2022-04-11T12:03:43.000Z</time>
      </trkpt>
      <trkpt lat="37.39037" lon="-5.99109">
        <ele>16.463889</ele>
        <time>2022-04-11T12:03:45.000Z</time>
      </trkpt>
      <trkpt lat="37.39036" lon="-5.9911">
        <ele>16.473882</ele>
        <time>2022-04-11T12:03:46.000Z</time>
      </trkpt>
      <trkpt lat="37.39034" lon="-5.9911">
        <ele>16.486843</ele>
        <time>2022-04-11T12:03:48.000Z</time>
      </trkpt>
      <trkpt lat="37.39031" lon="-5.99113">
        <ele>16.510523</ele>
        <time>2022-04-11T12:03:50.000Z</time>
      </trkpt>
      <trkpt lat="37.39024" lon="-5.99112">
        <ele>16.551318</ele>
        <time>2022-04-11T12:03:53.000Z</time>
      </trkpt>
      <trkpt lat="37.39018" lon="-5.99115">
        <ele>16.543019</ele>
        <time>2022-04-11T12:03:56.000Z</time>
      </trkpt>
      <trkpt lat="37.39016" lon="-5.99116">
        <ele>16.526172</ele>
        <time>2022-04-11T12:03:57.000Z</time>
      </trkpt>
      <trkpt lat="37.39014" lon="-5.99116">
        <ele>16.510761</ele>
        <time>2022-04-11T12:03:58.000Z</time>
      </trkpt>
      <trkpt lat="37.39012" lon="-5.99118">
        <ele>16.490595</ele>
        <time>2022-04-11T12:03:59.000Z</time>
      </trkpt>
      <trkpt lat="37.39008" lon="-5.99119">
        <ele>16.45899</ele>
        <time>2022-04-11T12:04:01.000Z</time>
      </trkpt>
      <trkpt lat="37.39007" lon="-5.9912">
        <ele>16.444363</ele>
        <time>2022-04-11T12:04:02.000Z</time>
      </trkpt>
      <trkpt lat="37.38999" lon="-5.99129">
        <ele>16.357646</ele>
        <time>2022-04-11T12:04:07.000Z</time>
      </trkpt>
      <trkpt lat="37.38986" lon="-5.99145">
        <ele>16.207767</ele>
        <time>2022-04-11T12:04:14.000Z</time>
      </trkpt>
      <trkpt lat="37.38986" lon="-5.99148">
        <ele>16.191498</ele>
        <time>2022-04-11T12:04:15.000Z</time>
      </trkpt>
      <trkpt lat="37.38985" lon="-5.9915">
        <ele>16.172769</ele>
        <time>2022-04-11T12:04:17.000Z</time>
      </trkpt>
      <trkpt lat="37.38985" lon="-5.99153">
        <ele>16.158521</ele>
        <time>2022-04-11T12:04:18.000Z</time>
      </trkpt>
      <trkpt lat="37.38985" lon="-5.99157">
        <ele>16.131224</ele>
        <time>2022-04-11T12:04:20.000Z</time>
      </trkpt>
      <trkpt lat="37.38985" lon="-5.99159">
        <ele>16.115433</ele>
        <time>2022-04-11T12:04:21.000Z</time>
      </trkpt>
      <trkpt lat="37.38985" lon="-5.99177">
        <ele>15.998419</ele>
        <time>2022-04-11T12:04:26.000Z</time>
      </trkpt>
      <trkpt lat="37.38981" lon="-5.99195">
        <ele>15.877159</ele>
        <time>2022-04-11T12:04:30.000Z</time>
      </trkpt>
      <trkpt lat="37.38979" lon="-5.99199">
        <ele>15.850143</ele>
        <time>2022-04-11T12:04:31.000Z</time>
      </trkpt>
      <trkpt lat="37.38976" lon="-5.99218">
        <ele>15.720413</ele>
        <time>2022-04-11T12:04:36.000Z</time>
      </trkpt>
      <trkpt lat="37.38976" lon="-5.99222">
        <ele>15.693005</ele>
        <time>2022-04-11T12:04:37.000Z</time>
      </trkpt>
      <trkpt lat="37.38978" lon="-5.99239">
        <ele>15.582473</ele>
        <time>2022-04-11T12:04:42.000Z</time>
      </trkpt>
      <trkpt lat="37.38978" lon="-5.99243">
        <ele>15.558411</ele>
        <time>2022-04-11T12:04:44.000Z</time>
      </trkpt>
      <trkpt lat="37.38977" lon="-5.99247">
        <ele>15.533868</ele>
        <time>2022-04-11T12:04:46.000Z</time>
      </trkpt>
      <trkpt lat="37.38976" lon="-5.99252">
        <ele>15.500081</ele>
        <time>2022-04-11T12:04:48.000Z</time>
      </trkpt>
      <trkpt lat="37.38975" lon="-5.99263">
        <ele>15.424799</ele>
        <time>2022-04-11T12:04:51.000Z</time>
      </trkpt>
      <trkpt lat="37.38975" lon="-5.9927">
        <ele>15.377347</ele>
        <time>2022-04-11T12:04:53.000Z</time>
      </trkpt>
      <trkpt lat="37.38976" lon="-5.99277">
        <ele>15.33555</ele>
        <time>2022-04-11T12:04:55.000Z</time>
      </trkpt>
      <trkpt lat="37.38974" lon="-5.99292">
        <ele>15.233604</ele>
        <time>2022-04-11T12:04:59.000Z</time>
      </trkpt>
      <trkpt lat="37.38974" lon="-5.99299">
        <ele>15.191287</ele>
        <time>2022-04-11T12:05:01.000Z</time>
      </trkpt>
      <trkpt lat="37.38974" lon="-5.99305">
        <ele>15.151641</ele>
        <time>2022-04-11T12:05:03.000Z</time>
      </trkpt>
      <trkpt lat="37.38971" lon="-5.9931">
        <ele>15.110919</ele>
        <time>2022-04-11T12:05:05.000Z</time>
      </trkpt>
      <trkpt lat="37.3897" lon="-5.99312">
        <ele>15.103285</ele>
        <time>2022-04-11T12:05:06.000Z</time>
      </trkpt>
      <trkpt lat="37.38967" lon="-5.99315">
        <ele>15.12391</ele>
        <time>2022-04-11T12:05:08.000Z</time>
      </trkpt>
      <trkpt lat="37.38962" lon="-5.99316">
        <ele>15.150239</ele>
        <time>2022-04-11T12:05:10.000Z</time>
      </trkpt>
      <trkpt lat="37.38952" lon="-5.99322">
        <ele>15.203511</ele>
        <time>2022-04-11T12:05:15.000Z</time>
      </trkpt>
      <trkpt lat="37.38949" lon="-5.99321">
        <ele>15.218618</ele>
        <time>2022-04-11T12:05:19.000Z</time>
      </trkpt>
      <trkpt lat="37.38949" lon="-5.99321">
        <ele>15.220255</ele>
        <time>2022-04-11T12:05:24.000Z</time>
      </trkpt>
      <trkpt lat="37.3895" lon="-5.99321">
        <ele>15.222742</ele>
        <time>2022-04-11T12:05:25.000Z</time>
      </trkpt>
      <trkpt lat="37.3895" lon="-5.9932">
        <ele>15.228402</ele>
        <time>2022-04-11T12:05:30.000Z</time>
      </trkpt>
      <trkpt lat="37.3895" lon="-5.99319">
        <ele>15.231676</ele>
        <time>2022-04-11T12:05:36.000Z</time>
      </trkpt>
      <trkpt lat="37.38953" lon="-5.99318">
        <ele>15.247499</ele>
        <time>2022-04-11T12:05:41.000Z</time>
      </trkpt>
      <trkpt lat="37.38959" lon="-5.99318">
        <ele>15.277041</ele>
        <time>2022-04-11T12:05:47.000Z</time>
      </trkpt>
      <trkpt lat="37.3896" lon="-5.99315">
        <ele>15.2872</ele>
        <time>2022-04-11T12:05:53.000Z</time>
      </trkpt>
      <trkpt lat="37.38963" lon="-5.99312">
        <ele>15.309789</ele>
        <time>2022-04-11T12:05:55.000Z</time>
      </trkpt>
      <trkpt lat="37.38964" lon="-5.99311">
        <ele>15.313598</ele>
        <time>2022-04-11T12:05:57.000Z</time>
      </trkpt>
      <trkpt lat="37.38958" lon="-5.99318">
        <ele>15.354951</ele>
        <time>2022-04-11T12:05:59.000Z</time>
      </trkpt>
      <trkpt lat="37.38952" lon="-5.99323">
        <ele>15.390089</ele>
        <time>2022-04-11T12:06:01.000Z</time>
      </trkpt>
      <trkpt lat="37.38952" lon="-5.99322">
        <ele>15.394023</ele>
        <time>2022-04-11T12:06:05.000Z</time>
      </trkpt>
      <trkpt lat="37.38949" lon="-5.99321">
        <ele>15.405083</ele>
        <time>2022-04-11T12:06:12.000Z</time>
      </trkpt>
      <trkpt lat="37.38947" lon="-5.99323">
        <ele>15.417023</ele>
        <time>2022-04-11T12:06:15.000Z</time>
      </trkpt>
      <trkpt lat="37.38947" lon="-5.99325">
        <ele>15.427217</ele>
        <time>2022-04-11T12:06:16.000Z</time>
      </trkpt>
      <trkpt lat="37.38934" lon="-5.99339">
        <ele>15.510204</ele>
        <time>2022-04-11T12:06:21.000Z</time>
      </trkpt>
      <trkpt lat="37.38931" lon="-5.99339">
        <ele>15.527894</ele>
        <time>2022-04-11T12:06:22.000Z</time>
      </trkpt>
      <trkpt lat="37.38916" lon="-5.99337">
        <ele>15.597795</ele>
        <time>2022-04-11T12:06:27.000Z</time>
      </trkpt>
      <trkpt lat="37.38906" lon="-5.99336">
        <ele>15.649433</ele>
        <time>2022-04-11T12:06:30.000Z</time>
      </trkpt>
      <trkpt lat="37.38904" lon="-5.99337">
        <ele>15.661981</ele>
        <time>2022-04-11T12:06:31.000Z</time>
      </trkpt>
      <trkpt lat="37.38892" lon="-5.99347">
        <ele>15.731837</ele>
        <time>2022-04-11T12:06:38.000Z</time>
      </trkpt>
      <trkpt lat="37.38891" lon="-5.99345">
        <ele>15.73888</ele>
        <time>2022-04-11T12:06:39.000Z</time>
      </trkpt>
      <trkpt lat="37.38881" lon="-5.99331">
        <ele>15.814146</ele>
        <time>2022-04-11T12:06:44.000Z</time>
      </trkpt>
      <trkpt lat="37.38865" lon="-5.99319">
        <ele>15.904402</ele>
        <time>2022-04-11T12:06:49.000Z</time>
      </trkpt>
      <trkpt lat="37.38861" lon="-5.99316">
        <ele>15.929949</ele>
        <time>2022-04-11T12:06:51.000Z</time>
      </trkpt>
      <trkpt lat="37.38848" lon="-5.9931">
        <ele>15.965576</ele>
        <time>2022-04-11T12:06:55.000Z</time>
      </trkpt>
      <trkpt lat="37.38835" lon="-5.99318">
        <ele>15.859927</ele>
        <time>2022-04-11T12:07:01.000Z</time>
      </trkpt>
      <trkpt lat="37.38789" lon="-5.99317">
        <ele>15.524231</ele>
        <time>2022-04-11T12:07:19.000Z</time>
      </trkpt>
      <trkpt lat="37.38761" lon="-5.99304">
        <ele>15.30916</ele>
        <time>2022-04-11T12:07:24.000Z</time>
      </trkpt>
      <trkpt lat="37.38763" lon="-5.99301">
        <ele>15.284985</ele>
        <time>2022-04-11T12:07:26.000Z</time>
      </trkpt>
      <trkpt lat="37.38761" lon="-5.99304">
        <ele>15.261327</ele>
        <time>2022-04-11T12:07:29.000Z</time>
      </trkpt>
      <trkpt lat="37.38758" lon="-5.99306">
        <ele>15.238081</ele>
        <time>2022-04-11T12:07:30.000Z</time>
      </trkpt>
      <trkpt lat="37.38745" lon="-5.99316">
        <ele>15.126472</ele>
        <time>2022-04-11T12:07:33.000Z</time>
      </trkpt>
      <trkpt lat="37.38737" lon="-5.99323">
        <ele>15.05421</ele>
        <time>2022-04-11T12:07:39.000Z</time>
      </trkpt>
      <trkpt lat="37.38726" lon="-5.99316">
        <ele>14.965564</ele>
        <time>2022-04-11T12:07:43.000Z</time>
      </trkpt>
      <trkpt lat="37.38714" lon="-5.9932">
        <ele>14.87467</ele>
        <time>2022-04-11T12:07:46.000Z</time>
      </trkpt>
      <trkpt lat="37.38712" lon="-5.9932">
        <ele>14.857959</ele>
        <time>2022-04-11T12:07:47.000Z</time>
      </trkpt>
      <trkpt lat="37.38712" lon="-5.99305">
        <ele>14.771218</ele>
        <time>2022-04-11T12:07:51.000Z</time>
      </trkpt>
      <trkpt lat="37.3871" lon="-5.99303">
        <ele>14.749931</ele>
        <time>2022-04-11T12:07:53.000Z</time>
      </trkpt>
      <trkpt lat="37.38708" lon="-5.99304">
        <ele>14.736573</ele>
        <time>2022-04-11T12:07:54.000Z</time>
      </trkpt>
      <trkpt lat="37.38705" lon="-5.99307">
        <ele>14.707497</ele>
        <time>2022-04-11T12:07:56.000Z</time>
      </trkpt>
      <trkpt lat="37.38702" lon="-5.99307">
        <ele>14.688598</ele>
        <time>2022-04-11T12:07:58.000Z</time>
      </trkpt>
      <trkpt lat="37.38695" lon="-5.99308">
        <ele>14.62665</ele>
        <time>2022-04-11T12:08:02.000Z</time>
      </trkpt>
      <trkpt lat="37.38694" lon="-5.99309">
        <ele>14.61304</ele>
        <time>2022-04-11T12:08:05.000Z</time>
      </trkpt>
      <trkpt lat="37.3869" lon="-5.99306">
        <ele>14.566907</ele>
        <time>2022-04-11T12:08:08.000Z</time>
      </trkpt>
      <trkpt lat="37.38688" lon="-5.99304">
        <ele>14.542183</ele>
        <time>2022-04-11T12:08:10.000Z</time>
      </trkpt>
      <trkpt lat="37.38687" lon="-5.99303">
        <ele>14.528754</ele>
        <time>2022-04-11T12:08:11.000Z</time>
      </trkpt>
      <trkpt lat="37.38683" lon="-5.99304">
        <ele>14.489261</ele>
        <time>2022-04-11T12:08:14.000Z</time>
      </trkpt>
      <trkpt lat="37.38679" lon="-5.99306">
        <ele>14.447945</ele>
        <time>2022-04-11T12:08:17.000Z</time>
      </trkpt>
      <trkpt lat="37.38678" lon="-5.99306">
        <ele>14.442614</ele>
        <time>2022-04-11T12:08:18.000Z</time>
      </trkpt>
      <trkpt lat="37.38676" lon="-5.99304">
        <ele>14.415802</ele>
        <time>2022-04-11T12:08:23.000Z</time>
      </trkpt>
      <trkpt lat="37.38675" lon="-5.99305">
        <ele>14.404269</ele>
        <time>2022-04-11T12:08:24.000Z</time>
      </trkpt>
      <trkpt lat="37.38676" lon="-5.99308">
        <ele>14.387498</ele>
        <time>2022-04-11T12:08:25.000Z</time>
      </trkpt>
      <trkpt lat="37.38675" lon="-5.99311">
        <ele>14.361673</ele>
        <time>2022-04-11T12:08:27.000Z</time>
      </trkpt>
      <trkpt lat="37.38674" lon="-5.99315">
        <ele>14.325362</ele>
        <time>2022-04-11T12:08:29.000Z</time>
      </trkpt>
      <trkpt lat="37.38673" lon="-5.99334">
        <ele>14.187059</ele>
        <time>2022-04-11T12:08:36.000Z</time>
      </trkpt>
      <trkpt lat="37.3867" lon="-5.99356">
        <ele>14.014576</ele>
        <time>2022-04-11T12:08:43.000Z</time>
      </trkpt>
      <trkpt lat="37.3867" lon="-5.99364">
        <ele>13.960404</ele>
        <time>2022-04-11T12:08:46.000Z</time>
      </trkpt>
      <trkpt lat="37.3867" lon="-5.99368">
        <ele>13.925378</ele>
        <time>2022-04-11T12:08:49.000Z</time>
      </trkpt>
      <trkpt lat="37.38668" lon="-5.99376">
        <ele>13.863618</ele>
        <time>2022-04-11T12:08:55.000Z</time>
      </trkpt>
      <trkpt lat="37.38669" lon="-5.99378">
        <ele>13.851996</ele>
        <time>2022-04-11T12:08:56.000Z</time>
      </trkpt>
      <trkpt lat="37.38668" lon="-5.99392">
        <ele>13.743032</ele>
        <time>2022-04-11T12:09:03.000Z</time>
      </trkpt>
      <trkpt lat="37.38669" lon="-5.99394">
        <ele>13.73141</ele>
        <time>2022-04-11T12:09:04.000Z</time>
      </trkpt>
      <trkpt lat="37.38669" lon="-5.99395">
        <ele>13.723159</ele>
        <time>2022-04-11T12:09:05.000Z</time>
      </trkpt>
      <trkpt lat="37.3867" lon="-5.99396">
        <ele>13.71198</ele>
        <time>2022-04-11T12:09:07.000Z</time>
      </trkpt>
      <trkpt lat="37.38671" lon="-5.99401">
        <ele>13.675655</ele>
        <time>2022-04-11T12:09:12.000Z</time>
      </trkpt>
      <trkpt lat="37.38672" lon="-5.99404">
        <ele>13.649741</ele>
        <time>2022-04-11T12:09:16.000Z</time>
      </trkpt>
      <trkpt lat="37.38674" lon="-5.99405">
        <ele>13.630271</ele>
        <time>2022-04-11T12:09:22.000Z</time>
      </trkpt>
      <trkpt lat="37.38674" lon="-5.99406">
        <ele>13.623443</ele>
        <time>2022-04-11T12:09:25.000Z</time>
      </trkpt>
      <trkpt lat="37.38674" lon="-5.99406">
        <ele>13.616341</ele>
        <time>2022-04-11T12:09:31.000Z</time>
      </trkpt>
      <trkpt lat="37.38679" lon="-5.99408">
        <ele>13.566842</ele>
        <time>2022-04-11T12:09:38.000Z</time>
      </trkpt>
      <trkpt lat="37.38679" lon="-5.99406">
        <ele>13.547307</ele>
        <time>2022-04-11T12:09:51.000Z</time>
      </trkpt>
      <trkpt lat="37.38677" lon="-5.99407">
        <ele>13.533936</ele>
        <time>2022-04-11T12:10:20.000Z</time>
      </trkpt>
      <trkpt lat="37.38676" lon="-5.99407">
        <ele>13.523292</ele>
        <time>2022-04-11T12:10:22.000Z</time>
      </trkpt>
      <trkpt lat="37.38669" lon="-5.99412">
        <ele>13.444338</ele>
        <time>2022-04-11T12:10:26.000Z</time>
      </trkpt>
      <trkpt lat="37.38662" lon="-5.99426">
        <ele>13.320489</ele>
        <time>2022-04-11T12:10:31.000Z</time>
      </trkpt>
      <trkpt lat="37.38662" lon="-5.99428">
        <ele>13.301681</ele>
        <time>2022-04-11T12:10:32.000Z</time>
      </trkpt>
      <trkpt lat="37.3866" lon="-5.99437">
        <ele>13.236457</ele>
        <time>2022-04-11T12:10:35.000Z</time>
      </trkpt>
      <trkpt lat="37.3866" lon="-5.99442">
        <ele>13.19772</ele>
        <time>2022-04-11T12:10:37.000Z</time>
      </trkpt>
      <trkpt lat="37.3866" lon="-5.99444">
        <ele>13.178184</ele>
        <time>2022-04-11T12:10:38.000Z</time>
      </trkpt>
      <trkpt lat="37.38659" lon="-5.99447">
        <ele>13.157125</ele>
        <time>2022-04-11T12:10:39.000Z</time>
      </trkpt>
      <trkpt lat="37.38659" lon="-5.9945">
        <ele>13.133348</ele>
        <time>2022-04-11T12:10:40.000Z</time>
      </trkpt>
      <trkpt lat="37.3866" lon="-5.99458">
        <ele>13.073301</ele>
        <time>2022-04-11T12:10:43.000Z</time>
      </trkpt>
      <trkpt lat="37.3866" lon="-5.9946">
        <ele>13.054517</ele>
        <time>2022-04-11T12:10:44.000Z</time>
      </trkpt>
      <trkpt lat="37.38657" lon="-5.99472">
        <ele>12.982455</ele>
        <time>2022-04-11T12:10:48.000Z</time>
      </trkpt>
      <trkpt lat="37.38654" lon="-5.99481">
        <ele>13.014448</ele>
        <time>2022-04-11T12:10:51.000Z</time>
      </trkpt>
      <trkpt lat="37.3865" lon="-5.99489">
        <ele>13.045971</ele>
        <time>2022-04-11T12:10:54.000Z</time>
      </trkpt>
      <trkpt lat="37.3865" lon="-5.99496">
        <ele>13.070616</ele>
        <time>2022-04-11T12:10:56.000Z</time>
      </trkpt>
      <trkpt lat="37.38651" lon="-5.99511">
        <ele>13.119965</ele>
        <time>2022-04-11T12:11:00.000Z</time>
      </trkpt>
      <trkpt lat="37.3865" lon="-5.99519">
        <ele>13.148022</ele>
        <time>2022-04-11T12:11:02.000Z</time>
      </trkpt>
      <trkpt lat="37.38646" lon="-5.99536">
        <ele>13.209256</ele>
        <time>2022-04-11T12:11:06.000Z</time>
      </trkpt>
      <trkpt lat="37.38643" lon="-5.99543">
        <ele>13.233317</ele>
        <time>2022-04-11T12:11:08.000Z</time>
      </trkpt>
      <trkpt lat="37.38639" lon="-5.99554">
        <ele>13.276052</ele>
        <time>2022-04-11T12:11:12.000Z</time>
      </trkpt>
      <trkpt lat="37.38634" lon="-5.99568">
        <ele>13.325911</ele>
        <time>2022-04-11T12:11:16.000Z</time>
      </trkpt>
      <trkpt lat="37.38632" lon="-5.99578">
        <ele>13.362774</ele>
        <time>2022-04-11T12:11:19.000Z</time>
      </trkpt>
      <trkpt lat="37.38629" lon="-5.99588">
        <ele>13.397893</ele>
        <time>2022-04-11T12:11:22.000Z</time>
      </trkpt>
      <trkpt lat="37.38628" lon="-5.9959">
        <ele>13.408771</ele>
        <time>2022-04-11T12:11:23.000Z</time>
      </trkpt>
      <trkpt lat="37.38625" lon="-5.99604">
        <ele>13.457584</ele>
        <time>2022-04-11T12:11:29.000Z</time>
      </trkpt>
      <trkpt lat="37.38623" lon="-5.99608">
        <ele>13.472448</ele>
        <time>2022-04-11T12:11:32.000Z</time>
      </trkpt>
      <trkpt lat="37.38621" lon="-5.99613">
        <ele>13.49142</ele>
        <time>2022-04-11T12:11:34.000Z</time>
      </trkpt>
      <trkpt lat="37.38623" lon="-5.99623">
        <ele>13.525356</ele>
        <time>2022-04-11T12:11:37.000Z</time>
      </trkpt>
      <trkpt lat="37.3863" lon="-5.9964">
        <ele>13.590875</ele>
        <time>2022-04-11T12:11:43.000Z</time>
      </trkpt>
      <trkpt lat="37.38632" lon="-5.99648">
        <ele>13.619036</ele>
        <time>2022-04-11T12:11:47.000Z</time>
      </trkpt>
      <trkpt lat="37.38632" lon="-5.9965">
        <ele>13.624524</ele>
        <time>2022-04-11T12:11:48.000Z</time>
      </trkpt>
      <trkpt lat="37.38629" lon="-5.99654">
        <ele>13.641961</ele>
        <time>2022-04-11T12:11:50.000Z</time>
      </trkpt>
      <trkpt lat="37.38625" lon="-5.99659">
        <ele>13.666203</ele>
        <time>2022-04-11T12:11:52.000Z</time>
      </trkpt>
      <trkpt lat="37.38624" lon="-5.99662">
        <ele>13.678589</ele>
        <time>2022-04-11T12:11:53.000Z</time>
      </trkpt>
      <trkpt lat="37.38617" lon="-5.9967">
        <ele>13.718039</ele>
        <time>2022-04-11T12:11:56.000Z</time>
      </trkpt>
      <trkpt lat="37.38603" lon="-5.99686">
        <ele>13.825126</ele>
        <time>2022-04-11T12:12:01.000Z</time>
      </trkpt>
      <trkpt lat="37.38586" lon="-5.99711">
        <ele>13.983522</ele>
        <time>2022-04-11T12:12:08.000Z</time>
      </trkpt>
      <trkpt lat="37.38574" lon="-5.99734">
        <ele>14.120245</ele>
        <time>2022-04-11T12:12:13.000Z</time>
      </trkpt>
      <trkpt lat="37.3857" lon="-5.99744">
        <ele>14.173749</ele>
        <time>2022-04-11T12:12:15.000Z</time>
      </trkpt>
      <trkpt lat="37.38565" lon="-5.99751">
        <ele>14.221217</ele>
        <time>2022-04-11T12:12:17.000Z</time>
      </trkpt>
      <trkpt lat="37.38559" lon="-5.99759">
        <ele>14.276995</ele>
        <time>2022-04-11T12:12:19.000Z</time>
      </trkpt>
      <trkpt lat="37.38556" lon="-5.99762">
        <ele>14.2994</ele>
        <time>2022-04-11T12:12:20.000Z</time>
      </trkpt>
      <trkpt lat="37.38548" lon="-5.99776">
        <ele>14.386678</ele>
        <time>2022-04-11T12:12:24.000Z</time>
      </trkpt>
      <trkpt lat="37.38535" lon="-5.99804">
        <ele>14.544837</ele>
        <time>2022-04-11T12:12:31.000Z</time>
      </trkpt>
      <trkpt lat="37.38526" lon="-5.99824">
        <ele>14.656279</ele>
        <time>2022-04-11T12:12:37.000Z</time>
      </trkpt>
      <trkpt lat="37.38525" lon="-5.99826">
        <ele>14.67046</ele>
        <time>2022-04-11T12:12:38.000Z</time>
      </trkpt>
      <trkpt lat="37.38516" lon="-5.99847">
        <ele>14.784699</ele>
        <time>2022-04-11T12:12:45.000Z</time>
      </trkpt>
      <trkpt lat="37.38514" lon="-5.99853">
        <ele>14.818115</ele>
        <time>2022-04-11T12:12:47.000Z</time>
      </trkpt>
      <trkpt lat="37.38511" lon="-5.99863">
        <ele>14.857544</ele>
        <time>2022-04-11T12:12:51.000Z</time>
      </trkpt>
      <trkpt lat="37.38511" lon="-5.99866">
        <ele>14.86135</ele>
        <time>2022-04-11T12:12:52.000Z</time>
      </trkpt>
      <trkpt lat="37.38524" lon="-5.99882">
        <ele>14.894618</ele>
        <time>2022-04-11T12:12:58.000Z</time>
      </trkpt>
      <trkpt lat="37.38542" lon="-5.99897">
        <ele>14.933665</ele>
        <time>2022-04-11T12:13:04.000Z</time>
      </trkpt>
      <trkpt lat="37.38551" lon="-5.99909">
        <ele>14.958303</ele>
        <time>2022-04-11T12:13:09.000Z</time>
      </trkpt>
      <trkpt lat="37.3856" lon="-5.99921">
        <ele>14.98193</ele>
        <time>2022-04-11T12:13:13.000Z</time>
      </trkpt>
      <trkpt lat="37.38571" lon="-5.99933">
        <ele>15.008105</ele>
        <time>2022-04-11T12:13:17.000Z</time>
      </trkpt>
      <trkpt lat="37.38599" lon="-5.99962">
        <ele>15.075139</ele>
        <time>2022-04-11T12:13:28.000Z</time>
      </trkpt>
      <trkpt lat="37.38618" lon="-5.99982">
        <ele>15.120719</ele>
        <time>2022-04-11T12:13:35.000Z</time>
      </trkpt>
      <trkpt lat="37.38621" lon="-5.99986">
        <ele>15.127838</ele>
        <time>2022-04-11T12:13:36.000Z</time>
      </trkpt>
      <trkpt lat="37.38645" lon="-6.00011">
        <ele>15.195254</ele>
        <time>2022-04-11T12:13:45.000Z</time>
      </trkpt>
      <trkpt lat="37.38649" lon="-6.00015">
        <ele>15.216228</ele>
        <time>2022-04-11T12:13:46.000Z</time>
      </trkpt>
      <trkpt lat="37.38654" lon="-6.00017">
        <ele>15.242499</ele>
        <time>2022-04-11T12:13:48.000Z</time>
      </trkpt>
      <trkpt lat="37.38656" lon="-6.00017">
        <ele>15.253481</ele>
        <time>2022-04-11T12:13:49.000Z</time>
      </trkpt>
      <trkpt lat="37.38665" lon="-6.00016">
        <ele>15.297512</ele>
        <time>2022-04-11T12:13:52.000Z</time>
      </trkpt>
      <trkpt lat="37.38667" lon="-6.00018">
        <ele>15.310289</ele>
        <time>2022-04-11T12:13:53.000Z</time>
      </trkpt>
      <trkpt lat="37.38669" lon="-6.00022">
        <ele>15.327855</ele>
        <time>2022-04-11T12:13:54.000Z</time>
      </trkpt>
      <trkpt lat="37.3867" lon="-6.0003">
        <ele>15.36166</ele>
        <time>2022-04-11T12:13:56.000Z</time>
      </trkpt>
      <trkpt lat="37.3867" lon="-6.00036">
        <ele>15.383452</ele>
        <time>2022-04-11T12:13:57.000Z</time>
      </trkpt>
      <trkpt lat="37.38675" lon="-6.00042">
        <ele>15.415462</ele>
        <time>2022-04-11T12:13:59.000Z</time>
      </trkpt>
      <trkpt lat="37.38686" lon="-6.00056">
        <ele>15.492622</ele>
        <time>2022-04-11T12:14:03.000Z</time>
      </trkpt>
      <trkpt lat="37.38694" lon="-6.00067">
        <ele>15.552168</ele>
        <time>2022-04-11T12:14:06.000Z</time>
      </trkpt>
      <trkpt lat="37.38701" lon="-6.00072">
        <ele>15.592362</ele>
        <time>2022-04-11T12:14:08.000Z</time>
      </trkpt>
      <trkpt lat="37.38709" lon="-6.00077">
        <ele>15.635607</ele>
        <time>2022-04-11T12:14:10.000Z</time>
      </trkpt>
      <trkpt lat="37.38725" lon="-6.00095">
        <ele>15.744369</ele>
        <time>2022-04-11T12:14:15.000Z</time>
      </trkpt>
      <trkpt lat="37.38731" lon="-6.00102">
        <ele>15.78204</ele>
        <time>2022-04-11T12:14:17.000Z</time>
      </trkpt>
      <trkpt lat="37.38736" lon="-6.00109">
        <ele>15.821384</ele>
        <time>2022-04-11T12:14:20.000Z</time>
      </trkpt>
      <trkpt lat="37.38738" lon="-6.00112">
        <ele>15.837079</ele>
        <time>2022-04-11T12:14:22.000Z</time>
      </trkpt>
      <trkpt lat="37.38739" lon="-6.00114">
        <ele>15.843848</ele>
        <time>2022-04-11T12:14:26.000Z</time>
      </trkpt>
      <trkpt lat="37.3874" lon="-6.00113">
        <ele>15.849074</ele>
        <time>2022-04-11T12:14:30.000Z</time>
      </trkpt>
      <trkpt lat="37.3874" lon="-6.00113">
        <ele>15.85105</ele>
        <time>2022-04-11T12:14:34.000Z</time>
      </trkpt>
      <trkpt lat="37.38742" lon="-6.00113">
        <ele>15.860445</ele>
        <time>2022-04-11T12:14:42.000Z</time>
      </trkpt>
      <trkpt lat="37.38742" lon="-6.00114">
        <ele>15.865083</ele>
        <time>2022-04-11T12:14:51.000Z</time>
      </trkpt>
      <trkpt lat="37.38742" lon="-6.00114">
        <ele>15.865714</ele>
        <time>2022-04-11T12:14:59.000Z</time>
      </trkpt>
      <trkpt lat="37.38737" lon="-6.0012">
        <ele>15.901294</ele>
        <time>2022-04-11T12:15:02.000Z</time>
      </trkpt>
      <trkpt lat="37.38733" lon="-6.00124">
        <ele>15.924388</ele>
        <time>2022-04-11T12:15:06.000Z</time>
      </trkpt>
      <trkpt lat="37.38733" lon="-6.00126">
        <ele>15.930841</ele>
        <time>2022-04-11T12:15:11.000Z</time>
      </trkpt>
      <trkpt lat="37.38732" lon="-6.00127">
        <ele>15.939824</ele>
        <time>2022-04-11T12:15:21.000Z</time>
      </trkpt>
      <trkpt lat="37.38732" lon="-6.00127">
        <ele>15.940318</ele>
        <time>2022-04-11T12:15:34.000Z</time>
      </trkpt>
      <trkpt lat="37.38731" lon="-6.00129">
        <ele>15.949845</ele>
        <time>2022-04-11T12:15:45.000Z</time>
      </trkpt>
      <trkpt lat="37.38731" lon="-6.00128">
        <ele>15.954581</ele>
        <time>2022-04-11T12:16:08.000Z</time>
      </trkpt>
      <trkpt lat="37.38731" lon="-6.00128">
        <ele>15.957364</ele>
        <time>2022-04-11T12:16:15.000Z</time>
      </trkpt>
      <trkpt lat="37.3873" lon="-6.00129">
        <ele>15.966198</ele>
        <time>2022-04-11T12:16:21.000Z</time>
      </trkpt>
      <trkpt lat="37.38726" lon="-6.00132">
        <ele>15.985911</ele>
        <time>2022-04-11T12:16:23.000Z</time>
      </trkpt>
      <trkpt lat="37.38716" lon="-6.00147">
        <ele>16.064327</ele>
        <time>2022-04-11T12:16:31.000Z</time>
      </trkpt>
      <trkpt lat="37.38716" lon="-6.00149">
        <ele>16.063028</ele>
        <time>2022-04-11T12:16:32.000Z</time>
      </trkpt>
      <trkpt lat="37.38717" lon="-6.00153">
        <ele>16.003694</ele>
        <time>2022-04-11T12:16:35.000Z</time>
      </trkpt>
      <trkpt lat="37.38717" lon="-6.00154">
        <ele>15.997374</ele>
        <time>2022-04-11T12:16:36.000Z</time>
      </trkpt>
      <trkpt lat="37.38716" lon="-6.00155">
        <ele>15.979172</ele>
        <time>2022-04-11T12:16:41.000Z</time>
      </trkpt>
      <trkpt lat="37.38716" lon="-6.00154">
        <ele>15.97538</ele>
        <time>2022-04-11T12:16:59.000Z</time>
      </trkpt>
      <trkpt lat="37.38716" lon="-6.00155">
        <ele>15.967973</ele>
        <time>2022-04-11T12:17:05.000Z</time>
      </trkpt>
      <trkpt lat="37.38718" lon="-6.0016">
        <ele>15.897439</ele>
        <time>2022-04-11T12:17:08.000Z</time>
      </trkpt>
      <trkpt lat="37.3872" lon="-6.00167">
        <ele>15.803713</ele>
        <time>2022-04-11T12:17:11.000Z</time>
      </trkpt>
      <trkpt lat="37.38718" lon="-6.00172">
        <ele>15.739617</ele>
        <time>2022-04-11T12:17:13.000Z</time>
      </trkpt>
      <trkpt lat="37.38718" lon="-6.00174">
        <ele>15.709282</ele>
        <time>2022-04-11T12:17:14.000Z</time>
      </trkpt>
      <trkpt lat="37.38721" lon="-6.00181">
        <ele>15.615829</ele>
        <time>2022-04-11T12:17:17.000Z</time>
      </trkpt>
      <trkpt lat="37.38725" lon="-6.00185">
        <ele>15.525582</ele>
        <time>2022-04-11T12:17:20.000Z</time>
      </trkpt>
      <trkpt lat="37.38731" lon="-6.00194">
        <ele>15.383603</ele>
        <time>2022-04-11T12:17:23.000Z</time>
      </trkpt>
      <trkpt lat="37.38737" lon="-6.00202">
        <ele>15.249961</ele>
        <time>2022-04-11T12:17:25.000Z</time>
      </trkpt>
      <trkpt lat="37.38745" lon="-6.00212">
        <ele>15.063651</ele>
        <time>2022-04-11T12:17:28.000Z</time>
      </trkpt>
      <trkpt lat="37.38758" lon="-6.00227">
        <ele>14.784256</ele>
        <time>2022-04-11T12:17:32.000Z</time>
      </trkpt>
      <trkpt lat="37.38763" lon="-6.00235">
        <ele>14.65254</ele>
        <time>2022-04-11T12:17:34.000Z</time>
      </trkpt>
      <trkpt lat="37.38773" lon="-6.00254">
        <ele>14.368525</ele>
        <time>2022-04-11T12:17:39.000Z</time>
      </trkpt>
      <trkpt lat="37.38772" lon="-6.00258">
        <ele>14.322907</ele>
        <time>2022-04-11T12:17:40.000Z</time>
      </trkpt>
      <trkpt lat="37.38767" lon="-6.0027">
        <ele>14.151254</ele>
        <time>2022-04-11T12:17:43.000Z</time>
      </trkpt>
      <trkpt lat="37.38763" lon="-6.0028">
        <ele>14.001215</ele>
        <time>2022-04-11T12:17:46.000Z</time>
      </trkpt>
      <trkpt lat="37.38765" lon="-6.00285">
        <ele>13.929282</ele>
        <time>2022-04-11T12:17:48.000Z</time>
      </trkpt>
      <trkpt lat="37.38769" lon="-6.00287">
        <ele>13.865621</ele>
        <time>2022-04-11T12:17:50.000Z</time>
      </trkpt>
      <trkpt lat="37.38775" lon="-6.00286">
        <ele>13.759541</ele>
        <time>2022-04-11T12:17:52.000Z</time>
      </trkpt>
      <trkpt lat="37.38783" lon="-6.00287">
        <ele>13.636118</ele>
        <time>2022-04-11T12:17:54.000Z</time>
      </trkpt>
      <trkpt lat="37.38786" lon="-6.00289">
        <ele>13.582326</ele>
        <time>2022-04-11T12:17:55.000Z</time>
      </trkpt>
      <trkpt lat="37.38791" lon="-6.00292">
        <ele>13.495646</ele>
        <time>2022-04-11T12:17:56.000Z</time>
      </trkpt>
      <trkpt lat="37.38799" lon="-6.00298">
        <ele>13.345505</ele>
        <time>2022-04-11T12:17:58.000Z</time>
      </trkpt>
      <trkpt lat="37.38804" lon="-6.00301">
        <ele>13.266767</ele>
        <time>2022-04-11T12:17:59.000Z</time>
      </trkpt>
      <trkpt lat="37.38808" lon="-6.00302">
        <ele>13.2089</ele>
        <time>2022-04-11T12:18:00.000Z</time>
      </trkpt>
      <trkpt lat="37.38817" lon="-6.00305">
        <ele>13.220854</ele>
        <time>2022-04-11T12:18:02.000Z</time>
      </trkpt>
      <trkpt lat="37.38822" lon="-6.00304">
        <ele>13.226852</ele>
        <time>2022-04-11T12:18:03.000Z</time>
      </trkpt>
      <trkpt lat="37.38828" lon="-6.00305">
        <ele>13.233806</ele>
        <time>2022-04-11T12:18:04.000Z</time>
      </trkpt>
      <trkpt lat="37.38839" lon="-6.00307">
        <ele>13.247126</ele>
        <time>2022-04-11T12:18:06.000Z</time>
      </trkpt>
      <trkpt lat="37.38856" lon="-6.00312">
        <ele>13.268663</ele>
        <time>2022-04-11T12:18:09.000Z</time>
      </trkpt>
      <trkpt lat="37.38875" lon="-6.00332">
        <ele>13.297443</ele>
        <time>2022-04-11T12:18:13.000Z</time>
      </trkpt>
      <trkpt lat="37.38883" lon="-6.00337">
        <ele>13.308882</ele>
        <time>2022-04-11T12:18:15.000Z</time>
      </trkpt>
      <trkpt lat="37.38892" lon="-6.0034">
        <ele>13.319121</ele>
        <time>2022-04-11T12:18:17.000Z</time>
      </trkpt>
      <trkpt lat="37.389" lon="-6.00341">
        <ele>13.328982</ele>
        <time>2022-04-11T12:18:19.000Z</time>
      </trkpt>
      <trkpt lat="37.3891" lon="-6.00343">
        <ele>13.34107</ele>
        <time>2022-04-11T12:18:21.000Z</time>
      </trkpt>
      <trkpt lat="37.38918" lon="-6.00351">
        <ele>13.354045</ele>
        <time>2022-04-11T12:18:23.000Z</time>
      </trkpt>
      <trkpt lat="37.3893" lon="-6.00348">
        <ele>13.368559</ele>
        <time>2022-04-11T12:18:25.000Z</time>
      </trkpt>
      <trkpt lat="37.38941" lon="-6.00338">
        <ele>13.384412</ele>
        <time>2022-04-11T12:18:27.000Z</time>
      </trkpt>
      <trkpt lat="37.38946" lon="-6.00335">
        <ele>13.390911</ele>
        <time>2022-04-11T12:18:28.000Z</time>
      </trkpt>
      <trkpt lat="37.38958" lon="-6.00346">
        <ele>13.40945</ele>
        <time>2022-04-11T12:18:32.000Z</time>
      </trkpt>
      <trkpt lat="37.38965" lon="-6.00354">
        <ele>13.421112</ele>
        <time>2022-04-11T12:18:36.000Z</time>
      </trkpt>
      <trkpt lat="37.38965" lon="-6.00354">
        <ele>13.421112</ele>
        <time>2022-04-11T12:18:37.000Z</time>
      </trkpt>
      <trkpt lat="37.38966" lon="-6.00357">
        <ele>13.423469</ele>
        <time>2022-04-11T12:18:42.000Z</time>
      </trkpt>
      <trkpt lat="37.38966" lon="-6.00359">
        <ele>13.398343</ele>
        <time>2022-04-11T12:18:43.000Z</time>
      </trkpt>
      <trkpt lat="37.38962" lon="-6.00362">
        <ele>13.320623</ele>
        <time>2022-04-11T12:18:45.000Z</time>
      </trkpt>
      <trkpt lat="37.38957" lon="-6.0036">
        <ele>13.214336</ele>
        <time>2022-04-11T12:18:47.000Z</time>
      </trkpt>
      <trkpt lat="37.38947" lon="-6.00363">
        <ele>13.017111</ele>
        <time>2022-04-11T12:18:50.000Z</time>
      </trkpt>
      <trkpt lat="37.3894" lon="-6.00369">
        <ele>12.864937</ele>
        <time>2022-04-11T12:18:52.000Z</time>
      </trkpt>
      <trkpt lat="37.3893" lon="-6.00384">
        <ele>12.558239</ele>
        <time>2022-04-11T12:18:56.000Z</time>
      </trkpt>
      <trkpt lat="37.38929" lon="-6.00389">
        <ele>12.475443</ele>
        <time>2022-04-11T12:18:57.000Z</time>
      </trkpt>
      <trkpt lat="37.38927" lon="-6.00396">
        <ele>12.373481</ele>
        <time>2022-04-11T12:18:58.000Z</time>
      </trkpt>
      <trkpt lat="37.38924" lon="-6.0042">
        <ele>11.990273</ele>
        <time>2022-04-11T12:19:02.000Z</time>
      </trkpt>
      <trkpt lat="37.38924" lon="-6.00435">
        <ele>11.770411</ele>
        <time>2022-04-11T12:19:04.000Z</time>
      </trkpt>
      <trkpt lat="37.38924" lon="-6.00442">
        <ele>11.654951</ele>
        <time>2022-04-11T12:19:05.000Z</time>
      </trkpt>
      <trkpt lat="37.38925" lon="-6.0045">
        <ele>11.539962</ele>
        <time>2022-04-11T12:19:06.000Z</time>
      </trkpt>
      <trkpt lat="37.38927" lon="-6.00457">
        <ele>11.422163</ele>
        <time>2022-04-11T12:19:07.000Z</time>
      </trkpt>
      <trkpt lat="37.38929" lon="-6.00466">
        <ele>11.282499</ele>
        <time>2022-04-11T12:19:08.000Z</time>
      </trkpt>
      <trkpt lat="37.38933" lon="-6.0048">
        <ele>11.049795</ele>
        <time>2022-04-11T12:19:10.000Z</time>
      </trkpt>
      <trkpt lat="37.38939" lon="-6.00493">
        <ele>10.826725</ele>
        <time>2022-04-11T12:19:12.000Z</time>
      </trkpt>
      <trkpt lat="37.38942" lon="-6.00498">
        <ele>10.724478</ele>
        <time>2022-04-11T12:19:13.000Z</time>
      </trkpt>
      <trkpt lat="37.38955" lon="-6.00515">
        <ele>10.36117</ele>
        <time>2022-04-11T12:19:17.000Z</time>
      </trkpt>
      <trkpt lat="37.38967" lon="-6.00526">
        <ele>10.072983</ele>
        <time>2022-04-11T12:19:20.000Z</time>
      </trkpt>
      <trkpt lat="37.38971" lon="-6.00529">
        <ele>9.97434</ele>
        <time>2022-04-11T12:19:21.000Z</time>
      </trkpt>
      <trkpt lat="37.38976" lon="-6.00531">
        <ele>9.963447</ele>
        <time>2022-04-11T12:19:22.000Z</time>
      </trkpt>
      <trkpt lat="37.39005" lon="-6.00543">
        <ele>10.106438</ele>
        <time>2022-04-11T12:19:28.000Z</time>
      </trkpt>
      <trkpt lat="37.39014" lon="-6.00547">
        <ele>10.150355</ele>
        <time>2022-04-11T12:19:30.000Z</time>
      </trkpt>
      <trkpt lat="37.39025" lon="-6.00551">
        <ele>10.201789</ele>
        <time>2022-04-11T12:19:33.000Z</time>
      </trkpt>
      <trkpt lat="37.39027" lon="-6.00553">
        <ele>10.213943</ele>
        <time>2022-04-11T12:19:34.000Z</time>
      </trkpt>
      <trkpt lat="37.39036" lon="-6.00561">
        <ele>10.262202</ele>
        <time>2022-04-11T12:19:39.000Z</time>
      </trkpt>
      <trkpt lat="37.39052" lon="-6.00564">
        <ele>10.336245</ele>
        <time>2022-04-11T12:19:43.000Z</time>
      </trkpt>
      <trkpt lat="37.39072" lon="-6.00562">
        <ele>10.432294</ele>
        <time>2022-04-11T12:19:46.000Z</time>
      </trkpt>
      <trkpt lat="37.39087" lon="-6.00564">
        <ele>10.500575</ele>
        <time>2022-04-11T12:19:49.000Z</time>
      </trkpt>
      <trkpt lat="37.39117" lon="-6.00566">
        <ele>10.638393</ele>
        <time>2022-04-11T12:19:55.000Z</time>
      </trkpt>
      <trkpt lat="37.39127" lon="-6.00566">
        <ele>10.684552</ele>
        <time>2022-04-11T12:19:57.000Z</time>
      </trkpt>
      <trkpt lat="37.39174" lon="-6.00564">
        <ele>10.825837</ele>
        <time>2022-04-11T12:20:06.000Z</time>
      </trkpt>
      <trkpt lat="37.39217" lon="-6.00559">
        <ele>10.90345</ele>
        <time>2022-04-11T12:20:14.000Z</time>
      </trkpt>
      <trkpt lat="37.39222" lon="-6.00558">
        <ele>10.913299</ele>
        <time>2022-04-11T12:20:15.000Z</time>
      </trkpt>
      <trkpt lat="37.3928" lon="-6.00544">
        <ele>11.019454</ele>
        <time>2022-04-11T12:20:26.000Z</time>
      </trkpt>
      <trkpt lat="37.39285" lon="-6.00543">
        <ele>11.028295</ele>
        <time>2022-04-11T12:20:27.000Z</time>
      </trkpt>
      <trkpt lat="37.39301" lon="-6.00537">
        <ele>11.058659</ele>
        <time>2022-04-11T12:20:31.000Z</time>
      </trkpt>
      <trkpt lat="37.39305" lon="-6.00535">
        <ele>11.066021</ele>
        <time>2022-04-11T12:20:32.000Z</time>
      </trkpt>
      <trkpt lat="37.39309" lon="-6.00534">
        <ele>11.07367</ele>
        <time>2022-04-11T12:20:33.000Z</time>
      </trkpt>
      <trkpt lat="37.39328" lon="-6.00534">
        <ele>11.072457</ele>
        <time>2022-04-11T12:20:37.000Z</time>
      </trkpt>
      <trkpt lat="37.39365" lon="-6.00527">
        <ele>10.821803</ele>
        <time>2022-04-11T12:20:44.000Z</time>
      </trkpt>
      <trkpt lat="37.39381" lon="-6.00522">
        <ele>10.704503</ele>
        <time>2022-04-11T12:20:47.000Z</time>
      </trkpt>
      <trkpt lat="37.39404" lon="-6.00514">
        <ele>10.541191</ele>
        <time>2022-04-11T12:20:51.000Z</time>
      </trkpt>
      <trkpt lat="37.39431" lon="-6.00501">
        <ele>10.340919</ele>
        <time>2022-04-11T12:20:56.000Z</time>
      </trkpt>
      <trkpt lat="37.39446" lon="-6.00493">
        <ele>10.232395</ele>
        <time>2022-04-11T12:20:59.000Z</time>
      </trkpt>
      <trkpt lat="37.39465" lon="-6.00484">
        <ele>10.094965</ele>
        <time>2022-04-11T12:21:03.000Z</time>
      </trkpt>
      <trkpt lat="37.39479" lon="-6.00477">
        <ele>9.989592</ele>
        <time>2022-04-11T12:21:06.000Z</time>
      </trkpt>
      <trkpt lat="37.39488" lon="-6.00472">
        <ele>9.921115</ele>
        <time>2022-04-11T12:21:08.000Z</time>
      </trkpt>
      <trkpt lat="37.39518" lon="-6.00454">
        <ele>9.782815</ele>
        <time>2022-04-11T12:21:14.000Z</time>
      </trkpt>
      <trkpt lat="37.39555" lon="-6.00426">
        <ele>9.638718</ele>
        <time>2022-04-11T12:21:22.000Z</time>
      </trkpt>
      <trkpt lat="37.39589" lon="-6.00395">
        <ele>9.499753</ele>
        <time>2022-04-11T12:21:30.000Z</time>
      </trkpt>
      <trkpt lat="37.39603" lon="-6.00381">
        <ele>9.440078</ele>
        <time>2022-04-11T12:21:34.000Z</time>
      </trkpt>
      <trkpt lat="37.39613" lon="-6.00374">
        <ele>9.402445</ele>
        <time>2022-04-11T12:21:36.000Z</time>
      </trkpt>
      <trkpt lat="37.39654" lon="-6.00335">
        <ele>9.262344</ele>
        <time>2022-04-11T12:21:46.000Z</time>
      </trkpt>
      <trkpt lat="37.39686" lon="-6.00304">
        <ele>9.2369</ele>
        <time>2022-04-11T12:21:54.000Z</time>
      </trkpt>
      <trkpt lat="37.39695" lon="-6.00296">
        <ele>9.230422</ele>
        <time>2022-04-11T12:21:56.000Z</time>
      </trkpt>
      <trkpt lat="37.3972" lon="-6.00272">
        <ele>9.2104</ele>
        <time>2022-04-11T12:22:02.000Z</time>
      </trkpt>
      <trkpt lat="37.39732" lon="-6.00262">
        <ele>9.20124</ele>
        <time>2022-04-11T12:22:05.000Z</time>
      </trkpt>
      <trkpt lat="37.3976" lon="-6.00236">
        <ele>9.18</ele>
        <time>2022-04-11T12:22:11.000Z</time>
      </trkpt>
      <trkpt lat="37.39768" lon="-6.00228">
        <ele>9.173565</ele>
        <time>2022-04-11T12:22:13.000Z</time>
      </trkpt>
      <trkpt lat="37.39802" lon="-6.00195">
        <ele>9.156944</ele>
        <time>2022-04-11T12:22:20.000Z</time>
      </trkpt>
      <trkpt lat="37.39814" lon="-6.00183">
        <ele>9.156976</ele>
        <time>2022-04-11T12:22:23.000Z</time>
      </trkpt>
      <trkpt lat="37.39826" lon="-6.00172">
        <ele>9.157008</ele>
        <time>2022-04-11T12:22:26.000Z</time>
      </trkpt>
      <trkpt lat="37.39857" lon="-6.00143">
        <ele>9.15709</ele>
        <time>2022-04-11T12:22:34.000Z</time>
      </trkpt>
      <trkpt lat="37.39893" lon="-6.00109">
        <ele>9.157184</ele>
        <time>2022-04-11T12:22:42.000Z</time>
      </trkpt>
      <trkpt lat="37.3993" lon="-6.00073">
        <ele>9.157284</ele>
        <time>2022-04-11T12:22:50.000Z</time>
      </trkpt>
      <trkpt lat="37.39954" lon="-6.00051">
        <ele>9.132473</ele>
        <time>2022-04-11T12:22:55.000Z</time>
      </trkpt>
      <trkpt lat="37.39973" lon="-6.00035">
        <ele>9.111504</ele>
        <time>2022-04-11T12:22:59.000Z</time>
      </trkpt>
      <trkpt lat="37.39978" lon="-6.0003">
        <ele>9.105922</ele>
        <time>2022-04-11T12:23:00.000Z</time>
      </trkpt>
      <trkpt lat="37.4002" lon="-5.99991">
        <ele>9.057646</ele>
        <time>2022-04-11T12:23:08.000Z</time>
      </trkpt>
      <trkpt lat="37.40066" lon="-5.99948">
        <ele>9.004311</ele>
        <time>2022-04-11T12:23:17.000Z</time>
      </trkpt>
      <trkpt lat="37.40113" lon="-5.99904">
        <ele>8.993079</ele>
        <time>2022-04-11T12:23:26.000Z</time>
      </trkpt>
      <trkpt lat="37.40128" lon="-5.99889">
        <ele>8.993777</ele>
        <time>2022-04-11T12:23:29.000Z</time>
      </trkpt>
      <trkpt lat="37.40133" lon="-5.99884">
        <ele>8.994014</ele>
        <time>2022-04-11T12:23:30.000Z</time>
      </trkpt>
      <trkpt lat="37.40179" lon="-5.99842">
        <ele>8.996041</ele>
        <time>2022-04-11T12:23:39.000Z</time>
      </trkpt>
      <trkpt lat="37.40184" lon="-5.99838">
        <ele>8.996285</ele>
        <time>2022-04-11T12:23:40.000Z</time>
      </trkpt>
      <trkpt lat="37.40192" lon="-5.9983">
        <ele>8.996645</ele>
        <time>2022-04-11T12:23:42.000Z</time>
      </trkpt>
      <trkpt lat="37.40207" lon="-5.99817">
        <ele>8.997292</ele>
        <time>2022-04-11T12:23:45.000Z</time>
      </trkpt>
      <trkpt lat="37.40214" lon="-5.9981">
        <ele>8.997635</ele>
        <time>2022-04-11T12:23:47.000Z</time>
      </trkpt>
      <trkpt lat="37.40219" lon="-5.99805">
        <ele>8.997867</ele>
        <time>2022-04-11T12:23:48.000Z</time>
      </trkpt>
      <trkpt lat="37.40241" lon="-5.99785">
        <ele>9.032118</ele>
        <time>2022-04-11T12:23:53.000Z</time>
      </trkpt>
      <trkpt lat="37.40264" lon="-5.99764">
        <ele>9.073588</ele>
        <time>2022-04-11T12:23:58.000Z</time>
      </trkpt>
      <trkpt lat="37.40299" lon="-5.99729">
        <ele>9.138521</ele>
        <time>2022-04-11T12:24:06.000Z</time>
      </trkpt>
      <trkpt lat="37.40309" lon="-5.9972">
        <ele>9.156569</ele>
        <time>2022-04-11T12:24:08.000Z</time>
      </trkpt>
      <trkpt lat="37.40339" lon="-5.99692">
        <ele>9.211222</ele>
        <time>2022-04-11T12:24:15.000Z</time>
      </trkpt>
      <trkpt lat="37.40347" lon="-5.99684">
        <ele>9.226826</ele>
        <time>2022-04-11T12:24:17.000Z</time>
      </trkpt>
      <trkpt lat="37.40381" lon="-5.99654">
        <ele>9.244463</ele>
        <time>2022-04-11T12:24:25.000Z</time>
      </trkpt>
      <trkpt lat="37.40396" lon="-5.99642">
        <ele>9.229965</ele>
        <time>2022-04-11T12:24:28.000Z</time>
      </trkpt>
      <trkpt lat="37.40406" lon="-5.99634">
        <ele>9.220102</ele>
        <time>2022-04-11T12:24:30.000Z</time>
      </trkpt>
      <trkpt lat="37.4041" lon="-5.99629">
        <ele>9.215954</ele>
        <time>2022-04-11T12:24:31.000Z</time>
      </trkpt>
      <trkpt lat="37.40428" lon="-5.99612">
        <ele>9.196947</ele>
        <time>2022-04-11T12:24:35.000Z</time>
      </trkpt>
      <trkpt lat="37.40443" lon="-5.99598">
        <ele>9.181989</ele>
        <time>2022-04-11T12:24:38.000Z</time>
      </trkpt>
      <trkpt lat="37.40479" lon="-5.99563">
        <ele>9.144356</ele>
        <time>2022-04-11T12:24:46.000Z</time>
      </trkpt>
      <trkpt lat="37.40507" lon="-5.99537">
        <ele>9.116358</ele>
        <time>2022-04-11T12:24:52.000Z</time>
      </trkpt>
      <trkpt lat="37.40515" lon="-5.99531">
        <ele>9.118141</ele>
        <time>2022-04-11T12:24:54.000Z</time>
      </trkpt>
      <trkpt lat="37.40553" lon="-5.99495">
        <ele>9.180735</ele>
        <time>2022-04-11T12:25:03.000Z</time>
      </trkpt>
      <trkpt lat="37.40585" lon="-5.99466">
        <ele>9.233296</ele>
        <time>2022-04-11T12:25:11.000Z</time>
      </trkpt>
      <trkpt lat="37.40609" lon="-5.99444">
        <ele>9.272648</ele>
        <time>2022-04-11T12:25:18.000Z</time>
      </trkpt>
      <trkpt lat="37.40629" lon="-5.99427">
        <ele>9.304078</ele>
        <time>2022-04-11T12:25:24.000Z</time>
      </trkpt>
      <trkpt lat="37.40632" lon="-5.99424">
        <ele>9.309859</ele>
        <time>2022-04-11T12:25:25.000Z</time>
      </trkpt>
      <trkpt lat="37.40656" lon="-5.99405">
        <ele>9.347277</ele>
        <time>2022-04-11T12:25:31.000Z</time>
      </trkpt>
      <trkpt lat="37.40666" lon="-5.99398">
        <ele>9.35658</ele>
        <time>2022-04-11T12:25:33.000Z</time>
      </trkpt>
      <trkpt lat="37.40675" lon="-5.99391">
        <ele>9.364033</ele>
        <time>2022-04-11T12:25:35.000Z</time>
      </trkpt>
      <trkpt lat="37.40683" lon="-5.99384">
        <ele>9.371333</ele>
        <time>2022-04-11T12:25:37.000Z</time>
      </trkpt>
      <trkpt lat="37.40714" lon="-5.99361">
        <ele>9.396881</ele>
        <time>2022-04-11T12:25:44.000Z</time>
      </trkpt>
      <trkpt lat="37.4076" lon="-5.99327">
        <ele>9.434925</ele>
        <time>2022-04-11T12:25:54.000Z</time>
      </trkpt>
      <trkpt lat="37.40803" lon="-5.99297">
        <ele>9.469519</ele>
        <time>2022-04-11T12:26:03.000Z</time>
      </trkpt>
      <trkpt lat="37.40842" lon="-5.99267">
        <ele>9.439657</ele>
        <time>2022-04-11T12:26:11.000Z</time>
      </trkpt>
      <trkpt lat="37.40889" lon="-5.99232">
        <ele>9.375749</ele>
        <time>2022-04-11T12:26:21.000Z</time>
      </trkpt>
      <trkpt lat="37.40894" lon="-5.99228">
        <ele>9.369154</ele>
        <time>2022-04-11T12:26:22.000Z</time>
      </trkpt>
      <trkpt lat="37.40924" lon="-5.99206">
        <ele>9.329579</ele>
        <time>2022-04-11T12:26:28.000Z</time>
      </trkpt>
      <trkpt lat="37.40947" lon="-5.99188">
        <ele>9.297769</ele>
        <time>2022-04-11T12:26:33.000Z</time>
      </trkpt>
      <trkpt lat="37.40976" lon="-5.99165">
        <ele>9.265927</ele>
        <time>2022-04-11T12:26:39.000Z</time>
      </trkpt>
      <trkpt lat="37.40987" lon="-5.99157">
        <ele>9.260632</ele>
        <time>2022-04-11T12:26:41.000Z</time>
      </trkpt>
      <trkpt lat="37.41001" lon="-5.99146">
        <ele>9.253609</ele>
        <time>2022-04-11T12:26:44.000Z</time>
      </trkpt>
      <trkpt lat="37.41049" lon="-5.99108">
        <ele>9.2293</ele>
        <time>2022-04-11T12:26:54.000Z</time>
      </trkpt>
      <trkpt lat="37.41093" lon="-5.99075">
        <ele>9.207849</ele>
        <time>2022-04-11T12:27:03.000Z</time>
      </trkpt>
      <trkpt lat="37.41108" lon="-5.99065">
        <ele>9.200455</ele>
        <time>2022-04-11T12:27:06.000Z</time>
      </trkpt>
      <trkpt lat="37.41112" lon="-5.99061">
        <ele>9.198091</ele>
        <time>2022-04-11T12:27:07.000Z</time>
      </trkpt>
      <trkpt lat="37.41126" lon="-5.99049">
        <ele>9.261297</ele>
        <time>2022-04-11T12:27:10.000Z</time>
      </trkpt>
      <trkpt lat="37.41131" lon="-5.99046">
        <ele>9.319087</ele>
        <time>2022-04-11T12:27:11.000Z</time>
      </trkpt>
      <trkpt lat="37.41152" lon="-5.99031">
        <ele>9.566803</ele>
        <time>2022-04-11T12:27:15.000Z</time>
      </trkpt>
      <trkpt lat="37.41183" lon="-5.99009">
        <ele>9.925437</ele>
        <time>2022-04-11T12:27:21.000Z</time>
      </trkpt>
      <trkpt lat="37.41203" lon="-5.98993">
        <ele>10.163865</ele>
        <time>2022-04-11T12:27:26.000Z</time>
      </trkpt>
      <trkpt lat="37.41206" lon="-5.9899">
        <ele>10.206545</ele>
        <time>2022-04-11T12:27:27.000Z</time>
      </trkpt>
      <trkpt lat="37.41228" lon="-5.98975">
        <ele>10.464853</ele>
        <time>2022-04-11T12:27:33.000Z</time>
      </trkpt>
      <trkpt lat="37.41236" lon="-5.98969">
        <ele>10.554102</ele>
        <time>2022-04-11T12:27:35.000Z</time>
      </trkpt>
      <trkpt lat="37.41245" lon="-5.98962">
        <ele>10.662772</ele>
        <time>2022-04-11T12:27:37.000Z</time>
      </trkpt>
      <trkpt lat="37.41253" lon="-5.9896">
        <ele>10.747176</ele>
        <time>2022-04-11T12:27:39.000Z</time>
      </trkpt>
      <trkpt lat="37.41258" lon="-5.9896">
        <ele>10.796077</ele>
        <time>2022-04-11T12:27:40.000Z</time>
      </trkpt>
      <trkpt lat="37.41281" lon="-5.98961">
        <ele>11.0272</ele>
        <time>2022-04-11T12:27:45.000Z</time>
      </trkpt>
      <trkpt lat="37.4129" lon="-5.98962">
        <ele>11.03857</ele>
        <time>2022-04-11T12:27:47.000Z</time>
      </trkpt>
      <trkpt lat="37.41325" lon="-5.98961">
        <ele>11.0813</ele>
        <time>2022-04-11T12:27:54.000Z</time>
      </trkpt>
      <trkpt lat="37.41328" lon="-5.98962">
        <ele>11.085498</ele>
        <time>2022-04-11T12:27:55.000Z</time>
      </trkpt>
      <trkpt lat="37.41343" lon="-5.98962">
        <ele>11.104489</ele>
        <time>2022-04-11T12:27:59.000Z</time>
      </trkpt>
      <trkpt lat="37.41369" lon="-5.98949">
        <ele>11.139512</ele>
        <time>2022-04-11T12:28:04.000Z</time>
      </trkpt>
      <trkpt lat="37.41397" lon="-5.98925">
        <ele>11.181607</ele>
        <time>2022-04-11T12:28:10.000Z</time>
      </trkpt>
      <trkpt lat="37.41401" lon="-5.98921">
        <ele>11.188033</ele>
        <time>2022-04-11T12:28:11.000Z</time>
      </trkpt>
      <trkpt lat="37.41417" lon="-5.98896">
        <ele>11.21943</ele>
        <time>2022-04-11T12:28:16.000Z</time>
      </trkpt>
      <trkpt lat="37.41425" lon="-5.98889">
        <ele>11.231751</ele>
        <time>2022-04-11T12:28:18.000Z</time>
      </trkpt>
      <trkpt lat="37.4143" lon="-5.98887">
        <ele>11.238186</ele>
        <time>2022-04-11T12:28:19.000Z</time>
      </trkpt>
      <trkpt lat="37.41461" lon="-5.98878">
        <ele>11.185524</ele>
        <time>2022-04-11T12:28:25.000Z</time>
      </trkpt>
      <trkpt lat="37.41472" lon="-5.98876">
        <ele>11.155084</ele>
        <time>2022-04-11T12:28:27.000Z</time>
      </trkpt>
      <trkpt lat="37.41517" lon="-5.98863">
        <ele>11.020851</ele>
        <time>2022-04-11T12:28:36.000Z</time>
      </trkpt>
      <trkpt lat="37.41572" lon="-5.98846">
        <ele>10.854125</ele>
        <time>2022-04-11T12:28:47.000Z</time>
      </trkpt>
      <trkpt lat="37.41588" lon="-5.98842">
        <ele>10.806705</ele>
        <time>2022-04-11T12:28:50.000Z</time>
      </trkpt>
      <trkpt lat="37.41608" lon="-5.98836">
        <ele>10.746543</ele>
        <time>2022-04-11T12:28:54.000Z</time>
      </trkpt>
      <trkpt lat="37.41638" lon="-5.98825">
        <ele>10.690002</ele>
        <time>2022-04-11T12:29:00.000Z</time>
      </trkpt>
      <trkpt lat="37.41657" lon="-5.98818">
        <ele>10.661174</ele>
        <time>2022-04-11T12:29:04.000Z</time>
      </trkpt>
      <trkpt lat="37.41686" lon="-5.9881">
        <ele>10.618803</ele>
        <time>2022-04-11T12:29:10.000Z</time>
      </trkpt>
      <trkpt lat="37.41714" lon="-5.98802">
        <ele>10.577139</ele>
        <time>2022-04-11T12:29:16.000Z</time>
      </trkpt>
      <trkpt lat="37.41733" lon="-5.98795">
        <ele>10.548913</ele>
        <time>2022-04-11T12:29:20.000Z</time>
      </trkpt>
      <trkpt lat="37.41776" lon="-5.98786">
        <ele>10.484361</ele>
        <time>2022-04-11T12:29:29.000Z</time>
      </trkpt>
      <trkpt lat="37.41791" lon="-5.98784">
        <ele>10.464079</ele>
        <time>2022-04-11T12:29:32.000Z</time>
      </trkpt>
      <trkpt lat="37.418" lon="-5.98783">
        <ele>10.463205</ele>
        <time>2022-04-11T12:29:34.000Z</time>
      </trkpt>
      <trkpt lat="37.41819" lon="-5.98781">
        <ele>10.461422</ele>
        <time>2022-04-11T12:29:38.000Z</time>
      </trkpt>
      <trkpt lat="37.41828" lon="-5.9878">
        <ele>10.46053</ele>
        <time>2022-04-11T12:29:40.000Z</time>
      </trkpt>
      <trkpt lat="37.41833" lon="-5.98779">
        <ele>10.460065</ele>
        <time>2022-04-11T12:29:41.000Z</time>
      </trkpt>
      <trkpt lat="37.41847" lon="-5.98778">
        <ele>10.458767</ele>
        <time>2022-04-11T12:29:44.000Z</time>
      </trkpt>
      <trkpt lat="37.41866" lon="-5.98775">
        <ele>10.456972</ele>
        <time>2022-04-11T12:29:48.000Z</time>
      </trkpt>
      <trkpt lat="37.41879" lon="-5.98773">
        <ele>10.455659</ele>
        <time>2022-04-11T12:29:51.000Z</time>
      </trkpt>
      <trkpt lat="37.41893" lon="-5.98772">
        <ele>10.454368</ele>
        <time>2022-04-11T12:29:54.000Z</time>
      </trkpt>
      <trkpt lat="37.41902" lon="-5.98771">
        <ele>10.453504</ele>
        <time>2022-04-11T12:29:56.000Z</time>
      </trkpt>
      <trkpt lat="37.41916" lon="-5.98769">
        <ele>10.45221</ele>
        <time>2022-04-11T12:29:59.000Z</time>
      </trkpt>
      <trkpt lat="37.41934" lon="-5.98767">
        <ele>10.450436</ele>
        <time>2022-04-11T12:30:03.000Z</time>
      </trkpt>
      <trkpt lat="37.41939" lon="-5.98766">
        <ele>10.44997</ele>
        <time>2022-04-11T12:30:04.000Z</time>
      </trkpt>
      <trkpt lat="37.41944" lon="-5.98765">
        <ele>10.449524</ele>
        <time>2022-04-11T12:30:05.000Z</time>
      </trkpt>
      <trkpt lat="37.41958" lon="-5.98765">
        <ele>10.448228</ele>
        <time>2022-04-11T12:30:08.000Z</time>
      </trkpt>
      <trkpt lat="37.41962" lon="-5.98764">
        <ele>10.447811</ele>
        <time>2022-04-11T12:30:09.000Z</time>
      </trkpt>
      <trkpt lat="37.41971" lon="-5.98764">
        <ele>10.449476</ele>
        <time>2022-04-11T12:30:11.000Z</time>
      </trkpt>
      <trkpt lat="37.41982" lon="-5.98764">
        <ele>10.461242</ele>
        <time>2022-04-11T12:30:13.000Z</time>
      </trkpt>
      <trkpt lat="37.41986" lon="-5.98765">
        <ele>10.466824</ele>
        <time>2022-04-11T12:30:14.000Z</time>
      </trkpt>
      <trkpt lat="37.42031" lon="-5.98773">
        <ele>10.518074</ele>
        <time>2022-04-11T12:30:23.000Z</time>
      </trkpt>
      <trkpt lat="37.42062" lon="-5.98779">
        <ele>10.553484</ele>
        <time>2022-04-11T12:30:30.000Z</time>
      </trkpt>
      <trkpt lat="37.42092" lon="-5.98785">
        <ele>10.588838</ele>
        <time>2022-04-11T12:30:37.000Z</time>
      </trkpt>
      <trkpt lat="37.42134" lon="-5.98792">
        <ele>10.637051</ele>
        <time>2022-04-11T12:30:46.000Z</time>
      </trkpt>
      <trkpt lat="37.42148" lon="-5.98795">
        <ele>10.669767</ele>
        <time>2022-04-11T12:30:49.000Z</time>
      </trkpt>
      <trkpt lat="37.42167" lon="-5.98796">
        <ele>11.029717</ele>
        <time>2022-04-11T12:30:53.000Z</time>
      </trkpt>
      <trkpt lat="37.42199" lon="-5.98801">
        <ele>11.645947</ele>
        <time>2022-04-11T12:31:00.000Z</time>
      </trkpt>
      <trkpt lat="37.42204" lon="-5.98802">
        <ele>11.740365</ele>
        <time>2022-04-11T12:31:01.000Z</time>
      </trkpt>
      <trkpt lat="37.42219" lon="-5.98806">
        <ele>12.020528</ele>
        <time>2022-04-11T12:31:04.000Z</time>
      </trkpt>
      <trkpt lat="37.42227" lon="-5.98808">
        <ele>12.185896</ele>
        <time>2022-04-11T12:31:06.000Z</time>
      </trkpt>
      <trkpt lat="37.42231" lon="-5.98808">
        <ele>12.260092</ele>
        <time>2022-04-11T12:31:07.000Z</time>
      </trkpt>
      <trkpt lat="37.42243" lon="-5.98809">
        <ele>12.481358</ele>
        <time>2022-04-11T12:31:10.000Z</time>
      </trkpt>
      <trkpt lat="37.42261" lon="-5.98821">
        <ele>12.870379</ele>
        <time>2022-04-11T12:31:15.000Z</time>
      </trkpt>
      <trkpt lat="37.42269" lon="-5.98826">
        <ele>13.038938</ele>
        <time>2022-04-11T12:31:17.000Z</time>
      </trkpt>
      <trkpt lat="37.4229" lon="-5.98838">
        <ele>13.482476</ele>
        <time>2022-04-11T12:31:22.000Z</time>
      </trkpt>
      <trkpt lat="37.42294" lon="-5.98841">
        <ele>13.572563</ele>
        <time>2022-04-11T12:31:23.000Z</time>
      </trkpt>
      <trkpt lat="37.42315" lon="-5.9885">
        <ele>13.988814</ele>
        <time>2022-04-11T12:31:28.000Z</time>
      </trkpt>
      <trkpt lat="37.42319" lon="-5.9885">
        <ele>14.067033</ele>
        <time>2022-04-11T12:31:29.000Z</time>
      </trkpt>
      <trkpt lat="37.42323" lon="-5.9885">
        <ele>14.104532</ele>
        <time>2022-04-11T12:31:30.000Z</time>
      </trkpt>
      <trkpt lat="37.42327" lon="-5.9885">
        <ele>14.136724</ele>
        <time>2022-04-11T12:31:31.000Z</time>
      </trkpt>
      <trkpt lat="37.42333" lon="-5.98847">
        <ele>14.192273</ele>
        <time>2022-04-11T12:31:33.000Z</time>
      </trkpt>
      <trkpt lat="37.42341" lon="-5.98834">
        <ele>14.297998</ele>
        <time>2022-04-11T12:31:36.000Z</time>
      </trkpt>
      <trkpt lat="37.42347" lon="-5.98826">
        <ele>14.370886</ele>
        <time>2022-04-11T12:31:38.000Z</time>
      </trkpt>
      <trkpt lat="37.4235" lon="-5.98822">
        <ele>14.404381</ele>
        <time>2022-04-11T12:31:39.000Z</time>
      </trkpt>
      <trkpt lat="37.42356" lon="-5.98816">
        <ele>14.467069</ele>
        <time>2022-04-11T12:31:41.000Z</time>
      </trkpt>
      <trkpt lat="37.42362" lon="-5.98814">
        <ele>14.522982</ele>
        <time>2022-04-11T12:31:43.000Z</time>
      </trkpt>
      <trkpt lat="37.42373" lon="-5.98812">
        <ele>14.616079</ele>
        <time>2022-04-11T12:31:46.000Z</time>
      </trkpt>
      <trkpt lat="37.42385" lon="-5.98814">
        <ele>14.712615</ele>
        <time>2022-04-11T12:31:49.000Z</time>
      </trkpt>
      <trkpt lat="37.42411" lon="-5.98818">
        <ele>14.932557</ele>
        <time>2022-04-11T12:31:56.000Z</time>
      </trkpt>
      <trkpt lat="37.42427" lon="-5.98824">
        <ele>15.064766</ele>
        <time>2022-04-11T12:32:00.000Z</time>
      </trkpt>
      <trkpt lat="37.42439" lon="-5.98824">
        <ele>15.166325</ele>
        <time>2022-04-11T12:32:03.000Z</time>
      </trkpt>
      <trkpt lat="37.42443" lon="-5.98822">
        <ele>15.199639</ele>
        <time>2022-04-11T12:32:04.000Z</time>
      </trkpt>
      <trkpt lat="37.42446" lon="-5.98819">
        <ele>15.230745</ele>
        <time>2022-04-11T12:32:05.000Z</time>
      </trkpt>
      <trkpt lat="37.42452" lon="-5.98812">
        <ele>15.297978</ele>
        <time>2022-04-11T12:32:07.000Z</time>
      </trkpt>
      <trkpt lat="37.42456" lon="-5.9881">
        <ele>15.330712</ele>
        <time>2022-04-11T12:32:08.000Z</time>
      </trkpt>
      <trkpt lat="37.4246" lon="-5.9881">
        <ele>15.363884</ele>
        <time>2022-04-11T12:32:09.000Z</time>
      </trkpt>
      <trkpt lat="37.42471" lon="-5.98814">
        <ele>15.458643</ele>
        <time>2022-04-11T12:32:12.000Z</time>
      </trkpt>
      <trkpt lat="37.42505" lon="-5.98821">
        <ele>15.557793</ele>
        <time>2022-04-11T12:32:20.000Z</time>
      </trkpt>
      <trkpt lat="37.42519" lon="-5.98821">
        <ele>15.557793</ele>
        <time>2022-04-11T12:32:23.000Z</time>
      </trkpt>
      <trkpt lat="37.42538" lon="-5.98819">
        <ele>15.557793</ele>
        <time>2022-04-11T12:32:27.000Z</time>
      </trkpt>
      <trkpt lat="37.4257" lon="-5.98812">
        <ele>15.557793</ele>
        <time>2022-04-11T12:32:34.000Z</time>
      </trkpt>
      <trkpt lat="37.42607" lon="-5.98789">
        <ele>15.557793</ele>
        <time>2022-04-11T12:32:42.000Z</time>
      </trkpt>
      <trkpt lat="37.4264" lon="-5.98761">
        <ele>15.557793</ele>
        <time>2022-04-11T12:32:50.000Z</time>
      </trkpt>
      <trkpt lat="37.42678" lon="-5.98727">
        <ele>15.557793</ele>
        <time>2022-04-11T12:33:00.000Z</time>
      </trkpt>
      <trkpt lat="37.42691" lon="-5.98714">
        <ele>15.557793</ele>
        <time>2022-04-11T12:33:05.000Z</time>
      </trkpt>
      <trkpt lat="37.42691" lon="-5.98712">
        <ele>15.557793</ele>
        <time>2022-04-11T12:33:08.000Z</time>
      </trkpt>
      <trkpt lat="37.42691" lon="-5.98712">
        <ele>15.557793</ele>
        <time>2022-04-11T12:33:09.000Z</time>
      </trkpt>
    </trkseg>
  </trk>
</gpx>